SIV469 LSZH-AT98
Flight info
| Callsign | SIV469 |
|---|---|
| Flight time | N/A |
| Altitude | 35000 |
| Route | GERSA N850 ODINA DCT BORDI DCT GARPU DCT CIRTA UA605 CSO UM998 BOD/N0488F370 UR978 AS UA604 DLA/N0493F380 UG857 LV/N0490F390 UR526 RAPIM/N0493F380 UQ561 NERUP DCT BOSNI/N0487F400 DCT 16S008E 22S008E 27S008E 33S008E 38S008E 44S008E 49S008E 55S008E/N0487F430 60S008E 66S008E |
| Aircraft | A359/H-SDE2E3GHIJ3J4J5LM1ORWXY/LB1D1 |
Departure
| Time | N/A |
|---|---|
| Airport | Zürich Airport (LSZH) |
Arrival
| Time | 2026-04-21 12:33 |
|---|---|
| Airport | (Duplicate)Wolf's Fang Runway (AT98) |
| Time | Latitude | Longitude | Altitude | Speed | Heading |
|---|---|---|---|---|---|
| 2026-04-20 20:40 | 46.46845 | 8.61367 | 19921 ft | 455 kts | 179° |
| 2026-04-20 20:40 | 46.43682 | 8.61808 | 20184 ft | 457 kts | 179° |
| 2026-04-20 20:41 | 46.40513 | 8.62260 | 20489 ft | 459 kts | 179° |
| 2026-04-20 20:41 | 46.37329 | 8.62714 | 20821 ft | 460 kts | 180° |
| 2026-04-20 20:41 | 46.34134 | 8.63165 | 21170 ft | 463 kts | 179° |
| 2026-04-20 20:41 | 46.30906 | 8.63621 | 21438 ft | 467 kts | 179° |
| 2026-04-20 20:42 | 46.27666 | 8.64077 | 21688 ft | 470 kts | 180° |
| 2026-04-20 20:42 | 46.24444 | 8.64525 | 22004 ft | 471 kts | 180° |
| 2026-04-20 20:42 | 46.21138 | 8.64986 | 22304 ft | 471 kts | 179° |
| 2026-04-20 20:42 | 46.17869 | 8.65444 | 22592 ft | 474 kts | 179° |
| 2026-04-20 20:43 | 46.14620 | 8.65880 | 22866 ft | 475 kts | 181° |
| 2026-04-20 20:43 | 46.11288 | 8.65902 | 23232 ft | 470 kts | 189° |
| 2026-04-20 20:43 | 46.08111 | 8.65232 | 23544 ft | 466 kts | 199° |
| 2026-04-20 20:43 | 46.04929 | 8.64065 | 23779 ft | 466 kts | 201° |
| 2026-04-20 20:44 | 46.01856 | 8.62756 | 24075 ft | 466 kts | 202° |
| 2026-04-20 20:44 | 45.98764 | 8.61351 | 24401 ft | 466 kts | 203° |
| 2026-04-20 20:44 | 45.95678 | 8.59911 | 24690 ft | 467 kts | 204° |
| 2026-04-20 20:44 | 45.92580 | 8.58461 | 24926 ft | 470 kts | 204° |
| 2026-04-20 20:45 | 45.89462 | 8.57013 | 25170 ft | 472 kts | 203° |
| 2026-04-20 20:45 | 45.86332 | 8.55574 | 25421 ft | 474 kts | 203° |
| 2026-04-20 20:45 | 45.83186 | 8.54143 | 25646 ft | 475 kts | 203° |
| 2026-04-20 20:45 | 45.80029 | 8.52714 | 25941 ft | 476 kts | 202° |
| 2026-04-20 20:46 | 45.76867 | 8.51288 | 26178 ft | 478 kts | 203° |
| 2026-04-20 20:46 | 45.73692 | 8.49861 | 26426 ft | 479 kts | 203° |
| 2026-04-20 20:46 | 45.70502 | 8.48429 | 26676 ft | 481 kts | 203° |
| 2026-04-20 20:46 | 45.67305 | 8.46995 | 26920 ft | 482 kts | 203° |
| 2026-04-20 20:47 | 45.64102 | 8.45561 | 27142 ft | 484 kts | 203° |
| 2026-04-20 20:47 | 45.60885 | 8.44121 | 27375 ft | 485 kts | 203° |
| 2026-04-20 20:47 | 45.57655 | 8.42677 | 27594 ft | 487 kts | 203° |
| 2026-04-20 20:47 | 45.54418 | 8.41233 | 27822 ft | 488 kts | 203° |
| 2026-04-20 20:48 | 45.51175 | 8.39785 | 28026 ft | 490 kts | 203° |
| 2026-04-20 20:48 | 45.47920 | 8.38333 | 28235 ft | 491 kts | 203° |
| 2026-04-20 20:48 | 45.44652 | 8.36877 | 28418 ft | 493 kts | 203° |
| 2026-04-20 20:48 | 45.41378 | 8.35420 | 28605 ft | 494 kts | 203° |
| 2026-04-20 20:49 | 45.38150 | 8.33986 | 28845 ft | 494 kts | 203° |
| 2026-04-20 20:49 | 45.34815 | 8.32509 | 29169 ft | 493 kts | 203° |
| 2026-04-20 20:49 | 45.31545 | 8.31064 | 29478 ft | 492 kts | 203° |
| 2026-04-20 20:49 | 45.28277 | 8.29623 | 29763 ft | 491 kts | 204° |
| 2026-04-20 20:50 | 45.25021 | 8.28185 | 30006 ft | 490 kts | 203° |
| 2026-04-20 20:50 | 45.21765 | 8.26752 | 30238 ft | 489 kts | 203° |
| 2026-04-20 20:50 | 45.18521 | 8.25325 | 30469 ft | 489 kts | 203° |
| 2026-04-20 20:50 | 45.15276 | 8.23898 | 30685 ft | 488 kts | 203° |
| 2026-04-20 20:51 | 45.12035 | 8.22471 | 30909 ft | 488 kts | 204° |
| 2026-04-20 20:51 | 45.08793 | 8.21044 | 31100 ft | 487 kts | 203° |
| 2026-04-20 20:51 | 45.05565 | 8.19627 | 31404 ft | 485 kts | 203° |
| 2026-04-20 20:51 | 45.02352 | 8.18219 | 31610 ft | 484 kts | 203° |
| 2026-04-20 20:52 | 44.99174 | 8.16828 | 31809 ft | 483 kts | 203° |
| 2026-04-20 20:52 | 44.95963 | 8.15423 | 31977 ft | 483 kts | 203° |
| 2026-04-20 20:52 | 44.92752 | 8.14020 | 32179 ft | 483 kts | 203° |
| 2026-04-20 20:52 | 44.89552 | 8.12625 | 32342 ft | 482 kts | 203° |
| 2026-04-20 20:53 | 44.86355 | 8.11233 | 32620 ft | 479 kts | 203° |
| 2026-04-20 20:53 | 44.83176 | 8.09851 | 32827 ft | 478 kts | 203° |
| 2026-04-20 20:53 | 44.80005 | 8.08473 | 32988 ft | 478 kts | 203° |
| 2026-04-20 20:53 | 44.76826 | 8.07093 | 33163 ft | 477 kts | 203° |
| 2026-04-20 20:54 | 44.73655 | 8.05718 | 33317 ft | 477 kts | 204° |
| 2026-04-20 20:54 | 44.70483 | 8.04345 | 33428 ft | 477 kts | 204° |
| 2026-04-20 20:54 | 44.64122 | 8.01591 | 33596 ft | 479 kts | 204° |
| 2026-04-20 20:55 | 44.60944 | 8.00220 | 33768 ft | 477 kts | 204° |
| 2026-04-20 20:55 | 44.57773 | 7.98855 | 33917 ft | 477 kts | 204° |
| 2026-04-20 20:55 | 44.54599 | 7.97492 | 34032 ft | 477 kts | 204° |
| 2026-04-20 20:55 | 44.51432 | 7.96131 | 34129 ft | 476 kts | 203° |
| 2026-04-20 20:56 | 44.48267 | 7.94773 | 34273 ft | 475 kts | 203° |
| 2026-04-20 20:56 | 44.45103 | 7.93420 | 34368 ft | 476 kts | 203° |
| 2026-04-20 20:56 | 44.38767 | 7.90714 | 34516 ft | 476 kts | 203° |
| 2026-04-20 20:57 | 44.32433 | 7.88010 | 34614 ft | 477 kts | 203° |
| 2026-04-20 20:57 | 44.26053 | 7.85285 | 34688 ft | 479 kts | 203° |
| 2026-04-20 20:58 | 44.22864 | 7.83932 | 34792 ft | 479 kts | 202° |
| 2026-04-20 20:58 | 44.19669 | 7.82609 | 34893 ft | 479 kts | 202° |
| 2026-04-20 20:58 | 44.13331 | 7.79945 | 34937 ft | 480 kts | 203° |
| 2026-04-20 20:59 | 44.06915 | 7.77227 | 34939 ft | 484 kts | 203° |
| 2026-04-20 20:59 | 44.00340 | 7.74870 | 34941 ft | 492 kts | 196° |
| 2026-04-20 21:00 | 43.93559 | 7.73257 | 34934 ft | 496 kts | 195° |
| 2026-04-20 21:00 | 43.86763 | 7.71751 | 34947 ft | 494 kts | 195° |
| 2026-04-20 21:01 | 43.79983 | 7.70264 | 34943 ft | 493 kts | 195° |
| 2026-04-20 21:01 | 43.73208 | 7.68771 | 34936 ft | 493 kts | 195° |
| 2026-04-20 21:02 | 43.66443 | 7.67271 | 34937 ft | 492 kts | 195° |
| 2026-04-20 21:02 | 43.59677 | 7.65778 | 34926 ft | 492 kts | 195° |
| 2026-04-20 21:03 | 43.52915 | 7.64297 | 34931 ft | 492 kts | 195° |
| 2026-04-20 21:03 | 43.46156 | 7.62828 | 34933 ft | 493 kts | 195° |
| 2026-04-20 21:04 | 43.39379 | 7.61354 | 34932 ft | 493 kts | 195° |
| 2026-04-20 21:04 | 43.33741 | 7.60127 | 34932 ft | 493 kts | 195° |
| 2026-04-20 21:05 | 43.26970 | 7.58655 | 34925 ft | 493 kts | 195° |
| 2026-04-20 21:05 | 43.20200 | 7.57186 | 34930 ft | 493 kts | 195° |
| 2026-04-20 21:06 | 43.13432 | 7.55723 | 34932 ft | 492 kts | 195° |
| 2026-04-20 21:06 | 43.06669 | 7.54264 | 34936 ft | 492 kts | 195° |
| 2026-04-20 21:07 | 42.99900 | 7.52807 | 34935 ft | 492 kts | 195° |
| 2026-04-20 21:07 | 42.93142 | 7.51355 | 34938 ft | 492 kts | 194° |
| 2026-04-20 21:08 | 42.86386 | 7.49907 | 34939 ft | 491 kts | 194° |
| 2026-04-20 21:08 | 42.79632 | 7.48463 | 34945 ft | 491 kts | 194° |
| 2026-04-20 21:09 | 42.72917 | 7.47030 | 34944 ft | 492 kts | 194° |
| 2026-04-20 21:09 | 42.66144 | 7.45587 | 34945 ft | 493 kts | 194° |
| 2026-04-20 21:10 | 42.59357 | 7.44145 | 34951 ft | 493 kts | 194° |
| 2026-04-20 21:10 | 42.52578 | 7.42708 | 34955 ft | 493 kts | 194° |
| 2026-04-20 21:11 | 42.45796 | 7.41274 | 34952 ft | 493 kts | 194° |
| 2026-04-20 21:11 | 42.39019 | 7.39843 | 34957 ft | 493 kts | 194° |
| 2026-04-20 21:12 | 42.32232 | 7.38413 | 34959 ft | 494 kts | 194° |
| 2026-04-20 21:12 | 42.25434 | 7.36984 | 34966 ft | 495 kts | 193° |
| 2026-04-20 21:13 | 42.18625 | 7.35557 | 34965 ft | 495 kts | 193° |
| 2026-04-20 21:13 | 42.11822 | 7.34133 | 34975 ft | 493 kts | 193° |
| 2026-04-20 21:14 | 42.05050 | 7.32719 | 34963 ft | 492 kts | 193° |
| 2026-04-20 21:14 | 41.98288 | 7.31310 | 34981 ft | 492 kts | 193° |
| 2026-04-20 21:15 | 41.91518 | 7.29902 | 34975 ft | 492 kts | 193° |
| 2026-04-20 21:15 | 41.84767 | 7.28503 | 34978 ft | 491 kts | 193° |
| 2026-04-20 21:16 | 41.77998 | 7.27104 | 34981 ft | 491 kts | 193° |
| 2026-04-20 21:16 | 41.71241 | 7.25708 | 34980 ft | 491 kts | 193° |
| 2026-04-20 21:17 | 41.64486 | 7.24314 | 34982 ft | 491 kts | 193° |
| 2026-04-20 21:17 | 41.57660 | 7.23372 | 34985 ft | 494 kts | 188° |
| 2026-04-20 21:18 | 41.50794 | 7.22784 | 34986 ft | 495 kts | 187° |
| 2026-04-20 21:18 | 41.43915 | 7.22248 | 34990 ft | 496 kts | 187° |
| 2026-04-20 21:19 | 41.37077 | 7.21713 | 34993 ft | 495 kts | 187° |
| 2026-04-20 21:20 | 41.26706 | 7.20885 | 34991 ft | 496 kts | 187° |
| 2026-04-20 21:20 | 41.19817 | 7.20334 | 34990 ft | 496 kts | 187° |
| 2026-04-20 21:21 | 41.12925 | 7.19784 | 34987 ft | 496 kts | 187° |
| 2026-04-20 21:21 | 41.06083 | 7.19239 | 35000 ft | 496 kts | 187° |
| 2026-04-20 21:22 | 40.99195 | 7.18692 | 35001 ft | 496 kts | 187° |
| 2026-04-20 21:22 | 40.92309 | 7.18147 | 34994 ft | 496 kts | 187° |
| 2026-04-20 21:23 | 40.85431 | 7.17603 | 35007 ft | 495 kts | 187° |
| 2026-04-20 21:23 | 40.78561 | 7.17062 | 35008 ft | 494 kts | 187° |
| 2026-04-20 21:24 | 40.71691 | 7.16520 | 34997 ft | 494 kts | 187° |
| 2026-04-20 21:24 | 40.64822 | 7.15979 | 35001 ft | 494 kts | 187° |
| 2026-04-20 21:25 | 40.57952 | 7.15439 | 35003 ft | 494 kts | 187° |
| 2026-04-20 21:25 | 40.51087 | 7.14901 | 35001 ft | 495 kts | 187° |
| 2026-04-20 21:26 | 40.44216 | 7.14364 | 35000 ft | 495 kts | 187° |
| 2026-04-20 21:26 | 40.37340 | 7.13828 | 35003 ft | 495 kts | 187° |
| 2026-04-20 21:27 | 40.30470 | 7.13293 | 35005 ft | 495 kts | 187° |
| 2026-04-20 21:27 | 40.23601 | 7.12759 | 34999 ft | 494 kts | 187° |
| 2026-04-20 21:28 | 40.16732 | 7.12228 | 35004 ft | 494 kts | 187° |
| 2026-04-20 21:28 | 40.09863 | 7.11697 | 35004 ft | 494 kts | 187° |
| 2026-04-20 21:29 | 40.02996 | 7.11167 | 34992 ft | 494 kts | 187° |
| 2026-04-20 21:29 | 39.96124 | 7.10638 | 35004 ft | 495 kts | 187° |
| 2026-04-20 21:30 | 39.89253 | 7.10110 | 35004 ft | 495 kts | 187° |
| 2026-04-20 21:30 | 39.82384 | 7.09582 | 35004 ft | 495 kts | 187° |
| 2026-04-20 21:31 | 39.75512 | 7.09056 | 35006 ft | 495 kts | 187° |
| 2026-04-20 21:31 | 39.68624 | 7.08529 | 35010 ft | 496 kts | 187° |
| 2026-04-20 21:32 | 39.61783 | 7.08007 | 35001 ft | 496 kts | 187° |
| 2026-04-20 21:32 | 39.54899 | 7.07483 | 35003 ft | 496 kts | 187° |
| 2026-04-20 21:33 | 39.48003 | 7.06959 | 35003 ft | 497 kts | 187° |
| 2026-04-20 21:33 | 39.41103 | 7.06436 | 35004 ft | 496 kts | 187° |
| 2026-04-20 21:34 | 39.34212 | 7.05915 | 34998 ft | 496 kts | 187° |
| 2026-04-20 21:34 | 39.27312 | 7.05394 | 35004 ft | 497 kts | 187° |
| 2026-04-20 21:35 | 39.20408 | 7.04874 | 35004 ft | 497 kts | 187° |
| 2026-04-20 21:35 | 39.13508 | 7.04355 | 34991 ft | 497 kts | 187° |
| 2026-04-20 21:36 | 39.06604 | 7.03837 | 35004 ft | 496 kts | 187° |
| 2026-04-20 21:36 | 38.99709 | 7.03321 | 35004 ft | 496 kts | 187° |
| 2026-04-20 21:37 | 38.92858 | 7.02432 | 35004 ft | 494 kts | 192° |
| 2026-04-20 21:37 | 38.86064 | 7.01194 | 34999 ft | 493 kts | 192° |
| 2026-04-20 21:38 | 38.79275 | 6.99995 | 35001 ft | 492 kts | 191° |
| 2026-04-20 21:38 | 38.72481 | 6.98868 | 35001 ft | 493 kts | 191° |
| 2026-04-20 21:39 | 38.65721 | 6.97778 | 35003 ft | 493 kts | 191° |
| 2026-04-20 21:39 | 38.58881 | 6.96680 | 35002 ft | 492 kts | 191° |
| 2026-04-20 21:40 | 38.52081 | 6.95586 | 35005 ft | 492 kts | 191° |
| 2026-04-20 21:40 | 38.45286 | 6.94494 | 35004 ft | 492 kts | 191° |
| 2026-04-20 21:41 | 38.38537 | 6.93413 | 35000 ft | 492 kts | 191° |
| 2026-04-20 21:41 | 38.31750 | 6.92327 | 35002 ft | 492 kts | 191° |
| 2026-04-20 21:42 | 38.24965 | 6.91244 | 35001 ft | 492 kts | 191° |
| 2026-04-20 21:42 | 38.18182 | 6.90162 | 35001 ft | 492 kts | 191° |
| 2026-04-20 21:43 | 38.11387 | 6.89081 | 34998 ft | 492 kts | 191° |
| 2026-04-20 21:43 | 38.04599 | 6.88004 | 34998 ft | 492 kts | 191° |
| 2026-04-20 21:44 | 37.97815 | 6.86928 | 34991 ft | 492 kts | 191° |
| 2026-04-20 21:44 | 37.91023 | 6.85854 | 34999 ft | 492 kts | 191° |
| 2026-04-20 21:45 | 37.84232 | 6.84782 | 34993 ft | 491 kts | 191° |
| 2026-04-20 21:45 | 37.77449 | 6.83713 | 34988 ft | 491 kts | 191° |
| 2026-04-20 21:46 | 37.70661 | 6.82645 | 34991 ft | 491 kts | 191° |
| 2026-04-20 21:46 | 37.63883 | 6.81580 | 34990 ft | 491 kts | 191° |
| 2026-04-20 21:47 | 37.57098 | 6.80516 | 34989 ft | 491 kts | 191° |
| 2026-04-20 21:47 | 37.50317 | 6.79454 | 34979 ft | 491 kts | 191° |
| 2026-04-20 21:48 | 37.43536 | 6.78395 | 34984 ft | 492 kts | 191° |
| 2026-04-20 21:48 | 37.36748 | 6.77337 | 34987 ft | 491 kts | 191° |
| 2026-04-20 21:49 | 37.29958 | 6.76281 | 34988 ft | 491 kts | 191° |
| 2026-04-20 21:49 | 37.23173 | 6.75227 | 34983 ft | 491 kts | 191° |
| 2026-04-20 21:50 | 37.16382 | 6.74174 | 34986 ft | 491 kts | 191° |
| 2026-04-20 21:50 | 37.09596 | 6.73124 | 34985 ft | 491 kts | 191° |
| 2026-04-20 21:51 | 37.02811 | 6.72076 | 34981 ft | 491 kts | 191° |
| 2026-04-20 21:51 | 36.97176 | 6.71207 | 34986 ft | 491 kts | 191° |
| 2026-04-20 21:52 | 36.90391 | 6.70163 | 34986 ft | 491 kts | 191° |
| 2026-04-20 21:52 | 36.83604 | 6.69118 | 34996 ft | 491 kts | 191° |
| 2026-04-20 21:53 | 36.76816 | 6.68078 | 34988 ft | 491 kts | 191° |
| 2026-04-20 21:53 | 36.70042 | 6.67042 | 35000 ft | 490 kts | 191° |
| 2026-04-20 21:54 | 36.63279 | 6.66008 | 35007 ft | 490 kts | 191° |
| 2026-04-20 21:54 | 36.56522 | 6.64976 | 35011 ft | 490 kts | 191° |
| 2026-04-20 21:55 | 36.49764 | 6.63946 | 35032 ft | 489 kts | 191° |
| 2026-04-20 21:55 | 36.43009 | 6.62917 | 35047 ft | 488 kts | 191° |
| 2026-04-20 21:56 | 36.36260 | 6.61892 | 35047 ft | 489 kts | 191° |
| 2026-04-20 21:56 | 36.29498 | 6.60992 | 35039 ft | 491 kts | 186° |
| 2026-04-20 21:57 | 36.22631 | 6.61001 | 35054 ft | 494 kts | 183° |
| 2026-04-20 21:57 | 36.15751 | 6.61207 | 35044 ft | 495 kts | 182° |
| 2026-04-20 21:58 | 36.08869 | 6.61441 | 35050 ft | 495 kts | 182° |
| 2026-04-20 21:58 | 36.01981 | 6.61659 | 35047 ft | 495 kts | 182° |
| 2026-04-20 21:59 | 35.95091 | 6.61864 | 35046 ft | 496 kts | 182° |
| 2026-04-20 21:59 | 35.88190 | 6.62067 | 35046 ft | 496 kts | 182° |
| 2026-04-20 22:00 | 35.81287 | 6.62271 | 35049 ft | 495 kts | 182° |
| 2026-04-20 22:00 | 35.74437 | 6.62475 | 35054 ft | 496 kts | 182° |
| 2026-04-20 22:01 | 35.67488 | 6.62678 | 35051 ft | 496 kts | 182° |
| 2026-04-20 22:01 | 35.60639 | 6.62880 | 35059 ft | 496 kts | 182° |
| 2026-04-20 22:02 | 35.53743 | 6.63083 | 35065 ft | 495 kts | 182° |
| 2026-04-20 22:02 | 35.46871 | 6.63285 | 35074 ft | 493 kts | 182° |
| 2026-04-20 22:03 | 35.40009 | 6.63487 | 35073 ft | 493 kts | 182° |
| 2026-04-20 22:03 | 35.33155 | 6.63688 | 35081 ft | 493 kts | 182° |
| 2026-04-20 22:04 | 35.26287 | 6.63889 | 35075 ft | 492 kts | 182° |
| 2026-04-20 22:04 | 35.19450 | 6.64088 | 35075 ft | 492 kts | 182° |
| 2026-04-20 22:05 | 35.12604 | 6.64288 | 35073 ft | 492 kts | 182° |
| 2026-04-20 22:05 | 35.05769 | 6.64487 | 35048 ft | 492 kts | 181° |
| 2026-04-20 22:06 | 34.98915 | 6.64687 | 35058 ft | 493 kts | 181° |
| 2026-04-20 22:06 | 34.92059 | 6.64884 | 35042 ft | 493 kts | 181° |
| 2026-04-20 22:07 | 34.85202 | 6.65081 | 35022 ft | 493 kts | 181° |
| 2026-04-20 22:07 | 34.78339 | 6.65281 | 35019 ft | 493 kts | 181° |
| 2026-04-20 22:08 | 34.71502 | 6.65490 | 34999 ft | 490 kts | 181° |
| 2026-04-20 22:08 | 34.64685 | 6.65695 | 34985 ft | 490 kts | 181° |
| 2026-04-20 22:09 | 34.57873 | 6.65899 | 34985 ft | 490 kts | 181° |
| 2026-04-20 22:09 | 34.51053 | 6.66103 | 34973 ft | 490 kts | 181° |
| 2026-04-20 22:10 | 34.44249 | 6.66306 | 34969 ft | 489 kts | 181° |
| 2026-04-20 22:10 | 34.37490 | 6.66509 | 34968 ft | 489 kts | 181° |
| 2026-04-20 22:11 | 34.30689 | 6.66712 | 34968 ft | 489 kts | 181° |
| 2026-04-20 22:11 | 34.23886 | 6.66914 | 34962 ft | 488 kts | 181° |
| 2026-04-20 22:12 | 34.17088 | 6.67116 | 34963 ft | 488 kts | 181° |
| 2026-04-20 22:12 | 34.10301 | 6.67318 | 34967 ft | 488 kts | 181° |
| 2026-04-20 22:13 | 34.03506 | 6.67519 | 34968 ft | 488 kts | 181° |
| 2026-04-20 22:13 | 33.96716 | 6.67720 | 34969 ft | 488 kts | 180° |
| 2026-04-20 22:14 | 33.89934 | 6.67920 | 34969 ft | 488 kts | 180° |
| 2026-04-20 22:14 | 33.83147 | 6.68121 | 34968 ft | 488 kts | 180° |
| 2026-04-20 22:15 | 33.76366 | 6.68321 | 34965 ft | 488 kts | 181° |
| 2026-04-20 22:15 | 33.69609 | 6.68522 | 34985 ft | 483 kts | 181° |
| 2026-04-20 22:16 | 33.62893 | 6.68721 | 34989 ft | 483 kts | 181° |
| 2026-04-20 22:16 | 33.56178 | 6.68917 | 34993 ft | 483 kts | 181° |
| 2026-04-20 22:17 | 33.49461 | 6.69113 | 34985 ft | 483 kts | 181° |
| 2026-04-20 22:17 | 33.42764 | 6.69308 | 34992 ft | 481 kts | 181° |
| 2026-04-20 22:18 | 33.36122 | 6.69501 | 34988 ft | 480 kts | 181° |
| 2026-04-20 22:18 | 33.29443 | 6.69696 | 34986 ft | 480 kts | 181° |
| 2026-04-20 22:19 | 33.22756 | 6.69891 | 34983 ft | 480 kts | 181° |
| 2026-04-20 22:19 | 33.16074 | 6.70085 | 34984 ft | 480 kts | 181° |
| 2026-04-20 22:20 | 33.09395 | 6.70278 | 34983 ft | 480 kts | 181° |
| 2026-04-20 22:20 | 33.02710 | 6.70473 | 34986 ft | 480 kts | 181° |
| 2026-04-20 22:21 | 32.96026 | 6.70667 | 34983 ft | 480 kts | 181° |
| 2026-04-20 22:21 | 32.89352 | 6.70861 | 34986 ft | 480 kts | 181° |
| 2026-04-20 22:22 | 32.82678 | 6.71054 | 34984 ft | 479 kts | 181° |
| 2026-04-20 22:22 | 32.76012 | 6.71246 | 34990 ft | 479 kts | 181° |
| 2026-04-20 22:23 | 32.69339 | 6.71438 | 34986 ft | 479 kts | 181° |
| 2026-04-20 22:23 | 32.62677 | 6.71629 | 34986 ft | 479 kts | 181° |
| 2026-04-20 22:24 | 32.56020 | 6.71819 | 34988 ft | 478 kts | 181° |
| 2026-04-20 22:24 | 32.49363 | 6.72009 | 34988 ft | 478 kts | 181° |
| 2026-04-20 22:25 | 32.42709 | 6.72199 | 34985 ft | 479 kts | 181° |
| 2026-04-20 22:25 | 32.36039 | 6.72389 | 34991 ft | 480 kts | 181° |
| 2026-04-20 22:26 | 32.29361 | 6.72580 | 34990 ft | 480 kts | 181° |
| 2026-04-20 22:26 | 32.22690 | 6.72767 | 34991 ft | 480 kts | 181° |
| 2026-04-20 22:27 | 32.12674 | 6.73049 | 34990 ft | 481 kts | 182° |
| 2026-04-20 22:27 | 32.06014 | 6.73237 | 34990 ft | 482 kts | 182° |
| 2026-04-20 22:28 | 31.99311 | 6.73428 | 34988 ft | 482 kts | 182° |
| 2026-04-20 22:28 | 31.92599 | 6.73618 | 34988 ft | 482 kts | 182° |
| 2026-04-20 22:29 | 31.85895 | 6.73806 | 34983 ft | 482 kts | 182° |
| 2026-04-20 22:29 | 31.79194 | 6.73994 | 34985 ft | 482 kts | 182° |
| 2026-04-20 22:30 | 31.72496 | 6.74183 | 34985 ft | 482 kts | 182° |
| 2026-04-20 22:30 | 31.65793 | 6.74372 | 34980 ft | 482 kts | 182° |
| 2026-04-20 22:31 | 31.59097 | 6.74559 | 34976 ft | 482 kts | 182° |
| 2026-04-20 22:31 | 31.52400 | 6.74748 | 34977 ft | 481 kts | 182° |
| 2026-04-20 22:32 | 31.45704 | 6.74935 | 34977 ft | 481 kts | 182° |
| 2026-04-20 22:32 | 31.39005 | 6.75122 | 34975 ft | 481 kts | 182° |
| 2026-04-20 22:33 | 31.32307 | 6.75310 | 34968 ft | 481 kts | 183° |
| 2026-04-20 22:33 | 31.25616 | 6.75495 | 34973 ft | 481 kts | 183° |
| 2026-04-20 22:34 | 31.18929 | 6.75682 | 34980 ft | 481 kts | 183° |
| 2026-04-20 22:34 | 31.12240 | 6.75869 | 34964 ft | 481 kts | 183° |
| 2026-04-20 22:35 | 31.05550 | 6.76054 | 34958 ft | 481 kts | 183° |
| 2026-04-20 22:35 | 30.98862 | 6.76240 | 34967 ft | 480 kts | 184° |
| 2026-04-20 22:36 | 30.92180 | 6.76423 | 34959 ft | 480 kts | 184° |
| 2026-04-20 22:36 | 30.85498 | 6.76606 | 34965 ft | 480 kts | 184° |
| 2026-04-20 22:37 | 30.78814 | 6.76790 | 34961 ft | 480 kts | 184° |
| 2026-04-20 22:37 | 30.72133 | 6.76976 | 34962 ft | 480 kts | 184° |
| 2026-04-20 22:38 | 30.65495 | 6.77159 | 34964 ft | 480 kts | 184° |
| 2026-04-20 22:38 | 30.59896 | 6.77312 | 34959 ft | 480 kts | 184° |
| 2026-04-20 22:39 | 30.52130 | 6.77527 | 34957 ft | 480 kts | 184° |
| 2026-04-20 22:39 | 30.45444 | 6.77710 | 34956 ft | 480 kts | 184° |
| 2026-04-20 22:40 | 30.39895 | 6.77863 | 34955 ft | 480 kts | 184° |
| 2026-04-20 22:40 | 30.33212 | 6.78044 | 34951 ft | 480 kts | 184° |
| 2026-04-20 22:41 | 30.26536 | 6.78225 | 34952 ft | 480 kts | 184° |
| 2026-04-20 22:41 | 30.19853 | 6.78407 | 34944 ft | 480 kts | 185° |
| 2026-04-20 22:42 | 30.13176 | 6.78589 | 34945 ft | 479 kts | 185° |
| 2026-04-20 22:42 | 30.06502 | 6.78771 | 34947 ft | 480 kts | 185° |
| 2026-04-20 22:43 | 29.99836 | 6.78952 | 34943 ft | 480 kts | 185° |
| 2026-04-20 22:43 | 29.93158 | 6.79133 | 34920 ft | 479 kts | 185° |
| 2026-04-20 22:44 | 29.86490 | 6.79314 | 34936 ft | 479 kts | 185° |
| 2026-04-20 22:44 | 29.79819 | 6.79495 | 34939 ft | 479 kts | 185° |
| 2026-04-20 22:45 | 29.73152 | 6.79675 | 34934 ft | 479 kts | 185° |
| 2026-04-20 22:45 | 29.66482 | 6.79853 | 34936 ft | 480 kts | 185° |
| 2026-04-20 22:46 | 29.59808 | 6.80034 | 34928 ft | 480 kts | 185° |
| 2026-04-20 22:46 | 29.53129 | 6.80211 | 34925 ft | 480 kts | 185° |
| 2026-04-20 22:47 | 29.46451 | 6.80388 | 34929 ft | 480 kts | 185° |
| 2026-04-20 22:47 | 29.39774 | 6.80567 | 34935 ft | 480 kts | 185° |
| 2026-04-20 22:48 | 29.33100 | 6.80746 | 34922 ft | 480 kts | 185° |
| 2026-04-20 22:48 | 29.26416 | 6.80926 | 34929 ft | 480 kts | 185° |
| 2026-04-20 22:49 | 29.19736 | 6.81105 | 34924 ft | 480 kts | 185° |
| 2026-04-20 22:49 | 29.13054 | 6.81285 | 34920 ft | 480 kts | 185° |
| 2026-04-20 22:50 | 29.06422 | 6.81462 | 34902 ft | 480 kts | 186° |
| 2026-04-20 22:50 | 28.99739 | 6.81637 | 34922 ft | 480 kts | 186° |
| 2026-04-20 22:51 | 28.93066 | 6.81814 | 34913 ft | 480 kts | 186° |
| 2026-04-20 22:51 | 28.86388 | 6.81991 | 34913 ft | 480 kts | 186° |
| 2026-04-20 22:52 | 28.79713 | 6.82169 | 34914 ft | 480 kts | 186° |
| 2026-04-20 22:52 | 28.73036 | 6.82348 | 34915 ft | 479 kts | 186° |
| 2026-04-20 22:53 | 28.66371 | 6.82524 | 34909 ft | 479 kts | 186° |
| 2026-04-20 22:53 | 28.59709 | 6.82699 | 34908 ft | 479 kts | 186° |
| 2026-04-20 22:54 | 28.53053 | 6.82875 | 34911 ft | 479 kts | 186° |
| 2026-04-20 22:54 | 28.46389 | 6.83050 | 34903 ft | 479 kts | 186° |
| 2026-04-20 22:55 | 28.39729 | 6.83226 | 34905 ft | 479 kts | 186° |
| 2026-04-20 22:55 | 28.33072 | 6.83401 | 34901 ft | 478 kts | 186° |
| 2026-04-20 22:56 | 28.26418 | 6.83576 | 34900 ft | 478 kts | 186° |
| 2026-04-20 22:56 | 28.19758 | 6.83750 | 34874 ft | 479 kts | 186° |
| 2026-04-20 22:57 | 28.13118 | 6.83925 | 34894 ft | 476 kts | 187° |
| 2026-04-20 22:57 | 28.06472 | 6.84442 | 34900 ft | 481 kts | 182° |
| 2026-04-20 22:58 | 27.99798 | 6.85303 | 34894 ft | 484 kts | 181° |
| 2026-04-20 22:58 | 27.93096 | 6.86140 | 34895 ft | 484 kts | 182° |
| 2026-04-20 22:59 | 27.86410 | 6.86907 | 34892 ft | 482 kts | 183° |
| 2026-04-20 22:59 | 27.79740 | 6.87644 | 34892 ft | 481 kts | 183° |
| 2026-04-20 23:00 | 27.73090 | 6.88373 | 34901 ft | 480 kts | 183° |
| 2026-04-20 23:00 | 27.66476 | 6.89099 | 34895 ft | 480 kts | 183° |
| 2026-04-20 23:01 | 27.59785 | 6.89835 | 34895 ft | 480 kts | 183° |
| 2026-04-20 23:01 | 27.53176 | 6.90561 | 34890 ft | 480 kts | 183° |
| 2026-04-20 23:02 | 27.46526 | 6.91292 | 34897 ft | 480 kts | 183° |
| 2026-04-20 23:02 | 27.39872 | 6.92022 | 34885 ft | 480 kts | 183° |
| 2026-04-20 23:03 | 27.33219 | 6.92751 | 34892 ft | 480 kts | 183° |
| 2026-04-20 23:03 | 27.26566 | 6.93479 | 34884 ft | 480 kts | 184° |
| 2026-04-20 23:04 | 27.19930 | 6.94206 | 34890 ft | 479 kts | 184° |
| 2026-04-20 23:04 | 27.13296 | 6.94929 | 34887 ft | 479 kts | 184° |
| 2026-04-20 23:05 | 27.06665 | 6.95652 | 34890 ft | 479 kts | 184° |
| 2026-04-20 23:05 | 27.00037 | 6.96373 | 34862 ft | 479 kts | 184° |
| 2026-04-20 23:06 | 26.93397 | 6.97096 | 34895 ft | 480 kts | 184° |
| 2026-04-20 23:06 | 26.86733 | 6.97816 | 34895 ft | 482 kts | 184° |
| 2026-04-20 23:07 | 26.80062 | 6.98545 | 34900 ft | 480 kts | 184° |
| 2026-04-20 23:07 | 26.73425 | 6.99268 | 34900 ft | 479 kts | 184° |
| 2026-04-20 23:08 | 26.66786 | 6.99980 | 34898 ft | 480 kts | 184° |
| 2026-04-20 23:08 | 26.60091 | 7.00694 | 34896 ft | 485 kts | 184° |
| 2026-04-20 23:09 | 26.53387 | 7.01424 | 34908 ft | 483 kts | 184° |
| 2026-04-20 23:09 | 26.46701 | 7.02157 | 34907 ft | 482 kts | 184° |
| 2026-04-20 23:10 | 26.40086 | 7.02871 | 34920 ft | 481 kts | 184° |
| 2026-04-20 23:10 | 26.33421 | 7.03584 | 34920 ft | 482 kts | 184° |
| 2026-04-20 23:11 | 26.26741 | 7.04300 | 34930 ft | 483 kts | 184° |
| 2026-04-20 23:11 | 26.20051 | 7.05017 | 34947 ft | 483 kts | 184° |
| 2026-04-20 23:12 | 26.13365 | 7.05732 | 34944 ft | 483 kts | 184° |
| 2026-04-20 23:12 | 26.06680 | 7.06449 | 34949 ft | 482 kts | 183° |
| 2026-04-20 23:13 | 26.00006 | 7.07163 | 34959 ft | 484 kts | 183° |
| 2026-04-20 23:13 | 25.93322 | 7.07889 | 34975 ft | 480 kts | 183° |
| 2026-04-20 23:14 | 25.86690 | 7.08620 | 34973 ft | 478 kts | 183° |
| 2026-04-20 23:14 | 25.80065 | 7.09342 | 34987 ft | 479 kts | 183° |
| 2026-04-20 23:15 | 25.73437 | 7.10061 | 34979 ft | 477 kts | 183° |
| 2026-04-20 23:15 | 25.66850 | 7.10780 | 34991 ft | 475 kts | 183° |
| 2026-04-20 23:16 | 25.60280 | 7.11494 | 34990 ft | 475 kts | 183° |
| 2026-04-20 23:16 | 25.53701 | 7.12206 | 34989 ft | 475 kts | 183° |
| 2026-04-20 23:17 | 25.47130 | 7.12916 | 34988 ft | 475 kts | 183° |
| 2026-04-20 23:17 | 25.40549 | 7.13627 | 34988 ft | 476 kts | 183° |
| 2026-04-20 23:18 | 25.33951 | 7.14339 | 34987 ft | 476 kts | 183° |
| 2026-04-20 23:18 | 25.27358 | 7.15053 | 34995 ft | 476 kts | 183° |
| 2026-04-20 23:19 | 25.20761 | 7.15765 | 34996 ft | 476 kts | 183° |
| 2026-04-20 23:19 | 25.14167 | 7.16476 | 34977 ft | 476 kts | 183° |
| 2026-04-20 23:20 | 25.07544 | 7.17186 | 34985 ft | 480 kts | 183° |
| 2026-04-20 23:20 | 25.00884 | 7.17903 | 34987 ft | 481 kts | 183° |
| 2026-04-20 23:21 | 24.94237 | 7.18619 | 34988 ft | 480 kts | 183° |
| 2026-04-20 23:21 | 24.87584 | 7.19332 | 34989 ft | 480 kts | 183° |
| 2026-04-20 23:22 | 24.80933 | 7.20049 | 34976 ft | 480 kts | 182° |
| 2026-04-20 23:22 | 24.74304 | 7.20765 | 34998 ft | 478 kts | 182° |
| 2026-04-20 23:23 | 24.67680 | 7.21477 | 35000 ft | 478 kts | 183° |
| 2026-04-20 23:23 | 24.61055 | 7.22186 | 34988 ft | 478 kts | 183° |
| 2026-04-20 23:24 | 24.54432 | 7.22894 | 34981 ft | 478 kts | 183° |
| 2026-04-20 23:24 | 24.47812 | 7.23602 | 34994 ft | 478 kts | 183° |
| 2026-04-20 23:25 | 24.42308 | 7.24190 | 34999 ft | 478 kts | 183° |
| 2026-04-20 23:25 | 24.35686 | 7.24897 | 34988 ft | 478 kts | 183° |
| 2026-04-20 23:26 | 24.27987 | 7.25717 | 34997 ft | 478 kts | 183° |
| 2026-04-20 23:26 | 24.21360 | 7.26424 | 34994 ft | 479 kts | 182° |
| 2026-04-20 23:27 | 24.15815 | 7.27017 | 35004 ft | 477 kts | 183° |
| 2026-04-20 23:27 | 24.09211 | 7.27719 | 35002 ft | 477 kts | 183° |
| 2026-04-20 23:28 | 24.02608 | 7.28419 | 35010 ft | 477 kts | 183° |
| 2026-04-20 23:28 | 23.96003 | 7.29121 | 35007 ft | 477 kts | 183° |
| 2026-04-20 23:29 | 23.89399 | 7.29821 | 34997 ft | 477 kts | 184° |
| 2026-04-20 23:29 | 23.82795 | 7.30521 | 35014 ft | 477 kts | 184° |
| 2026-04-20 23:30 | 23.76192 | 7.31220 | 35015 ft | 477 kts | 184° |
| 2026-04-20 23:30 | 23.69588 | 7.31916 | 35012 ft | 476 kts | 184° |
| 2026-04-20 23:31 | 23.63030 | 7.32608 | 35009 ft | 476 kts | 184° |
| 2026-04-20 23:31 | 23.56432 | 7.33304 | 34999 ft | 477 kts | 184° |
| 2026-04-20 23:32 | 23.49836 | 7.34002 | 35005 ft | 476 kts | 184° |
| 2026-04-20 23:32 | 23.43239 | 7.34895 | 35001 ft | 479 kts | 181° |
| 2026-04-20 23:33 | 23.36641 | 7.35905 | 35002 ft | 479 kts | 181° |
| 2026-04-20 23:33 | 23.30045 | 7.36895 | 34996 ft | 478 kts | 181° |
| 2026-04-20 23:34 | 23.23448 | 7.37856 | 34989 ft | 477 kts | 182° |
| 2026-04-20 23:34 | 23.16887 | 7.38803 | 34992 ft | 474 kts | 182° |
| 2026-04-20 23:35 | 23.07092 | 7.40207 | 34991 ft | 473 kts | 182° |
| 2026-04-20 23:36 | 23.00565 | 7.41143 | 34986 ft | 473 kts | 182° |
| 2026-04-20 23:36 | 22.94042 | 7.42080 | 34986 ft | 473 kts | 182° |
| 2026-04-20 23:37 | 22.87529 | 7.43016 | 34984 ft | 470 kts | 182° |
| 2026-04-20 23:37 | 22.81049 | 7.43945 | 34981 ft | 469 kts | 182° |
| 2026-04-20 23:38 | 22.74629 | 7.44863 | 34980 ft | 469 kts | 182° |
| 2026-04-20 23:38 | 22.68156 | 7.45787 | 34983 ft | 469 kts | 182° |
| 2026-04-20 23:39 | 22.61688 | 7.46711 | 34972 ft | 469 kts | 182° |
| 2026-04-20 23:39 | 22.55210 | 7.47634 | 34960 ft | 470 kts | 182° |
| 2026-04-20 23:40 | 22.48721 | 7.48559 | 34968 ft | 471 kts | 182° |
| 2026-04-20 23:40 | 22.42223 | 7.49486 | 34967 ft | 471 kts | 182° |
| 2026-04-20 23:41 | 22.35727 | 7.50411 | 34963 ft | 471 kts | 182° |
| 2026-04-20 23:41 | 22.29234 | 7.51334 | 34962 ft | 471 kts | 182° |
| 2026-04-20 23:42 | 22.22731 | 7.52256 | 34952 ft | 472 kts | 181° |
| 2026-04-20 23:42 | 22.16205 | 7.53181 | 34952 ft | 473 kts | 181° |
| 2026-04-20 23:43 | 22.09674 | 7.54108 | 34949 ft | 473 kts | 181° |
| 2026-04-20 23:43 | 22.03145 | 7.55035 | 34949 ft | 473 kts | 181° |
| 2026-04-20 23:44 | 21.96616 | 7.55959 | 34944 ft | 473 kts | 181° |
| 2026-04-20 23:44 | 21.90082 | 7.56882 | 34946 ft | 475 kts | 182° |
| 2026-04-20 23:45 | 21.83510 | 7.57809 | 34943 ft | 476 kts | 181° |
| 2026-04-20 23:45 | 21.76938 | 7.58738 | 34941 ft | 477 kts | 182° |
| 2026-04-20 23:46 | 21.70358 | 7.59666 | 34938 ft | 477 kts | 182° |
| 2026-04-20 23:46 | 21.63818 | 7.60588 | 34940 ft | 478 kts | 182° |
| 2026-04-20 23:47 | 21.57235 | 7.61517 | 34929 ft | 474 kts | 182° |
| 2026-04-20 23:47 | 21.50703 | 7.62438 | 34930 ft | 473 kts | 182° |
| 2026-04-20 23:48 | 21.44187 | 7.63351 | 34930 ft | 472 kts | 182° |
| 2026-04-20 23:48 | 21.37667 | 7.64263 | 34930 ft | 472 kts | 182° |
| 2026-04-20 23:49 | 21.31151 | 7.65176 | 34925 ft | 472 kts | 182° |
| 2026-04-20 23:49 | 21.24626 | 7.66090 | 34925 ft | 473 kts | 182° |
| 2026-04-20 23:50 | 21.18105 | 7.67003 | 34922 ft | 473 kts | 182° |
| 2026-04-20 23:50 | 21.11582 | 7.67916 | 34922 ft | 473 kts | 182° |
| 2026-04-20 23:51 | 21.05059 | 7.68827 | 34922 ft | 473 kts | 182° |
| 2026-04-20 23:51 | 20.98541 | 7.69737 | 34922 ft | 473 kts | 182° |
| 2026-04-20 23:52 | 20.92025 | 7.70532 | 34920 ft | 469 kts | 185° |
| 2026-04-20 23:52 | 20.85520 | 7.71005 | 34922 ft | 468 kts | 186° |
| 2026-04-20 23:53 | 20.79014 | 7.71451 | 34922 ft | 468 kts | 185° |
| 2026-04-20 23:53 | 20.72509 | 7.71947 | 34922 ft | 469 kts | 185° |
| 2026-04-20 23:54 | 20.66004 | 7.72469 | 34925 ft | 469 kts | 185° |
| 2026-04-20 23:54 | 20.59495 | 7.72995 | 34925 ft | 470 kts | 185° |
| 2026-04-20 23:55 | 20.52969 | 7.73522 | 34924 ft | 470 kts | 185° |
| 2026-04-20 23:55 | 20.46445 | 7.74049 | 34921 ft | 470 kts | 185° |
| 2026-04-20 23:56 | 20.39923 | 7.74573 | 34926 ft | 470 kts | 185° |
| 2026-04-20 23:56 | 20.33405 | 7.75096 | 34929 ft | 470 kts | 185° |
| 2026-04-20 23:57 | 20.26882 | 7.75619 | 34911 ft | 470 kts | 185° |
| 2026-04-20 23:57 | 20.20365 | 7.76141 | 34920 ft | 469 kts | 185° |
| 2026-04-20 23:58 | 20.13892 | 7.76659 | 34916 ft | 469 kts | 185° |
| 2026-04-20 23:58 | 20.07378 | 7.77180 | 34916 ft | 469 kts | 185° |
| 2026-04-20 23:59 | 20.00822 | 7.77704 | 34913 ft | 469 kts | 185° |
| 2026-04-20 23:59 | 19.94355 | 7.78220 | 34907 ft | 469 kts | 184° |
| 2026-04-21 00:00 | 19.87853 | 7.78738 | 34907 ft | 468 kts | 184° |
| 2026-04-21 00:00 | 19.81356 | 7.79257 | 34911 ft | 468 kts | 184° |
| 2026-04-21 00:01 | 19.74864 | 7.79774 | 34911 ft | 468 kts | 184° |
| 2026-04-21 00:01 | 19.68371 | 7.80290 | 34910 ft | 468 kts | 184° |
| 2026-04-21 00:02 | 19.61874 | 7.80806 | 34884 ft | 468 kts | 184° |
| 2026-04-21 00:02 | 19.55371 | 7.81321 | 34896 ft | 470 kts | 184° |
| 2026-04-21 00:03 | 19.48846 | 7.81840 | 34899 ft | 470 kts | 184° |
| 2026-04-21 00:03 | 19.42328 | 7.82379 | 34898 ft | 470 kts | 184° |
| 2026-04-21 00:04 | 19.35806 | 7.82920 | 34894 ft | 470 kts | 184° |
| 2026-04-21 00:04 | 19.29287 | 7.83459 | 34895 ft | 470 kts | 184° |
| 2026-04-21 00:05 | 19.22749 | 7.83997 | 34892 ft | 472 kts | 184° |
| 2026-04-21 00:05 | 19.16188 | 7.84536 | 34889 ft | 473 kts | 184° |
| 2026-04-21 00:06 | 19.09665 | 7.85075 | 34891 ft | 473 kts | 184° |
| 2026-04-21 00:06 | 19.03102 | 7.85616 | 34884 ft | 473 kts | 184° |
| 2026-04-21 00:07 | 18.96534 | 7.86156 | 34887 ft | 473 kts | 184° |
| 2026-04-21 00:07 | 18.89961 | 7.86695 | 34882 ft | 475 kts | 184° |
| 2026-04-21 00:08 | 18.83371 | 7.87235 | 34885 ft | 476 kts | 184° |
| 2026-04-21 00:08 | 18.76773 | 7.87779 | 34887 ft | 476 kts | 184° |
| 2026-04-21 00:09 | 18.70178 | 7.88319 | 34886 ft | 476 kts | 184° |
| 2026-04-21 00:09 | 18.63579 | 7.88858 | 34884 ft | 476 kts | 184° |
| 2026-04-21 00:10 | 18.56975 | 7.89397 | 34890 ft | 476 kts | 184° |
| 2026-04-21 00:10 | 18.50366 | 7.89936 | 34893 ft | 477 kts | 184° |
| 2026-04-21 00:11 | 18.43758 | 7.90477 | 34889 ft | 476 kts | 184° |
| 2026-04-21 00:11 | 18.37148 | 7.91019 | 34887 ft | 476 kts | 184° |
| 2026-04-21 00:12 | 18.30538 | 7.91558 | 34884 ft | 476 kts | 184° |
| 2026-04-21 00:12 | 18.23927 | 7.92098 | 34878 ft | 476 kts | 184° |
| 2026-04-21 00:13 | 18.17332 | 7.92633 | 34881 ft | 476 kts | 184° |
| 2026-04-21 00:13 | 18.11842 | 7.93079 | 34880 ft | 476 kts | 184° |
| 2026-04-21 00:14 | 18.04125 | 7.93707 | 34884 ft | 476 kts | 184° |
| 2026-04-21 00:14 | 17.97568 | 7.94239 | 34885 ft | 476 kts | 184° |
| 2026-04-21 00:15 | 17.90971 | 7.94775 | 34883 ft | 476 kts | 184° |
| 2026-04-21 00:15 | 17.84363 | 7.95311 | 34883 ft | 476 kts | 184° |
| 2026-04-21 00:16 | 17.78832 | 7.95760 | 34887 ft | 476 kts | 184° |
| 2026-04-21 00:16 | 17.72230 | 7.96294 | 34885 ft | 476 kts | 184° |
| 2026-04-21 00:17 | 17.65627 | 7.96829 | 34881 ft | 476 kts | 184° |
| 2026-04-21 00:17 | 17.59071 | 7.97358 | 34879 ft | 476 kts | 184° |
| 2026-04-21 00:18 | 17.52463 | 7.97893 | 34879 ft | 476 kts | 184° |
| 2026-04-21 00:18 | 17.45852 | 7.98428 | 34881 ft | 476 kts | 184° |
| 2026-04-21 00:19 | 17.39242 | 7.98962 | 34882 ft | 476 kts | 184° |
| 2026-04-21 00:19 | 17.32632 | 7.99496 | 34883 ft | 476 kts | 184° |
| 2026-04-21 00:20 | 17.26021 | 8.00029 | 34887 ft | 476 kts | 184° |
| 2026-04-21 00:20 | 17.19404 | 8.00560 | 34884 ft | 478 kts | 184° |
| 2026-04-21 00:21 | 17.12761 | 8.01093 | 34886 ft | 479 kts | 184° |
| 2026-04-21 00:21 | 17.06120 | 8.01629 | 34886 ft | 479 kts | 184° |
| 2026-04-21 00:22 | 16.99475 | 8.02164 | 34886 ft | 479 kts | 184° |
| 2026-04-21 00:22 | 16.92872 | 8.02727 | 34886 ft | 480 kts | 183° |
| 2026-04-21 00:23 | 16.86180 | 8.03386 | 34884 ft | 481 kts | 182° |
| 2026-04-21 00:23 | 16.79552 | 8.04044 | 34885 ft | 482 kts | 182° |
| 2026-04-21 00:24 | 16.72831 | 8.04700 | 34886 ft | 482 kts | 182° |
| 2026-04-21 00:24 | 16.66156 | 8.05344 | 34891 ft | 482 kts | 182° |
| 2026-04-21 00:25 | 16.59488 | 8.05984 | 34893 ft | 482 kts | 183° |
| 2026-04-21 00:25 | 16.52811 | 8.06626 | 34883 ft | 482 kts | 182° |
| 2026-04-21 00:26 | 16.46175 | 8.07262 | 34889 ft | 482 kts | 182° |
| 2026-04-21 00:26 | 16.39491 | 8.07904 | 34889 ft | 482 kts | 182° |
| 2026-04-21 00:27 | 16.32803 | 8.08546 | 34890 ft | 483 kts | 182° |
| 2026-04-21 00:27 | 16.26116 | 8.09187 | 34889 ft | 483 kts | 182° |
| 2026-04-21 00:28 | 16.19430 | 8.09828 | 34890 ft | 483 kts | 182° |
| 2026-04-21 00:28 | 16.12728 | 8.10468 | 34890 ft | 485 kts | 182° |
| 2026-04-21 00:29 | 16.06005 | 8.11110 | 34890 ft | 485 kts | 182° |
| 2026-04-21 00:29 | 15.99279 | 8.11754 | 34889 ft | 485 kts | 182° |
| 2026-04-21 00:30 | 15.92556 | 8.12397 | 34889 ft | 485 kts | 182° |
| 2026-04-21 00:30 | 15.85828 | 8.13040 | 34889 ft | 485 kts | 182° |
| 2026-04-21 00:31 | 15.79098 | 8.13681 | 34884 ft | 487 kts | 181° |
| 2026-04-21 00:31 | 15.72338 | 8.14324 | 34884 ft | 488 kts | 181° |
| 2026-04-21 00:32 | 15.65572 | 8.14969 | 34884 ft | 488 kts | 181° |
| 2026-04-21 00:32 | 15.58809 | 8.15614 | 34882 ft | 488 kts | 181° |
| 2026-04-21 00:33 | 15.52042 | 8.16258 | 34878 ft | 488 kts | 181° |
| 2026-04-21 00:33 | 15.45270 | 8.16901 | 34871 ft | 490 kts | 181° |
| 2026-04-21 00:34 | 15.38460 | 8.17546 | 34873 ft | 492 kts | 181° |
| 2026-04-21 00:34 | 15.31685 | 8.18191 | 34871 ft | 492 kts | 181° |
| 2026-04-21 00:35 | 15.24866 | 8.18840 | 34873 ft | 492 kts | 181° |
| 2026-04-21 00:35 | 15.18038 | 8.19488 | 34862 ft | 492 kts | 181° |
| 2026-04-21 00:36 | 15.11218 | 8.20134 | 34868 ft | 493 kts | 181° |
| 2026-04-21 00:36 | 15.04361 | 8.20782 | 34866 ft | 496 kts | 181° |
| 2026-04-21 00:37 | 14.97486 | 8.21436 | 34859 ft | 496 kts | 181° |
| 2026-04-21 00:37 | 14.90611 | 8.22091 | 34858 ft | 496 kts | 181° |
| 2026-04-21 00:38 | 14.83740 | 8.22744 | 34861 ft | 496 kts | 181° |
| 2026-04-21 00:38 | 14.76868 | 8.23397 | 34844 ft | 496 kts | 181° |
| 2026-04-21 00:39 | 14.69980 | 8.24049 | 34862 ft | 498 kts | 181° |
| 2026-04-21 00:39 | 14.63075 | 8.24702 | 34860 ft | 498 kts | 181° |
| 2026-04-21 00:40 | 14.56173 | 8.25356 | 34853 ft | 498 kts | 181° |
| 2026-04-21 00:40 | 14.49267 | 8.26010 | 34860 ft | 498 kts | 181° |
| 2026-04-21 00:41 | 14.42365 | 8.26664 | 34858 ft | 498 kts | 181° |
| 2026-04-21 00:41 | 14.35459 | 8.27317 | 34858 ft | 498 kts | 181° |
| 2026-04-21 00:42 | 14.28554 | 8.27969 | 34854 ft | 498 kts | 181° |
| 2026-04-21 00:42 | 14.21695 | 8.28616 | 34846 ft | 498 kts | 181° |
| 2026-04-21 00:43 | 14.14791 | 8.29268 | 34853 ft | 498 kts | 181° |
| 2026-04-21 00:43 | 14.07886 | 8.29919 | 34851 ft | 498 kts | 181° |
| 2026-04-21 00:44 | 14.00981 | 8.30570 | 34852 ft | 499 kts | 181° |
| 2026-04-21 00:44 | 13.94070 | 8.31221 | 34848 ft | 499 kts | 181° |
| 2026-04-21 00:45 | 13.83707 | 8.32196 | 34847 ft | 499 kts | 181° |
| 2026-04-21 00:45 | 13.76794 | 8.32846 | 34847 ft | 499 kts | 181° |
| 2026-04-21 00:46 | 13.69882 | 8.33496 | 34843 ft | 499 kts | 181° |
| 2026-04-21 00:46 | 13.62963 | 8.34143 | 34844 ft | 500 kts | 181° |
| 2026-04-21 00:47 | 13.56038 | 8.34792 | 34847 ft | 500 kts | 181° |
| 2026-04-21 00:47 | 13.49098 | 8.35441 | 34846 ft | 501 kts | 181° |
| 2026-04-21 00:48 | 13.42166 | 8.36090 | 34845 ft | 501 kts | 181° |
| 2026-04-21 00:48 | 13.35220 | 8.36739 | 34835 ft | 501 kts | 181° |
| 2026-04-21 00:49 | 13.28279 | 8.37388 | 34845 ft | 501 kts | 181° |
| 2026-04-21 00:49 | 13.21334 | 8.38036 | 34842 ft | 501 kts | 181° |
| 2026-04-21 00:50 | 13.14387 | 8.38683 | 34841 ft | 501 kts | 181° |
| 2026-04-21 00:50 | 13.07483 | 8.39328 | 34842 ft | 502 kts | 181° |
| 2026-04-21 00:51 | 13.00531 | 8.40010 | 34841 ft | 502 kts | 181° |
| 2026-04-21 00:51 | 12.93576 | 8.40708 | 34837 ft | 503 kts | 181° |
| 2026-04-21 00:52 | 12.86610 | 8.41405 | 34844 ft | 503 kts | 181° |
| 2026-04-21 00:52 | 12.79638 | 8.42098 | 34844 ft | 503 kts | 181° |
| 2026-04-21 00:53 | 12.72669 | 8.42793 | 34844 ft | 503 kts | 181° |
| 2026-04-21 00:53 | 12.65703 | 8.43480 | 34841 ft | 503 kts | 181° |
| 2026-04-21 00:54 | 12.58731 | 8.44167 | 34842 ft | 504 kts | 180° |
| 2026-04-21 00:54 | 12.51748 | 8.44855 | 34844 ft | 504 kts | 180° |
| 2026-04-21 00:55 | 12.44762 | 8.45546 | 34837 ft | 504 kts | 180° |
| 2026-04-21 00:55 | 12.37788 | 8.46234 | 34841 ft | 504 kts | 180° |
| 2026-04-21 00:56 | 12.30796 | 8.46924 | 34842 ft | 504 kts | 180° |
| 2026-04-21 00:56 | 12.23811 | 8.47612 | 34837 ft | 505 kts | 180° |
| 2026-04-21 00:57 | 12.16815 | 8.48301 | 34836 ft | 505 kts | 180° |
| 2026-04-21 00:57 | 12.09816 | 8.48991 | 34839 ft | 505 kts | 180° |
| 2026-04-21 00:58 | 12.02816 | 8.49681 | 34833 ft | 505 kts | 180° |
| 2026-04-21 00:58 | 11.95833 | 8.50765 | 34833 ft | 509 kts | 174° |
| 2026-04-21 00:59 | 11.88869 | 8.52139 | 34837 ft | 510 kts | 174° |
| 2026-04-21 00:59 | 11.81896 | 8.53474 | 34824 ft | 509 kts | 174° |
| 2026-04-21 01:00 | 11.74968 | 8.54736 | 34839 ft | 509 kts | 175° |
| 2026-04-21 01:00 | 11.67998 | 8.55979 | 34840 ft | 509 kts | 175° |
| 2026-04-21 01:01 | 11.61014 | 8.57222 | 34826 ft | 509 kts | 175° |
| 2026-04-21 01:01 | 11.54033 | 8.58467 | 34829 ft | 509 kts | 174° |
| 2026-04-21 01:02 | 11.47057 | 8.59713 | 34842 ft | 509 kts | 174° |
| 2026-04-21 01:02 | 11.40079 | 8.60959 | 34840 ft | 509 kts | 174° |
| 2026-04-21 01:03 | 11.33107 | 8.62203 | 34840 ft | 509 kts | 174° |
| 2026-04-21 01:03 | 11.26132 | 8.63446 | 34840 ft | 509 kts | 174° |
| 2026-04-21 01:04 | 11.19156 | 8.64688 | 34840 ft | 509 kts | 174° |
| 2026-04-21 01:04 | 11.13352 | 8.65720 | 34848 ft | 509 kts | 174° |
| 2026-04-21 01:05 | 11.06376 | 8.66962 | 34848 ft | 509 kts | 174° |
| 2026-04-21 01:05 | 10.99396 | 8.68204 | 34850 ft | 509 kts | 174° |
| 2026-04-21 01:06 | 10.92416 | 8.69445 | 34844 ft | 509 kts | 174° |
| 2026-04-21 01:06 | 10.85435 | 8.70630 | 34850 ft | 508 kts | 176° |
| 2026-04-21 01:07 | 10.78424 | 8.71419 | 34852 ft | 506 kts | 178° |
| 2026-04-21 01:07 | 10.71404 | 8.72121 | 34861 ft | 507 kts | 178° |
| 2026-04-21 01:08 | 10.64389 | 8.72875 | 34857 ft | 507 kts | 178° |
| 2026-04-21 01:08 | 10.57371 | 8.73670 | 34864 ft | 507 kts | 178° |
| 2026-04-21 01:09 | 10.50362 | 8.74473 | 34869 ft | 507 kts | 178° |
| 2026-04-21 01:09 | 10.43345 | 8.75276 | 34863 ft | 508 kts | 177° |
| 2026-04-21 01:10 | 10.36306 | 8.76078 | 34866 ft | 510 kts | 177° |
| 2026-04-21 01:10 | 10.29245 | 8.76882 | 34878 ft | 510 kts | 177° |
| 2026-04-21 01:11 | 10.22191 | 8.77686 | 34875 ft | 510 kts | 177° |
| 2026-04-21 01:11 | 10.15128 | 8.78490 | 34885 ft | 510 kts | 177° |
| 2026-04-21 01:12 | 10.08121 | 8.79287 | 34888 ft | 510 kts | 177° |
| 2026-04-21 01:12 | 10.01057 | 8.80090 | 34894 ft | 511 kts | 177° |
| 2026-04-21 01:13 | 9.93991 | 8.80894 | 34896 ft | 511 kts | 177° |
| 2026-04-21 01:13 | 9.86921 | 8.81697 | 34896 ft | 511 kts | 177° |
| 2026-04-21 01:14 | 9.79853 | 8.82500 | 34902 ft | 511 kts | 177° |
| 2026-04-21 01:14 | 9.72786 | 8.83303 | 34905 ft | 511 kts | 177° |
| 2026-04-21 01:15 | 9.65721 | 8.84105 | 34907 ft | 510 kts | 177° |
| 2026-04-21 01:15 | 9.58673 | 8.84973 | 34908 ft | 510 kts | 175° |
| 2026-04-21 01:16 | 9.51636 | 8.85989 | 34905 ft | 511 kts | 175° |
| 2026-04-21 01:16 | 9.44604 | 8.87009 | 34905 ft | 510 kts | 175° |
| 2026-04-21 01:17 | 9.37568 | 8.88006 | 34899 ft | 511 kts | 175° |
| 2026-04-21 01:17 | 9.30534 | 8.88990 | 34897 ft | 510 kts | 175° |
| 2026-04-21 01:18 | 9.23506 | 8.89970 | 34880 ft | 510 kts | 175° |
| 2026-04-21 01:18 | 9.16472 | 8.90952 | 34881 ft | 510 kts | 175° |
| 2026-04-21 01:19 | 9.09447 | 8.91933 | 34861 ft | 510 kts | 175° |
| 2026-04-21 01:19 | 9.02417 | 8.92915 | 34863 ft | 510 kts | 175° |
| 2026-04-21 01:20 | 8.95392 | 8.93896 | 34835 ft | 510 kts | 175° |
| 2026-04-21 01:20 | 8.88337 | 8.94879 | 34829 ft | 512 kts | 175° |
| 2026-04-21 01:21 | 8.81268 | 8.95863 | 34812 ft | 513 kts | 175° |
| 2026-04-21 01:21 | 8.74203 | 8.96848 | 34812 ft | 513 kts | 175° |
| 2026-04-21 01:22 | 8.67136 | 8.97833 | 34801 ft | 513 kts | 175° |
| 2026-04-21 01:22 | 8.60118 | 8.98810 | 34795 ft | 513 kts | 175° |
| 2026-04-21 01:23 | 8.53050 | 8.99794 | 34797 ft | 513 kts | 175° |
| 2026-04-21 01:23 | 8.45987 | 9.00777 | 34801 ft | 512 kts | 175° |
| 2026-04-21 01:24 | 8.38919 | 9.01749 | 34793 ft | 512 kts | 175° |
| 2026-04-21 01:24 | 8.31842 | 9.02613 | 34800 ft | 512 kts | 176° |
| 2026-04-21 01:25 | 8.24765 | 9.03449 | 34799 ft | 512 kts | 176° |
| 2026-04-21 01:25 | 8.17696 | 9.04285 | 34791 ft | 511 kts | 175° |
| 2026-04-21 01:26 | 8.10648 | 9.05125 | 34797 ft | 510 kts | 175° |
| 2026-04-21 01:26 | 8.03606 | 9.06018 | 34793 ft | 510 kts | 174° |
| 2026-04-21 01:27 | 7.96575 | 9.06997 | 34794 ft | 510 kts | 174° |
| 2026-04-21 01:27 | 7.89534 | 9.07977 | 34794 ft | 510 kts | 174° |
| 2026-04-21 01:28 | 7.82509 | 9.08939 | 34789 ft | 509 kts | 174° |
| 2026-04-21 01:28 | 7.75486 | 9.09895 | 34792 ft | 508 kts | 173° |
| 2026-04-21 01:29 | 7.68523 | 9.10841 | 34796 ft | 508 kts | 174° |
| 2026-04-21 01:29 | 7.61514 | 9.11794 | 34793 ft | 508 kts | 174° |
| 2026-04-21 01:30 | 7.54464 | 9.12752 | 34796 ft | 508 kts | 174° |
| 2026-04-21 01:30 | 7.47499 | 9.13698 | 34794 ft | 507 kts | 174° |
| 2026-04-21 01:31 | 7.40562 | 9.14641 | 34794 ft | 500 kts | 174° |
| 2026-04-21 01:31 | 7.33674 | 9.15577 | 34794 ft | 499 kts | 174° |
| 2026-04-21 01:32 | 7.26788 | 9.16511 | 34792 ft | 499 kts | 174° |
| 2026-04-21 01:32 | 7.19896 | 9.17446 | 34790 ft | 499 kts | 174° |
| 2026-04-21 01:33 | 7.13010 | 9.18380 | 34793 ft | 499 kts | 174° |
| 2026-04-21 01:33 | 7.06117 | 9.19277 | 34794 ft | 499 kts | 176° |
| 2026-04-21 01:34 | 6.99192 | 9.19749 | 34791 ft | 498 kts | 178° |
| 2026-04-21 01:34 | 6.92265 | 9.20096 | 34789 ft | 498 kts | 178° |
| 2026-04-21 01:35 | 6.85339 | 9.20498 | 34799 ft | 499 kts | 178° |
| 2026-04-21 01:35 | 6.78411 | 9.20945 | 34799 ft | 499 kts | 178° |
| 2026-04-21 01:36 | 6.71494 | 9.21405 | 34802 ft | 498 kts | 177° |
| 2026-04-21 01:36 | 6.64604 | 9.21863 | 34806 ft | 495 kts | 177° |
| 2026-04-21 01:37 | 6.57739 | 9.22316 | 34808 ft | 495 kts | 177° |
| 2026-04-21 01:37 | 6.50907 | 9.22766 | 34805 ft | 494 kts | 177° |
| 2026-04-21 01:38 | 6.44041 | 9.23219 | 34821 ft | 495 kts | 177° |
| 2026-04-21 01:38 | 6.37158 | 9.23672 | 34815 ft | 495 kts | 176° |
| 2026-04-21 01:39 | 6.30247 | 9.24127 | 34831 ft | 501 kts | 176° |
| 2026-04-21 01:39 | 6.23266 | 9.24586 | 34836 ft | 504 kts | 176° |
| 2026-04-21 01:40 | 6.16274 | 9.25046 | 34837 ft | 503 kts | 176° |
| 2026-04-21 01:40 | 6.09307 | 9.25752 | 34835 ft | 503 kts | 173° |
| 2026-04-21 01:41 | 6.02359 | 9.26638 | 34834 ft | 503 kts | 173° |
| 2026-04-21 01:41 | 5.95409 | 9.27500 | 34833 ft | 502 kts | 174° |
| 2026-04-21 01:42 | 5.88490 | 9.28318 | 34834 ft | 501 kts | 174° |
| 2026-04-21 01:42 | 5.81566 | 9.29121 | 34831 ft | 501 kts | 174° |
| 2026-04-21 01:43 | 5.74648 | 9.29921 | 34829 ft | 501 kts | 174° |
| 2026-04-21 01:43 | 5.67763 | 9.31020 | 34827 ft | 501 kts | 169° |
| 2026-04-21 01:44 | 5.60940 | 9.32458 | 34823 ft | 501 kts | 168° |
| 2026-04-21 01:44 | 5.54155 | 9.33945 | 34839 ft | 498 kts | 168° |
| 2026-04-21 01:45 | 5.47436 | 9.35418 | 34841 ft | 498 kts | 168° |
| 2026-04-21 01:45 | 5.40627 | 9.36902 | 34847 ft | 498 kts | 168° |
| 2026-04-21 01:46 | 5.33859 | 9.38373 | 34848 ft | 498 kts | 168° |
| 2026-04-21 01:46 | 5.27133 | 9.39833 | 34857 ft | 498 kts | 168° |
| 2026-04-21 01:47 | 5.20377 | 9.41301 | 34864 ft | 495 kts | 168° |
| 2026-04-21 01:47 | 5.13652 | 9.42761 | 34866 ft | 495 kts | 168° |
| 2026-04-21 01:48 | 5.06914 | 9.44223 | 34872 ft | 496 kts | 168° |
| 2026-04-21 01:48 | 5.00177 | 9.45686 | 34876 ft | 494 kts | 168° |
| 2026-04-21 01:49 | 4.93449 | 9.47141 | 34871 ft | 495 kts | 168° |
| 2026-04-21 01:49 | 4.86713 | 9.48604 | 34870 ft | 495 kts | 168° |
| 2026-04-21 01:50 | 4.79947 | 9.50074 | 34862 ft | 501 kts | 168° |
| 2026-04-21 01:50 | 4.73119 | 9.51556 | 34858 ft | 502 kts | 168° |
| 2026-04-21 01:51 | 4.66297 | 9.53035 | 34857 ft | 501 kts | 168° |
| 2026-04-21 01:51 | 4.59478 | 9.54513 | 34854 ft | 501 kts | 168° |
| 2026-04-21 01:52 | 4.49267 | 9.56816 | 34841 ft | 501 kts | 163° |
| 2026-04-21 01:53 | 4.43761 | 9.58631 | 34844 ft | 501 kts | 161° |
| 2026-04-21 01:53 | 4.36126 | 9.61320 | 34843 ft | 501 kts | 161° |
| 2026-04-21 01:54 | 4.29562 | 9.63661 | 34837 ft | 501 kts | 161° |
| 2026-04-21 01:54 | 4.23000 | 9.65993 | 34841 ft | 501 kts | 161° |
| 2026-04-21 01:55 | 4.17493 | 9.67942 | 34850 ft | 501 kts | 161° |
| 2026-04-21 01:55 | 4.10924 | 9.70265 | 34858 ft | 501 kts | 161° |
| 2026-04-21 01:56 | 4.04360 | 9.72585 | 34857 ft | 505 kts | 161° |
| 2026-04-21 01:56 | 3.97552 | 9.74263 | 34857 ft | 505 kts | 175° |
| 2026-04-21 01:57 | 3.90546 | 9.74692 | 34853 ft | 505 kts | 178° |
| 2026-04-21 01:57 | 3.83521 | 9.74897 | 34849 ft | 505 kts | 179° |
| 2026-04-21 01:58 | 3.76492 | 9.75079 | 34845 ft | 505 kts | 178° |
| 2026-04-21 01:58 | 3.69479 | 9.75283 | 34833 ft | 502 kts | 179° |
| 2026-04-21 01:59 | 3.62504 | 9.75500 | 34829 ft | 501 kts | 178° |
| 2026-04-21 01:59 | 3.55531 | 9.75721 | 34829 ft | 501 kts | 178° |
| 2026-04-21 02:00 | 3.48564 | 9.75940 | 34831 ft | 501 kts | 178° |
| 2026-04-21 02:00 | 3.41590 | 9.76159 | 34827 ft | 501 kts | 178° |
| 2026-04-21 02:01 | 3.34620 | 9.76377 | 34826 ft | 501 kts | 178° |
| 2026-04-21 02:01 | 3.27648 | 9.76595 | 34822 ft | 501 kts | 178° |
| 2026-04-21 02:02 | 3.20679 | 9.76813 | 34822 ft | 501 kts | 178° |
| 2026-04-21 02:02 | 3.13699 | 9.77032 | 34817 ft | 501 kts | 178° |
| 2026-04-21 02:03 | 3.06732 | 9.77250 | 34818 ft | 501 kts | 178° |
| 2026-04-21 02:03 | 2.99757 | 9.77468 | 34808 ft | 501 kts | 179° |
| 2026-04-21 02:04 | 2.92795 | 9.77686 | 34817 ft | 500 kts | 179° |
| 2026-04-21 02:04 | 2.85847 | 9.77904 | 34817 ft | 500 kts | 179° |
| 2026-04-21 02:05 | 2.78896 | 9.78121 | 34814 ft | 500 kts | 179° |
| 2026-04-21 02:05 | 2.71990 | 9.78337 | 34807 ft | 500 kts | 179° |
| 2026-04-21 02:06 | 2.65036 | 9.78554 | 34810 ft | 500 kts | 179° |
| 2026-04-21 02:06 | 2.58091 | 9.78771 | 34813 ft | 499 kts | 178° |
| 2026-04-21 02:07 | 2.51149 | 9.78988 | 34816 ft | 499 kts | 178° |
| 2026-04-21 02:07 | 2.44214 | 9.79205 | 34815 ft | 499 kts | 178° |
| 2026-04-21 02:08 | 2.37276 | 9.79422 | 34815 ft | 499 kts | 178° |
| 2026-04-21 02:08 | 2.30338 | 9.79639 | 34816 ft | 499 kts | 178° |
| 2026-04-21 02:09 | 2.23401 | 9.79856 | 34818 ft | 499 kts | 178° |
| 2026-04-21 02:09 | 2.16457 | 9.80073 | 34818 ft | 499 kts | 178° |
| 2026-04-21 02:10 | 2.09513 | 9.80289 | 34821 ft | 499 kts | 178° |
| 2026-04-21 02:10 | 2.02571 | 9.80506 | 34820 ft | 499 kts | 178° |
| 2026-04-21 02:11 | 1.95634 | 9.80723 | 34825 ft | 499 kts | 178° |
| 2026-04-21 02:11 | 1.88726 | 9.80256 | 34824 ft | 498 kts | 192° |
| 2026-04-21 02:12 | 1.82024 | 9.78461 | 34823 ft | 500 kts | 197° |
| 2026-04-21 02:12 | 1.75409 | 9.76433 | 34827 ft | 501 kts | 197° |
| 2026-04-21 02:13 | 1.68759 | 9.74365 | 34826 ft | 501 kts | 197° |
| 2026-04-21 02:13 | 1.62057 | 9.72304 | 34831 ft | 501 kts | 197° |
| 2026-04-21 02:14 | 1.55388 | 9.70283 | 34829 ft | 501 kts | 196° |
| 2026-04-21 02:14 | 1.48687 | 9.68402 | 34821 ft | 501 kts | 195° |
| 2026-04-21 02:15 | 1.41958 | 9.66553 | 34823 ft | 502 kts | 195° |
| 2026-04-21 02:15 | 1.35272 | 9.64695 | 34821 ft | 502 kts | 195° |
| 2026-04-21 02:16 | 1.28539 | 9.62809 | 34820 ft | 502 kts | 195° |
| 2026-04-21 02:16 | 1.21814 | 9.60920 | 34821 ft | 502 kts | 195° |
| 2026-04-21 02:17 | 1.15088 | 9.59031 | 34819 ft | 502 kts | 195° |
| 2026-04-21 02:17 | 1.08355 | 9.57140 | 34819 ft | 503 kts | 195° |
| 2026-04-21 02:18 | 1.01620 | 9.55251 | 34817 ft | 503 kts | 195° |
| 2026-04-21 02:18 | 0.94883 | 9.53360 | 34819 ft | 503 kts | 195° |
| 2026-04-21 02:19 | 0.88150 | 9.51471 | 34819 ft | 503 kts | 195° |
| 2026-04-21 02:19 | 0.81414 | 9.49582 | 34818 ft | 503 kts | 195° |
| 2026-04-21 02:20 | 0.74679 | 9.47691 | 34818 ft | 503 kts | 195° |
| 2026-04-21 02:20 | 0.67938 | 9.45801 | 34813 ft | 503 kts | 195° |
| 2026-04-21 02:21 | 0.61204 | 9.43913 | 34818 ft | 503 kts | 195° |
| 2026-04-21 02:21 | 0.54461 | 9.42056 | 34811 ft | 502 kts | 193° |
| 2026-04-21 02:22 | 0.47521 | 9.41482 | 34817 ft | 502 kts | 175° |
| 2026-04-21 02:22 | 0.40760 | 9.43113 | 34816 ft | 502 kts | 160° |
| 2026-04-21 02:23 | 0.34256 | 9.45697 | 34819 ft | 503 kts | 157° |
| 2026-04-21 02:23 | 0.27870 | 9.48378 | 34816 ft | 500 kts | 156° |
| 2026-04-21 02:24 | 0.21457 | 9.51048 | 34818 ft | 499 kts | 157° |
| 2026-04-21 02:24 | 0.15044 | 9.53686 | 34823 ft | 499 kts | 157° |
| 2026-04-21 02:25 | 0.08620 | 9.56315 | 34827 ft | 499 kts | 157° |
| 2026-04-21 02:25 | 0.02198 | 9.58942 | 34823 ft | 499 kts | 157° |
| 2026-04-21 02:26 | -0.04226 | 9.61572 | 34824 ft | 500 kts | 157° |
| 2026-04-21 02:26 | -0.10672 | 9.64211 | 34823 ft | 501 kts | 157° |
| 2026-04-21 02:27 | -0.17129 | 9.66856 | 34823 ft | 502 kts | 157° |
| 2026-04-21 02:27 | -0.23585 | 9.69500 | 34823 ft | 501 kts | 157° |
| 2026-04-21 02:28 | -0.30045 | 9.72145 | 34826 ft | 501 kts | 157° |
| 2026-04-21 02:28 | -0.36499 | 9.74787 | 34826 ft | 501 kts | 157° |
| 2026-04-21 02:29 | -0.42957 | 9.77432 | 34826 ft | 501 kts | 157° |
| 2026-04-21 02:29 | -0.49414 | 9.80076 | 34827 ft | 501 kts | 157° |
| 2026-04-21 02:30 | -0.55821 | 9.82700 | 34829 ft | 501 kts | 157° |
| 2026-04-21 02:30 | -0.62274 | 9.85343 | 34829 ft | 500 kts | 157° |
| 2026-04-21 02:31 | -0.68705 | 9.87982 | 34830 ft | 499 kts | 157° |
| 2026-04-21 02:31 | -0.75132 | 9.90613 | 34828 ft | 499 kts | 157° |
| 2026-04-21 02:32 | -0.81571 | 9.93249 | 34828 ft | 501 kts | 157° |
| 2026-04-21 02:32 | -0.88026 | 9.95893 | 34829 ft | 501 kts | 157° |
| 2026-04-21 02:33 | -0.94483 | 9.98538 | 34830 ft | 501 kts | 157° |
| 2026-04-21 02:33 | -1.00942 | 10.01184 | 34829 ft | 501 kts | 157° |
| 2026-04-21 02:34 | -1.07397 | 10.03829 | 34825 ft | 501 kts | 157° |
| 2026-04-21 02:34 | -1.13856 | 10.06475 | 34826 ft | 501 kts | 157° |
| 2026-04-21 02:35 | -1.20308 | 10.09120 | 34826 ft | 501 kts | 157° |
| 2026-04-21 02:35 | -1.26758 | 10.11763 | 34827 ft | 501 kts | 157° |
| 2026-04-21 02:36 | -1.33170 | 10.14391 | 34832 ft | 501 kts | 157° |
| 2026-04-21 02:36 | -1.39622 | 10.17035 | 34831 ft | 501 kts | 157° |
| 2026-04-21 02:37 | -1.46069 | 10.19677 | 34832 ft | 501 kts | 157° |
| 2026-04-21 02:37 | -1.52520 | 10.22322 | 34832 ft | 501 kts | 157° |
| 2026-04-21 02:38 | -1.58975 | 10.24968 | 34830 ft | 501 kts | 157° |
| 2026-04-21 02:38 | -1.65433 | 10.27614 | 34832 ft | 502 kts | 157° |
| 2026-04-21 02:39 | -1.71890 | 10.30262 | 34837 ft | 502 kts | 157° |
| 2026-04-21 02:39 | -1.78343 | 10.32908 | 34837 ft | 501 kts | 157° |
| 2026-04-21 02:40 | -1.84799 | 10.35556 | 34840 ft | 501 kts | 157° |
| 2026-04-21 02:40 | -1.91257 | 10.38202 | 34840 ft | 501 kts | 157° |
| 2026-04-21 02:41 | -1.97699 | 10.40824 | 34836 ft | 500 kts | 159° |
| 2026-04-21 02:41 | -2.04460 | 10.42349 | 34841 ft | 500 kts | 176° |
| 2026-04-21 02:42 | -2.11366 | 10.41645 | 34838 ft | 502 kts | 195° |
| 2026-04-21 02:42 | -2.17912 | 10.39196 | 34836 ft | 503 kts | 202° |
| 2026-04-21 02:43 | -2.24358 | 10.36438 | 34836 ft | 504 kts | 202° |
| 2026-04-21 02:43 | -2.30793 | 10.33668 | 34837 ft | 503 kts | 202° |
| 2026-04-21 02:44 | -2.36146 | 10.31396 | 34836 ft | 502 kts | 202° |
| 2026-04-21 02:44 | -2.42584 | 10.28686 | 34836 ft | 502 kts | 202° |
| 2026-04-21 02:45 | -2.49031 | 10.25979 | 34830 ft | 502 kts | 202° |
| 2026-04-21 02:45 | -2.55475 | 10.23271 | 34824 ft | 502 kts | 202° |
| 2026-04-21 02:46 | -2.61917 | 10.20563 | 34825 ft | 502 kts | 202° |
| 2026-04-21 02:46 | -2.68356 | 10.17855 | 34827 ft | 502 kts | 202° |
| 2026-04-21 02:47 | -2.74799 | 10.15145 | 34821 ft | 502 kts | 202° |
| 2026-04-21 02:47 | -2.81234 | 10.12438 | 34821 ft | 502 kts | 202° |
| 2026-04-21 02:48 | -2.87676 | 10.09728 | 34817 ft | 502 kts | 202° |
| 2026-04-21 02:48 | -2.94119 | 10.07017 | 34816 ft | 502 kts | 202° |
| 2026-04-21 02:49 | -3.00557 | 10.04308 | 34819 ft | 502 kts | 202° |
| 2026-04-21 02:49 | -3.06998 | 10.01597 | 34813 ft | 502 kts | 202° |
| 2026-04-21 02:50 | -3.13390 | 9.98907 | 34814 ft | 502 kts | 202° |
| 2026-04-21 02:50 | -3.19829 | 9.96196 | 34815 ft | 502 kts | 201° |
| 2026-04-21 02:51 | -3.26263 | 9.93487 | 34817 ft | 502 kts | 202° |
| 2026-04-21 02:51 | -3.32698 | 9.90778 | 34814 ft | 502 kts | 202° |
| 2026-04-21 02:52 | -3.39140 | 9.88065 | 34815 ft | 502 kts | 201° |
| 2026-04-21 02:52 | -3.45593 | 9.85347 | 34815 ft | 504 kts | 202° |
| 2026-04-21 02:53 | -3.52059 | 9.82624 | 34813 ft | 504 kts | 202° |
| 2026-04-21 02:53 | -3.58529 | 9.79899 | 34818 ft | 504 kts | 202° |
| 2026-04-21 02:54 | -3.64991 | 9.77175 | 34815 ft | 504 kts | 202° |
| 2026-04-21 02:54 | -3.71462 | 9.74447 | 34818 ft | 504 kts | 202° |
| 2026-04-21 02:55 | -3.77929 | 9.71721 | 34815 ft | 504 kts | 202° |
| 2026-04-21 02:55 | -3.84369 | 9.69006 | 34820 ft | 501 kts | 202° |
| 2026-04-21 02:56 | -3.90789 | 9.66300 | 34816 ft | 500 kts | 202° |
| 2026-04-21 02:56 | -4.00413 | 9.62241 | 34813 ft | 501 kts | 202° |
| 2026-04-21 02:57 | -4.06827 | 9.59535 | 34814 ft | 500 kts | 202° |
| 2026-04-21 02:57 | -4.13237 | 9.56830 | 34815 ft | 500 kts | 202° |
| 2026-04-21 02:58 | -4.19653 | 9.54123 | 34813 ft | 500 kts | 202° |
| 2026-04-21 02:58 | -4.26071 | 9.51414 | 34816 ft | 500 kts | 202° |
| 2026-04-21 02:59 | -4.32483 | 9.48708 | 34814 ft | 500 kts | 202° |
| 2026-04-21 02:59 | -4.38895 | 9.46000 | 34818 ft | 500 kts | 202° |
| 2026-04-21 03:00 | -4.45316 | 9.43289 | 34816 ft | 501 kts | 202° |
| 2026-04-21 03:00 | -4.51739 | 9.40576 | 34818 ft | 501 kts | 202° |
| 2026-04-21 03:01 | -4.58160 | 9.37864 | 34817 ft | 500 kts | 202° |
| 2026-04-21 03:01 | -4.64571 | 9.35155 | 34814 ft | 500 kts | 202° |
| 2026-04-21 03:02 | -4.70985 | 9.32444 | 34817 ft | 500 kts | 202° |
| 2026-04-21 03:02 | -4.77398 | 9.29733 | 34815 ft | 500 kts | 202° |
| 2026-04-21 03:03 | -4.83809 | 9.27023 | 34814 ft | 500 kts | 202° |
| 2026-04-21 03:03 | -4.90219 | 9.24312 | 34818 ft | 500 kts | 202° |
| 2026-04-21 03:04 | -4.96574 | 9.21624 | 34816 ft | 498 kts | 202° |
| 2026-04-21 03:04 | -5.02956 | 9.18924 | 34812 ft | 498 kts | 202° |
| 2026-04-21 03:05 | -5.09343 | 9.16222 | 34815 ft | 498 kts | 202° |
| 2026-04-21 03:05 | -5.15724 | 9.13521 | 34816 ft | 498 kts | 202° |
| 2026-04-21 03:06 | -5.22106 | 9.10820 | 34816 ft | 498 kts | 202° |
| 2026-04-21 03:06 | -5.28492 | 9.08116 | 34815 ft | 498 kts | 202° |
| 2026-04-21 03:07 | -5.34871 | 9.05414 | 34818 ft | 498 kts | 202° |
| 2026-04-21 03:07 | -5.41241 | 9.02716 | 34819 ft | 497 kts | 202° |
| 2026-04-21 03:08 | -5.47692 | 9.00218 | 34819 ft | 496 kts | 194° |
| 2026-04-21 03:08 | -5.54447 | 8.98806 | 34821 ft | 496 kts | 189° |
| 2026-04-21 03:09 | -5.61252 | 8.97634 | 34821 ft | 497 kts | 189° |
| 2026-04-21 03:09 | -5.68067 | 8.96500 | 34819 ft | 495 kts | 189° |
| 2026-04-21 03:10 | -5.74843 | 8.95360 | 34824 ft | 493 kts | 189° |
| 2026-04-21 03:10 | -5.81599 | 8.94209 | 34825 ft | 493 kts | 189° |
| 2026-04-21 03:11 | -5.88318 | 8.93060 | 34827 ft | 493 kts | 189° |
| 2026-04-21 03:11 | -5.95081 | 8.91904 | 34827 ft | 493 kts | 190° |
| 2026-04-21 03:12 | -6.01837 | 8.90749 | 34827 ft | 493 kts | 190° |
| 2026-04-21 03:12 | -6.08588 | 8.89596 | 34826 ft | 491 kts | 190° |
| 2026-04-21 03:13 | -6.15318 | 8.88445 | 34829 ft | 491 kts | 190° |
| 2026-04-21 03:13 | -6.22050 | 8.87294 | 34829 ft | 491 kts | 190° |
| 2026-04-21 03:14 | -6.28776 | 8.86144 | 34827 ft | 490 kts | 190° |
| 2026-04-21 03:14 | -6.35505 | 8.84992 | 34829 ft | 491 kts | 190° |
| 2026-04-21 03:15 | -6.42231 | 8.83841 | 34829 ft | 490 kts | 190° |
| 2026-04-21 03:15 | -6.48961 | 8.82689 | 34829 ft | 491 kts | 191° |
| 2026-04-21 03:16 | -6.55696 | 8.81536 | 34827 ft | 491 kts | 190° |
| 2026-04-21 03:16 | -6.62429 | 8.80382 | 34829 ft | 491 kts | 190° |
| 2026-04-21 03:17 | -6.69163 | 8.79229 | 34826 ft | 491 kts | 191° |
| 2026-04-21 03:17 | -6.75894 | 8.78075 | 34832 ft | 491 kts | 191° |
| 2026-04-21 03:18 | -6.82620 | 8.76923 | 34838 ft | 490 kts | 191° |
| 2026-04-21 03:18 | -6.89336 | 8.75771 | 34838 ft | 489 kts | 191° |
| 2026-04-21 03:19 | -6.96049 | 8.74619 | 34838 ft | 489 kts | 191° |
| 2026-04-21 03:19 | -7.02764 | 8.73467 | 34838 ft | 489 kts | 191° |
| 2026-04-21 03:20 | -7.09435 | 8.72322 | 34837 ft | 490 kts | 191° |
| 2026-04-21 03:20 | -7.16149 | 8.71170 | 34837 ft | 489 kts | 191° |
| 2026-04-21 03:21 | -7.22858 | 8.70018 | 34840 ft | 489 kts | 191° |
| 2026-04-21 03:21 | -7.29572 | 8.68864 | 34841 ft | 489 kts | 191° |
| 2026-04-21 03:22 | -7.36282 | 8.67711 | 34840 ft | 489 kts | 191° |
| 2026-04-21 03:22 | -7.42994 | 8.66557 | 34838 ft | 489 kts | 191° |
| 2026-04-21 03:23 | -7.49700 | 8.65404 | 34841 ft | 489 kts | 191° |
| 2026-04-21 03:23 | -7.56410 | 8.64251 | 34840 ft | 489 kts | 191° |
| 2026-04-21 03:24 | -7.63108 | 8.63099 | 34841 ft | 488 kts | 191° |
| 2026-04-21 03:24 | -7.69799 | 8.61947 | 34838 ft | 488 kts | 191° |
| 2026-04-21 03:25 | -7.76498 | 8.60794 | 34840 ft | 488 kts | 191° |
| 2026-04-21 03:25 | -7.83192 | 8.59641 | 34840 ft | 488 kts | 191° |
| 2026-04-21 03:26 | -7.89883 | 8.58489 | 34842 ft | 488 kts | 191° |
| 2026-04-21 03:26 | -7.96581 | 8.57334 | 34841 ft | 488 kts | 191° |
| 2026-04-21 03:27 | -8.03272 | 8.56181 | 34842 ft | 488 kts | 191° |
| 2026-04-21 03:27 | -8.09922 | 8.55035 | 34841 ft | 488 kts | 191° |
| 2026-04-21 03:28 | -8.16616 | 8.53880 | 34846 ft | 488 kts | 191° |
| 2026-04-21 03:28 | -8.23312 | 8.52724 | 34846 ft | 488 kts | 191° |
| 2026-04-21 03:29 | -8.30003 | 8.51570 | 34846 ft | 488 kts | 191° |
| 2026-04-21 03:29 | -8.36694 | 8.50414 | 34846 ft | 488 kts | 191° |
| 2026-04-21 03:30 | -8.43375 | 8.49260 | 34849 ft | 487 kts | 191° |
| 2026-04-21 03:30 | -8.50064 | 8.48104 | 34847 ft | 487 kts | 191° |
| 2026-04-21 03:31 | -8.56748 | 8.46949 | 34846 ft | 487 kts | 191° |
| 2026-04-21 03:31 | -8.63435 | 8.45793 | 34846 ft | 487 kts | 191° |
| 2026-04-21 03:32 | -8.68990 | 8.44832 | 34846 ft | 488 kts | 191° |
| 2026-04-21 03:32 | -8.75684 | 8.43674 | 34852 ft | 488 kts | 191° |
| 2026-04-21 03:33 | -8.82376 | 8.42515 | 34852 ft | 488 kts | 191° |
| 2026-04-21 03:33 | -8.89066 | 8.41357 | 34854 ft | 488 kts | 191° |
| 2026-04-21 03:34 | -8.95752 | 8.40199 | 34854 ft | 488 kts | 191° |
| 2026-04-21 03:34 | -9.02450 | 8.39038 | 34853 ft | 488 kts | 191° |
| 2026-04-21 03:35 | -9.09156 | 8.37875 | 34851 ft | 489 kts | 191° |
| 2026-04-21 03:35 | -9.15870 | 8.36711 | 34855 ft | 489 kts | 191° |
| 2026-04-21 03:36 | -9.22579 | 8.35547 | 34854 ft | 489 kts | 192° |
| 2026-04-21 03:36 | -9.29290 | 8.34383 | 34854 ft | 489 kts | 192° |
| 2026-04-21 03:37 | -9.36007 | 8.33217 | 34856 ft | 490 kts | 192° |
| 2026-04-21 03:37 | -9.42676 | 8.32059 | 34857 ft | 490 kts | 192° |
| 2026-04-21 03:38 | -9.49403 | 8.30891 | 34860 ft | 490 kts | 192° |
| 2026-04-21 03:38 | -9.56128 | 8.29721 | 34859 ft | 490 kts | 192° |
| 2026-04-21 03:39 | -9.62852 | 8.28552 | 34860 ft | 490 kts | 192° |
| 2026-04-21 03:39 | -9.69579 | 8.27382 | 34862 ft | 490 kts | 192° |
| 2026-04-21 03:40 | -9.76301 | 8.26212 | 34863 ft | 490 kts | 192° |
| 2026-04-21 03:40 | -9.83025 | 8.25041 | 34863 ft | 490 kts | 192° |
| 2026-04-21 03:41 | -9.89742 | 8.23871 | 34863 ft | 490 kts | 192° |
| 2026-04-21 03:41 | -9.96457 | 8.22700 | 34860 ft | 490 kts | 192° |
| 2026-04-21 03:42 | -10.03175 | 8.21529 | 34866 ft | 490 kts | 192° |
| 2026-04-21 03:42 | -10.09846 | 8.20366 | 34865 ft | 490 kts | 192° |
| 2026-04-21 03:43 | -10.16563 | 8.19195 | 34867 ft | 490 kts | 192° |
| 2026-04-21 03:43 | -10.23286 | 8.18021 | 34870 ft | 490 kts | 192° |
| 2026-04-21 03:44 | -10.30006 | 8.16847 | 34870 ft | 490 kts | 192° |
| 2026-04-21 03:44 | -10.36732 | 8.15672 | 34870 ft | 490 kts | 192° |
| 2026-04-21 03:45 | -10.43450 | 8.14498 | 34867 ft | 490 kts | 192° |
| 2026-04-21 03:45 | -10.50171 | 8.13324 | 34867 ft | 490 kts | 193° |
| 2026-04-21 03:46 | -10.56886 | 8.12149 | 34867 ft | 490 kts | 193° |
| 2026-04-21 03:46 | -10.63603 | 8.10974 | 34868 ft | 490 kts | 193° |
| 2026-04-21 03:47 | -10.70316 | 8.09798 | 34867 ft | 490 kts | 193° |
| 2026-04-21 03:47 | -10.76984 | 8.08631 | 34875 ft | 490 kts | 193° |
| 2026-04-21 03:48 | -10.83693 | 8.07455 | 34876 ft | 489 kts | 193° |
| 2026-04-21 03:48 | -10.90404 | 8.06279 | 34873 ft | 489 kts | 193° |
| 2026-04-21 03:49 | -10.97101 | 8.05104 | 34872 ft | 489 kts | 193° |
| 2026-04-21 03:49 | -11.03909 | 8.04579 | 34873 ft | 492 kts | 185° |
| 2026-04-21 03:50 | -11.10765 | 8.04470 | 34876 ft | 493 kts | 184° |
| 2026-04-21 03:50 | -11.17627 | 8.04430 | 34875 ft | 493 kts | 184° |
| 2026-04-21 03:51 | -11.24484 | 8.04386 | 34878 ft | 493 kts | 184° |
| 2026-04-21 03:51 | -11.31352 | 8.04328 | 34878 ft | 493 kts | 184° |
| 2026-04-21 03:52 | -11.38206 | 8.04266 | 34879 ft | 493 kts | 184° |
| 2026-04-21 03:52 | -11.45069 | 8.04203 | 34878 ft | 493 kts | 184° |
| 2026-04-21 03:53 | -11.51929 | 8.04140 | 34881 ft | 493 kts | 184° |
| 2026-04-21 03:53 | -11.58791 | 8.04078 | 34882 ft | 493 kts | 184° |
| 2026-04-21 03:54 | -11.65657 | 8.04016 | 34881 ft | 493 kts | 184° |
| 2026-04-21 03:54 | -11.72513 | 8.03954 | 34882 ft | 493 kts | 184° |
| 2026-04-21 03:55 | -11.79374 | 8.03892 | 34884 ft | 493 kts | 184° |
| 2026-04-21 03:55 | -11.86235 | 8.03829 | 34884 ft | 493 kts | 184° |
| 2026-04-21 03:56 | -11.93050 | 8.03767 | 34894 ft | 493 kts | 184° |
| 2026-04-21 03:56 | -11.99915 | 8.03704 | 34886 ft | 493 kts | 185° |
| 2026-04-21 03:57 | -12.06771 | 8.03642 | 34889 ft | 493 kts | 185° |
| 2026-04-21 03:57 | -12.13635 | 8.03579 | 34884 ft | 493 kts | 185° |
| 2026-04-21 03:58 | -12.20498 | 8.03517 | 34889 ft | 493 kts | 185° |
| 2026-04-21 03:58 | -12.27363 | 8.03454 | 34892 ft | 493 kts | 185° |
| 2026-04-21 03:59 | -12.34223 | 8.03392 | 34893 ft | 493 kts | 185° |
| 2026-04-21 04:00 | -12.44519 | 8.03298 | 34894 ft | 493 kts | 185° |
| 2026-04-21 04:00 | -12.51375 | 8.03235 | 34898 ft | 493 kts | 185° |
| 2026-04-21 04:01 | -12.58235 | 8.03172 | 34898 ft | 493 kts | 185° |
| 2026-04-21 04:01 | -12.65089 | 8.03109 | 34900 ft | 493 kts | 185° |
| 2026-04-21 04:02 | -12.71939 | 8.03047 | 34896 ft | 492 kts | 185° |
| 2026-04-21 04:02 | -12.78776 | 8.02985 | 34896 ft | 491 kts | 185° |
| 2026-04-21 04:03 | -12.85613 | 8.02922 | 34899 ft | 491 kts | 185° |
| 2026-04-21 04:03 | -12.92447 | 8.02859 | 34900 ft | 491 kts | 185° |
| 2026-04-21 04:04 | -12.99288 | 8.02796 | 34895 ft | 491 kts | 185° |
| 2026-04-21 04:04 | -13.06117 | 8.02734 | 34905 ft | 490 kts | 186° |
| 2026-04-21 04:05 | -13.12936 | 8.02672 | 34900 ft | 490 kts | 186° |
| 2026-04-21 04:05 | -13.19702 | 8.02609 | 34895 ft | 490 kts | 186° |
| 2026-04-21 04:06 | -13.26520 | 8.02546 | 34904 ft | 490 kts | 186° |
| 2026-04-21 04:06 | -13.33332 | 8.02483 | 34904 ft | 490 kts | 186° |
| 2026-04-21 04:07 | -13.40149 | 8.02421 | 34905 ft | 490 kts | 186° |
| 2026-04-21 04:07 | -13.46970 | 8.02358 | 34902 ft | 490 kts | 186° |
| 2026-04-21 04:08 | -13.53800 | 8.02295 | 34906 ft | 490 kts | 186° |
| 2026-04-21 04:08 | -13.60624 | 8.02232 | 34908 ft | 490 kts | 186° |
| 2026-04-21 04:09 | -13.67450 | 8.02169 | 34910 ft | 490 kts | 186° |
| 2026-04-21 04:09 | -13.74272 | 8.02106 | 34917 ft | 490 kts | 186° |
| 2026-04-21 04:10 | -13.81094 | 8.02044 | 34912 ft | 490 kts | 186° |
| 2026-04-21 04:10 | -13.87910 | 8.01980 | 34912 ft | 490 kts | 186° |
| 2026-04-21 04:11 | -13.94720 | 8.01917 | 34918 ft | 490 kts | 186° |
| 2026-04-21 04:11 | -14.01541 | 8.01854 | 34916 ft | 490 kts | 186° |
| 2026-04-21 04:12 | -14.08353 | 8.01791 | 34927 ft | 490 kts | 186° |
| 2026-04-21 04:12 | -14.15167 | 8.01728 | 34919 ft | 490 kts | 186° |
| 2026-04-21 04:13 | -14.21978 | 8.01665 | 34921 ft | 489 kts | 186° |
| 2026-04-21 04:13 | -14.28788 | 8.01602 | 34920 ft | 489 kts | 186° |
| 2026-04-21 04:14 | -14.35600 | 8.01538 | 34921 ft | 489 kts | 186° |
| 2026-04-21 04:14 | -14.42409 | 8.01475 | 34924 ft | 489 kts | 186° |
| 2026-04-21 04:15 | -14.49218 | 8.01412 | 34925 ft | 489 kts | 187° |
| 2026-04-21 04:15 | -14.56029 | 8.01349 | 34927 ft | 489 kts | 187° |
| 2026-04-21 04:16 | -14.62837 | 8.01285 | 34927 ft | 489 kts | 187° |
| 2026-04-21 04:16 | -14.69600 | 8.01222 | 34931 ft | 489 kts | 187° |
| 2026-04-21 04:17 | -14.76409 | 8.01159 | 34927 ft | 489 kts | 187° |
| 2026-04-21 04:17 | -14.83226 | 8.01095 | 34931 ft | 491 kts | 187° |
| 2026-04-21 04:18 | -14.90064 | 8.01029 | 34930 ft | 492 kts | 187° |
| 2026-04-21 04:18 | -14.96915 | 8.00966 | 34930 ft | 492 kts | 187° |
| 2026-04-21 04:19 | -15.03764 | 8.00903 | 34930 ft | 492 kts | 187° |
| 2026-04-21 04:19 | -15.10614 | 8.00839 | 34936 ft | 492 kts | 187° |
| 2026-04-21 04:20 | -15.17456 | 8.00775 | 34934 ft | 492 kts | 187° |
| 2026-04-21 04:20 | -15.24305 | 8.00711 | 34937 ft | 492 kts | 187° |
| 2026-04-21 04:21 | -15.31154 | 8.00647 | 34938 ft | 492 kts | 187° |
| 2026-04-21 04:21 | -15.37999 | 8.00583 | 34948 ft | 492 kts | 187° |
| 2026-04-21 04:22 | -15.44842 | 8.00519 | 34939 ft | 492 kts | 187° |
| 2026-04-21 04:22 | -15.50530 | 8.00465 | 34958 ft | 492 kts | 187° |
| 2026-04-21 04:23 | -15.57380 | 8.00401 | 34945 ft | 493 kts | 187° |
| 2026-04-21 04:23 | -15.64239 | 8.00336 | 34951 ft | 493 kts | 187° |
| 2026-04-21 04:24 | -15.71100 | 8.00272 | 34950 ft | 493 kts | 187° |
| 2026-04-21 04:24 | -15.77956 | 8.00208 | 34953 ft | 493 kts | 187° |
| 2026-04-21 04:25 | -15.84816 | 8.00143 | 34968 ft | 493 kts | 187° |
| 2026-04-21 04:25 | -15.91673 | 8.00079 | 34947 ft | 493 kts | 188° |
| 2026-04-21 04:26 | -15.98529 | 8.00014 | 34957 ft | 493 kts | 188° |
| 2026-04-21 04:26 | -16.05392 | 7.99972 | 34955 ft | 493 kts | 187° |
| 2026-04-21 04:27 | -16.12261 | 7.99983 | 34960 ft | 494 kts | 187° |
| 2026-04-21 04:27 | -16.19128 | 7.99996 | 34959 ft | 493 kts | 187° |
| 2026-04-21 04:28 | -16.26004 | 8.00001 | 34956 ft | 494 kts | 187° |
| 2026-04-21 04:28 | -16.32886 | 8.00000 | 34958 ft | 495 kts | 187° |
| 2026-04-21 04:29 | -16.39773 | 8.00000 | 34955 ft | 495 kts | 187° |
| 2026-04-21 04:29 | -16.46659 | 8.00000 | 34955 ft | 495 kts | 187° |
| 2026-04-21 04:30 | -16.53539 | 8.00000 | 34959 ft | 495 kts | 187° |
| 2026-04-21 04:30 | -16.60389 | 8.00000 | 34961 ft | 496 kts | 187° |
| 2026-04-21 04:31 | -16.67332 | 7.99999 | 34965 ft | 496 kts | 187° |
| 2026-04-21 04:31 | -16.74189 | 7.99999 | 34963 ft | 496 kts | 187° |
| 2026-04-21 04:32 | -16.81086 | 8.00000 | 34963 ft | 496 kts | 187° |
| 2026-04-21 04:32 | -16.87988 | 8.00000 | 34963 ft | 496 kts | 187° |
| 2026-04-21 04:33 | -16.94895 | 7.99999 | 34965 ft | 497 kts | 187° |
| 2026-04-21 04:33 | -17.01814 | 7.99999 | 34966 ft | 498 kts | 187° |
| 2026-04-21 04:34 | -17.08737 | 7.99999 | 34970 ft | 498 kts | 187° |
| 2026-04-21 04:34 | -17.15662 | 8.00000 | 34969 ft | 498 kts | 187° |
| 2026-04-21 04:35 | -17.22584 | 8.00001 | 34974 ft | 498 kts | 187° |
| 2026-04-21 04:35 | -17.29514 | 8.00000 | 34975 ft | 499 kts | 187° |
| 2026-04-21 04:36 | -17.36462 | 7.99999 | 34976 ft | 499 kts | 187° |
| 2026-04-21 04:36 | -17.43405 | 7.99999 | 34974 ft | 499 kts | 187° |
| 2026-04-21 04:37 | -17.50308 | 7.99999 | 34975 ft | 499 kts | 187° |
| 2026-04-21 04:37 | -17.57255 | 8.00000 | 34977 ft | 499 kts | 187° |
| 2026-04-21 04:38 | -17.64201 | 8.00000 | 34979 ft | 500 kts | 187° |
| 2026-04-21 04:38 | -17.71158 | 7.99999 | 34977 ft | 500 kts | 187° |
| 2026-04-21 04:39 | -17.78114 | 8.00000 | 34981 ft | 500 kts | 187° |
| 2026-04-21 04:39 | -17.85072 | 8.00000 | 34982 ft | 500 kts | 187° |
| 2026-04-21 04:40 | -17.92033 | 8.00000 | 34984 ft | 500 kts | 187° |
| 2026-04-21 04:40 | -17.98991 | 8.00000 | 34982 ft | 501 kts | 188° |
| 2026-04-21 04:41 | -18.05962 | 7.99999 | 34986 ft | 501 kts | 188° |
| 2026-04-21 04:41 | -18.12933 | 8.00000 | 34987 ft | 501 kts | 188° |
| 2026-04-21 04:42 | -18.19902 | 8.00000 | 34990 ft | 501 kts | 188° |
| 2026-04-21 04:42 | -18.26874 | 8.00000 | 34979 ft | 501 kts | 188° |
| 2026-04-21 04:43 | -18.33842 | 8.00001 | 34990 ft | 500 kts | 188° |
| 2026-04-21 04:43 | -18.40797 | 8.00001 | 34990 ft | 500 kts | 188° |
| 2026-04-21 04:44 | -18.47752 | 8.00000 | 34993 ft | 500 kts | 188° |
| 2026-04-21 04:44 | -18.54710 | 8.00000 | 34990 ft | 500 kts | 188° |
| 2026-04-21 04:45 | -18.61663 | 8.00000 | 34989 ft | 500 kts | 188° |
| 2026-04-21 04:45 | -18.68616 | 8.00000 | 34993 ft | 500 kts | 188° |
| 2026-04-21 04:46 | -18.75575 | 8.00000 | 34997 ft | 500 kts | 188° |
| 2026-04-21 04:46 | -18.82526 | 7.99999 | 34999 ft | 500 kts | 188° |
| 2026-04-21 04:47 | -18.89433 | 7.99999 | 34999 ft | 500 kts | 188° |
| 2026-04-21 04:47 | -18.96390 | 8.00000 | 35021 ft | 500 kts | 189° |
| 2026-04-21 04:48 | -19.03348 | 7.99999 | 35008 ft | 500 kts | 189° |
| 2026-04-21 04:48 | -19.10315 | 7.99999 | 35011 ft | 501 kts | 189° |
| 2026-04-21 04:49 | -19.17280 | 7.99999 | 34998 ft | 501 kts | 189° |
| 2026-04-21 04:49 | -19.24247 | 7.99999 | 35007 ft | 501 kts | 189° |
| 2026-04-21 04:50 | -19.31212 | 8.00000 | 35021 ft | 501 kts | 189° |
| 2026-04-21 04:50 | -19.38197 | 7.99998 | 35010 ft | 502 kts | 189° |
| 2026-04-21 04:51 | -19.45190 | 7.99998 | 35009 ft | 502 kts | 189° |
| 2026-04-21 04:51 | -19.52181 | 7.99999 | 35015 ft | 502 kts | 189° |
| 2026-04-21 04:52 | -19.59171 | 7.99999 | 35016 ft | 502 kts | 189° |
| 2026-04-21 04:52 | -19.66164 | 8.00000 | 35020 ft | 503 kts | 189° |
| 2026-04-21 04:53 | -19.73214 | 7.99998 | 35015 ft | 504 kts | 189° |
| 2026-04-21 04:53 | -19.80221 | 7.99999 | 35016 ft | 504 kts | 189° |
| 2026-04-21 04:54 | -19.87233 | 7.99999 | 35014 ft | 504 kts | 189° |
| 2026-04-21 04:54 | -19.94241 | 8.00000 | 35022 ft | 503 kts | 189° |
| 2026-04-21 04:55 | -20.01244 | 8.00000 | 35020 ft | 503 kts | 190° |
| 2026-04-21 04:55 | -20.08203 | 8.00000 | 35023 ft | 503 kts | 190° |
| 2026-04-21 04:56 | -20.15211 | 8.00000 | 35023 ft | 503 kts | 190° |
| 2026-04-21 04:56 | -20.22214 | 8.00000 | 35023 ft | 503 kts | 190° |
| 2026-04-21 04:57 | -20.29220 | 8.00000 | 35061 ft | 503 kts | 190° |
| 2026-04-21 04:57 | -20.36219 | 8.00000 | 35030 ft | 503 kts | 190° |
| 2026-04-21 04:58 | -20.43210 | 8.00000 | 35030 ft | 502 kts | 190° |
| 2026-04-21 04:58 | -20.50201 | 7.99999 | 35030 ft | 502 kts | 190° |
| 2026-04-21 04:59 | -20.57194 | 7.99999 | 35028 ft | 502 kts | 190° |
| 2026-04-21 04:59 | -20.64184 | 7.99999 | 35048 ft | 503 kts | 190° |
| 2026-04-21 05:00 | -20.71197 | 7.99998 | 35042 ft | 504 kts | 190° |
| 2026-04-21 05:00 | -20.81722 | 7.99997 | 35042 ft | 504 kts | 190° |
| 2026-04-21 05:01 | -20.88734 | 7.99999 | 35042 ft | 504 kts | 190° |
| 2026-04-21 05:01 | -20.95754 | 7.99999 | 35075 ft | 504 kts | 189° |
| 2026-04-21 05:02 | -21.02759 | 8.00000 | 35045 ft | 503 kts | 189° |
| 2026-04-21 05:02 | -21.09767 | 8.00000 | 35045 ft | 503 kts | 189° |
| 2026-04-21 05:03 | -21.16768 | 8.00000 | 35045 ft | 503 kts | 189° |
| 2026-04-21 05:03 | -21.23774 | 8.00000 | 35048 ft | 503 kts | 189° |
| 2026-04-21 05:04 | -21.30776 | 7.99999 | 35059 ft | 503 kts | 189° |
| 2026-04-21 05:04 | -21.37779 | 7.99999 | 35052 ft | 503 kts | 189° |
| 2026-04-21 05:05 | -21.44780 | 7.99999 | 35057 ft | 503 kts | 189° |
| 2026-04-21 05:05 | -21.51781 | 8.00000 | 35058 ft | 503 kts | 189° |
| 2026-04-21 05:06 | -21.58781 | 8.00000 | 35056 ft | 503 kts | 189° |
| 2026-04-21 05:06 | -21.65783 | 7.99999 | 35059 ft | 503 kts | 189° |
| 2026-04-21 05:07 | -21.72776 | 7.99999 | 35053 ft | 503 kts | 189° |
| 2026-04-21 05:07 | -21.79773 | 7.99999 | 35055 ft | 503 kts | 189° |
| 2026-04-21 05:08 | -21.85586 | 7.99999 | 35051 ft | 503 kts | 189° |
| 2026-04-21 05:08 | -21.93716 | 7.99999 | 35056 ft | 503 kts | 189° |
| 2026-04-21 05:09 | -22.00706 | 7.99999 | 35060 ft | 503 kts | 189° |
| 2026-04-21 05:09 | -22.06567 | 8.00000 | 35061 ft | 503 kts | 189° |
| 2026-04-21 05:10 | -22.13515 | 7.99999 | 35057 ft | 503 kts | 189° |
| 2026-04-21 05:10 | -22.20554 | 7.99999 | 35063 ft | 503 kts | 189° |
| 2026-04-21 05:11 | -22.27500 | 7.99999 | 35091 ft | 503 kts | 189° |
| 2026-04-21 05:11 | -22.34500 | 7.99999 | 35064 ft | 503 kts | 189° |
| 2026-04-21 05:12 | -22.41498 | 7.99999 | 35067 ft | 503 kts | 189° |
| 2026-04-21 05:12 | -22.48501 | 7.99999 | 35068 ft | 503 kts | 189° |
| 2026-04-21 05:13 | -22.55506 | 7.99999 | 35066 ft | 503 kts | 189° |
| 2026-04-21 05:13 | -22.62508 | 7.99999 | 35067 ft | 503 kts | 188° |
| 2026-04-21 05:14 | -22.69513 | 7.99999 | 35074 ft | 503 kts | 188° |
| 2026-04-21 05:14 | -22.76518 | 7.99999 | 35070 ft | 503 kts | 188° |
| 2026-04-21 05:15 | -22.83522 | 7.99999 | 35077 ft | 503 kts | 188° |
| 2026-04-21 05:15 | -22.90532 | 7.99999 | 35107 ft | 503 kts | 188° |
| 2026-04-21 05:16 | -22.97538 | 7.99999 | 35078 ft | 503 kts | 188° |
| 2026-04-21 05:16 | -23.04543 | 7.99999 | 35080 ft | 503 kts | 188° |
| 2026-04-21 05:17 | -23.11545 | 8.00000 | 35079 ft | 503 kts | 188° |
| 2026-04-21 05:17 | -23.18552 | 8.00000 | 35084 ft | 503 kts | 188° |
| 2026-04-21 05:18 | -23.25557 | 8.00000 | 35095 ft | 504 kts | 188° |
| 2026-04-21 05:18 | -23.32571 | 7.99999 | 35088 ft | 504 kts | 188° |
| 2026-04-21 05:19 | -23.39589 | 7.99999 | 35089 ft | 504 kts | 188° |
| 2026-04-21 05:19 | -23.46610 | 8.00000 | 35091 ft | 504 kts | 188° |
| 2026-04-21 05:20 | -23.53581 | 8.00000 | 35091 ft | 504 kts | 188° |
| 2026-04-21 05:20 | -23.60646 | 8.00000 | 35099 ft | 505 kts | 188° |
| 2026-04-21 05:21 | -23.67672 | 8.00000 | 35095 ft | 505 kts | 188° |
| 2026-04-21 05:21 | -23.74696 | 8.00000 | 35096 ft | 505 kts | 188° |
| 2026-04-21 05:22 | -23.81717 | 8.00000 | 35099 ft | 505 kts | 188° |
| 2026-04-21 05:22 | -23.88743 | 8.00000 | 35105 ft | 505 kts | 188° |
| 2026-04-21 05:23 | -23.95764 | 8.00001 | 35101 ft | 504 kts | 188° |
| 2026-04-21 05:23 | -24.02779 | 8.00001 | 35102 ft | 504 kts | 188° |
| 2026-04-21 05:24 | -24.09797 | 8.00000 | 35108 ft | 504 kts | 188° |
| 2026-04-21 05:24 | -24.16813 | 8.00000 | 35108 ft | 504 kts | 188° |
| 2026-04-21 05:25 | -24.23823 | 8.00000 | 35113 ft | 503 kts | 188° |
| 2026-04-21 05:25 | -24.30831 | 8.00000 | 35113 ft | 503 kts | 188° |
| 2026-04-21 05:26 | -24.37836 | 8.00000 | 35113 ft | 503 kts | 188° |
| 2026-04-21 05:26 | -24.44840 | 8.00000 | 35116 ft | 503 kts | 188° |
| 2026-04-21 05:27 | -24.51843 | 8.00000 | 35128 ft | 503 kts | 188° |
| 2026-04-21 05:27 | -24.58840 | 8.00000 | 35119 ft | 503 kts | 188° |
| 2026-04-21 05:28 | -24.65833 | 8.00000 | 35119 ft | 503 kts | 188° |
| 2026-04-21 05:28 | -24.72781 | 8.00000 | 35121 ft | 503 kts | 188° |
| 2026-04-21 05:29 | -24.79777 | 8.00000 | 35119 ft | 503 kts | 188° |
| 2026-04-21 05:29 | -24.86762 | 8.00000 | 35128 ft | 501 kts | 187° |
| 2026-04-21 05:30 | -24.93733 | 8.00001 | 35122 ft | 501 kts | 187° |
| 2026-04-21 05:30 | -25.00703 | 8.00000 | 35124 ft | 501 kts | 187° |
| 2026-04-21 05:31 | -25.07670 | 8.00000 | 35123 ft | 501 kts | 187° |
| 2026-04-21 05:31 | -25.14642 | 8.00000 | 35122 ft | 501 kts | 187° |
| 2026-04-21 05:32 | -25.21610 | 8.00000 | 35126 ft | 501 kts | 187° |
| 2026-04-21 05:32 | -25.28579 | 8.00000 | 35126 ft | 501 kts | 187° |
| 2026-04-21 05:33 | -25.35548 | 8.00000 | 35132 ft | 501 kts | 187° |
| 2026-04-21 05:33 | -25.42517 | 8.00000 | 35161 ft | 501 kts | 187° |
| 2026-04-21 05:34 | -25.49477 | 8.00000 | 35131 ft | 499 kts | 187° |
| 2026-04-21 05:34 | -25.56427 | 8.00001 | 35135 ft | 499 kts | 187° |
| 2026-04-21 05:35 | -25.63367 | 8.00000 | 35132 ft | 499 kts | 187° |
| 2026-04-21 05:35 | -25.70319 | 8.00000 | 35135 ft | 499 kts | 187° |
| 2026-04-21 05:36 | -25.77260 | 7.99999 | 35138 ft | 498 kts | 187° |
| 2026-04-21 05:36 | -25.84183 | 8.00001 | 35137 ft | 497 kts | 187° |
| 2026-04-21 05:37 | -25.91093 | 8.00000 | 35134 ft | 497 kts | 187° |
| 2026-04-21 05:37 | -25.98014 | 8.00000 | 35142 ft | 497 kts | 187° |
| 2026-04-21 05:38 | -26.04935 | 7.99999 | 35163 ft | 497 kts | 186° |
| 2026-04-21 05:38 | -26.11835 | 8.00000 | 35143 ft | 495 kts | 186° |
| 2026-04-21 05:39 | -26.18724 | 8.00000 | 35146 ft | 495 kts | 186° |
| 2026-04-21 05:39 | -26.25618 | 7.99999 | 35148 ft | 495 kts | 186° |
| 2026-04-21 05:40 | -26.32511 | 7.99999 | 35149 ft | 495 kts | 186° |
| 2026-04-21 05:40 | -26.39347 | 7.99999 | 35150 ft | 493 kts | 185° |
| 2026-04-21 05:41 | -26.46205 | 8.00000 | 35148 ft | 492 kts | 185° |
| 2026-04-21 05:41 | -26.53051 | 8.00000 | 35150 ft | 492 kts | 185° |
| 2026-04-21 05:42 | -26.59894 | 7.99999 | 35152 ft | 492 kts | 185° |
| 2026-04-21 05:42 | -26.66751 | 7.99999 | 35164 ft | 492 kts | 185° |
| 2026-04-21 05:43 | -26.73572 | 8.00000 | 35154 ft | 490 kts | 185° |
| 2026-04-21 05:43 | -26.80391 | 8.00000 | 35155 ft | 490 kts | 185° |
| 2026-04-21 05:44 | -26.87200 | 7.99999 | 35154 ft | 490 kts | 185° |
| 2026-04-21 05:44 | -26.94020 | 7.99999 | 35154 ft | 490 kts | 185° |
| 2026-04-21 05:45 | -27.00824 | 7.99999 | 35162 ft | 488 kts | 185° |
| 2026-04-21 05:45 | -27.07618 | 8.00000 | 35157 ft | 488 kts | 185° |
| 2026-04-21 05:46 | -27.14412 | 8.00000 | 35161 ft | 488 kts | 185° |
| 2026-04-21 05:46 | -27.21201 | 7.99999 | 35161 ft | 488 kts | 185° |
| 2026-04-21 05:47 | -27.27990 | 7.99999 | 35167 ft | 487 kts | 185° |
| 2026-04-21 05:47 | -27.34765 | 8.00000 | 35163 ft | 486 kts | 185° |
| 2026-04-21 05:48 | -27.41531 | 8.00000 | 35165 ft | 486 kts | 185° |
| 2026-04-21 05:48 | -27.48297 | 7.99999 | 35166 ft | 486 kts | 185° |
| 2026-04-21 05:49 | -27.55067 | 7.99999 | 35184 ft | 486 kts | 184° |
| 2026-04-21 05:49 | -27.61824 | 7.99999 | 35166 ft | 485 kts | 184° |
| 2026-04-21 05:50 | -27.68562 | 7.99999 | 35168 ft | 484 kts | 184° |
| 2026-04-21 05:50 | -27.75308 | 7.99999 | 35170 ft | 484 kts | 184° |
| 2026-04-21 05:51 | -27.82044 | 7.99999 | 35170 ft | 484 kts | 184° |
| 2026-04-21 05:51 | -27.88784 | 7.99998 | 35171 ft | 483 kts | 184° |
| 2026-04-21 05:52 | -27.95503 | 7.99999 | 35169 ft | 483 kts | 184° |
| 2026-04-21 05:52 | -28.02216 | 7.99999 | 35171 ft | 483 kts | 184° |
| 2026-04-21 05:53 | -28.08928 | 7.99999 | 35173 ft | 482 kts | 184° |
| 2026-04-21 05:53 | -28.14509 | 7.99999 | 35173 ft | 482 kts | 184° |
| 2026-04-21 05:54 | -28.22310 | 7.99999 | 35176 ft | 482 kts | 184° |
| 2026-04-21 05:54 | -28.29023 | 7.99999 | 35176 ft | 482 kts | 184° |
| 2026-04-21 05:55 | -28.34649 | 7.99999 | 35176 ft | 482 kts | 184° |
| 2026-04-21 05:55 | -28.41366 | 7.99999 | 35176 ft | 483 kts | 184° |
| 2026-04-21 05:56 | -28.48073 | 7.99998 | 35176 ft | 481 kts | 183° |
| 2026-04-21 05:56 | -28.54761 | 8.00000 | 35179 ft | 480 kts | 183° |
| 2026-04-21 05:57 | -28.61444 | 8.00000 | 35178 ft | 480 kts | 183° |
| 2026-04-21 05:57 | -28.68129 | 8.00000 | 35179 ft | 480 kts | 183° |
| 2026-04-21 05:58 | -28.74765 | 7.99999 | 35180 ft | 480 kts | 183° |
| 2026-04-21 05:58 | -28.81427 | 8.00000 | 35179 ft | 478 kts | 183° |
| 2026-04-21 05:59 | -28.88086 | 8.00000 | 35178 ft | 478 kts | 183° |
| 2026-04-21 06:00 | -28.98111 | 8.00000 | 35182 ft | 478 kts | 183° |
| 2026-04-21 06:00 | -29.04715 | 7.99998 | 35187 ft | 477 kts | 182° |
| 2026-04-21 06:01 | -29.11340 | 8.00000 | 35189 ft | 476 kts | 182° |
| 2026-04-21 06:01 | -29.17957 | 8.00000 | 35184 ft | 476 kts | 182° |
| 2026-04-21 06:02 | -29.24576 | 8.00000 | 35183 ft | 476 kts | 182° |
| 2026-04-21 06:02 | -29.31197 | 7.99999 | 35194 ft | 475 kts | 182° |
| 2026-04-21 06:03 | -29.37791 | 7.99999 | 35185 ft | 473 kts | 182° |
| 2026-04-21 06:03 | -29.44383 | 8.00000 | 35184 ft | 473 kts | 182° |
| 2026-04-21 06:04 | -29.50970 | 7.99999 | 35183 ft | 473 kts | 182° |
| 2026-04-21 06:04 | -29.57554 | 7.99999 | 35184 ft | 473 kts | 182° |
| 2026-04-21 06:05 | -29.64133 | 7.99999 | 35184 ft | 472 kts | 182° |
| 2026-04-21 06:05 | -29.70705 | 7.99999 | 35184 ft | 472 kts | 182° |
| 2026-04-21 06:06 | -29.77269 | 7.99999 | 35182 ft | 472 kts | 182° |
| 2026-04-21 06:06 | -29.83794 | 7.99999 | 35183 ft | 472 kts | 182° |
| 2026-04-21 06:07 | -29.90358 | 7.99999 | 35183 ft | 471 kts | 182° |
| 2026-04-21 06:07 | -29.96911 | 7.99999 | 35181 ft | 471 kts | 182° |
| 2026-04-21 06:08 | -30.03460 | 8.00000 | 35182 ft | 471 kts | 182° |
| 2026-04-21 06:08 | -30.10009 | 7.99999 | 35181 ft | 471 kts | 182° |
| 2026-04-21 06:09 | -30.16559 | 7.99999 | 35194 ft | 471 kts | 182° |
| 2026-04-21 06:09 | -30.23095 | 7.99999 | 35184 ft | 469 kts | 182° |
| 2026-04-21 06:10 | -30.29619 | 7.99999 | 35184 ft | 469 kts | 182° |
| 2026-04-21 06:10 | -30.36152 | 7.99999 | 35186 ft | 469 kts | 182° |
| 2026-04-21 06:11 | -30.42680 | 7.99999 | 35183 ft | 469 kts | 182° |
| 2026-04-21 06:11 | -30.49202 | 7.99999 | 35184 ft | 468 kts | 182° |
| 2026-04-21 06:12 | -30.55722 | 7.99999 | 35184 ft | 468 kts | 182° |
| 2026-04-21 06:12 | -30.62193 | 7.99999 | 35184 ft | 468 kts | 182° |
| 2026-04-21 06:13 | -30.68747 | 7.99999 | 35184 ft | 468 kts | 182° |
| 2026-04-21 06:13 | -30.75261 | 7.99999 | 35184 ft | 468 kts | 182° |
| 2026-04-21 06:14 | -30.81722 | 8.00000 | 35189 ft | 467 kts | 181° |
| 2026-04-21 06:14 | -30.88232 | 7.99999 | 35184 ft | 467 kts | 182° |
| 2026-04-21 06:15 | -30.94732 | 7.99999 | 35188 ft | 467 kts | 182° |
| 2026-04-21 06:15 | -31.01235 | 7.99999 | 35187 ft | 467 kts | 182° |
| 2026-04-21 06:16 | -31.07744 | 7.99999 | 35191 ft | 467 kts | 182° |
| 2026-04-21 06:16 | -31.14249 | 7.99999 | 35188 ft | 467 kts | 182° |
| 2026-04-21 06:17 | -31.20754 | 7.99999 | 35185 ft | 467 kts | 181° |
| 2026-04-21 06:17 | -31.27257 | 7.99999 | 35190 ft | 467 kts | 182° |
| 2026-04-21 06:18 | -31.33763 | 8.00000 | 35192 ft | 467 kts | 182° |
| 2026-04-21 06:18 | -31.40265 | 7.99999 | 35190 ft | 467 kts | 182° |
| 2026-04-21 06:19 | -31.46768 | 7.99999 | 35186 ft | 467 kts | 182° |
| 2026-04-21 06:19 | -31.53266 | 7.99999 | 35187 ft | 467 kts | 182° |
| 2026-04-21 06:20 | -31.59767 | 8.00000 | 35188 ft | 467 kts | 182° |
| 2026-04-21 06:20 | -31.66261 | 8.00000 | 35191 ft | 467 kts | 182° |
| 2026-04-21 06:21 | -31.72753 | 8.00000 | 35189 ft | 467 kts | 182° |
| 2026-04-21 06:21 | -31.79249 | 7.99999 | 35188 ft | 467 kts | 182° |
| 2026-04-21 06:22 | -31.85749 | 8.00000 | 35191 ft | 466 kts | 182° |
| 2026-04-21 06:22 | -31.92189 | 8.00000 | 35190 ft | 466 kts | 182° |
| 2026-04-21 06:23 | -31.98679 | 8.00000 | 35188 ft | 466 kts | 182° |
| 2026-04-21 06:23 | -32.05168 | 7.99999 | 35190 ft | 466 kts | 182° |
| 2026-04-21 06:24 | -32.11651 | 8.00000 | 35195 ft | 466 kts | 182° |
| 2026-04-21 06:24 | -32.18135 | 8.00000 | 35191 ft | 466 kts | 182° |
| 2026-04-21 06:25 | -32.24612 | 8.00000 | 35187 ft | 465 kts | 182° |
| 2026-04-21 06:25 | -32.31086 | 8.00000 | 35190 ft | 465 kts | 182° |
| 2026-04-21 06:26 | -32.37566 | 8.00000 | 35187 ft | 465 kts | 182° |
| 2026-04-21 06:26 | -32.44041 | 8.00000 | 35188 ft | 465 kts | 182° |
| 2026-04-21 06:27 | -32.50510 | 8.00000 | 35195 ft | 465 kts | 182° |
| 2026-04-21 06:27 | -32.56974 | 8.00000 | 35185 ft | 465 kts | 182° |
| 2026-04-21 06:28 | -32.63447 | 8.00000 | 35186 ft | 465 kts | 182° |
| 2026-04-21 06:28 | -32.69865 | 8.00000 | 35188 ft | 464 kts | 182° |
| 2026-04-21 06:29 | -32.76322 | 8.00000 | 35193 ft | 464 kts | 182° |
| 2026-04-21 06:29 | -32.82776 | 8.00000 | 35186 ft | 464 kts | 182° |
| 2026-04-21 06:30 | -32.89231 | 8.00000 | 35192 ft | 464 kts | 182° |
| 2026-04-21 06:30 | -32.95674 | 8.00000 | 35192 ft | 463 kts | 182° |
| 2026-04-21 06:31 | -33.02111 | 8.00000 | 35194 ft | 462 kts | 182° |
| 2026-04-21 06:31 | -33.08541 | 8.00000 | 35196 ft | 462 kts | 182° |
| 2026-04-21 06:32 | -33.14970 | 8.00000 | 35192 ft | 462 kts | 182° |
| 2026-04-21 06:32 | -33.21398 | 8.00000 | 35193 ft | 461 kts | 182° |
| 2026-04-21 06:33 | -33.27805 | 8.00000 | 35193 ft | 460 kts | 182° |
| 2026-04-21 06:33 | -33.34215 | 8.00000 | 35194 ft | 460 kts | 182° |
| 2026-04-21 06:34 | -33.40622 | 8.00000 | 35195 ft | 460 kts | 182° |
| 2026-04-21 06:34 | -33.47023 | 8.00000 | 35195 ft | 459 kts | 182° |
| 2026-04-21 06:35 | -33.53400 | 8.00000 | 35196 ft | 458 kts | 182° |
| 2026-04-21 06:35 | -33.59767 | 8.00000 | 35196 ft | 457 kts | 182° |
| 2026-04-21 06:36 | -33.66132 | 8.00000 | 35196 ft | 457 kts | 182° |
| 2026-04-21 06:36 | -33.72498 | 8.00000 | 35197 ft | 457 kts | 182° |
| 2026-04-21 06:37 | -33.78862 | 8.00000 | 35202 ft | 457 kts | 182° |
| 2026-04-21 06:37 | -33.85227 | 8.00000 | 35200 ft | 457 kts | 182° |
| 2026-04-21 06:38 | -33.91553 | 8.00000 | 35195 ft | 457 kts | 182° |
| 2026-04-21 06:38 | -33.97916 | 8.00000 | 35205 ft | 457 kts | 182° |
| 2026-04-21 06:39 | -34.04258 | 8.00000 | 35201 ft | 455 kts | 182° |
| 2026-04-21 06:39 | -34.10596 | 8.00000 | 35206 ft | 455 kts | 182° |
| 2026-04-21 06:40 | -34.16929 | 8.00000 | 35205 ft | 455 kts | 182° |
| 2026-04-21 06:40 | -34.23264 | 8.00000 | 35218 ft | 455 kts | 182° |
| 2026-04-21 06:41 | -34.29570 | 8.00001 | 35205 ft | 452 kts | 182° |
| 2026-04-21 06:41 | -34.35859 | 8.00001 | 35214 ft | 452 kts | 182° |
| 2026-04-21 06:42 | -34.42139 | 8.00000 | 35212 ft | 452 kts | 182° |
| 2026-04-21 06:42 | -34.48423 | 8.00000 | 35223 ft | 451 kts | 182° |
| 2026-04-21 06:43 | -34.54690 | 8.00000 | 35212 ft | 450 kts | 182° |
| 2026-04-21 06:43 | -34.60950 | 8.00000 | 35218 ft | 449 kts | 182° |
| 2026-04-21 06:44 | -34.66148 | 8.00000 | 35219 ft | 450 kts | 182° |
| 2026-04-21 06:44 | -34.72393 | 8.00000 | 35212 ft | 449 kts | 182° |
| 2026-04-21 06:45 | -34.78643 | 8.00001 | 35216 ft | 447 kts | 182° |
| 2026-04-21 06:45 | -34.84860 | 8.00001 | 35219 ft | 447 kts | 182° |
| 2026-04-21 06:46 | -34.91074 | 8.00000 | 35219 ft | 447 kts | 182° |
| 2026-04-21 06:46 | -34.97288 | 8.00000 | 35219 ft | 447 kts | 182° |
| 2026-04-21 06:47 | -35.03503 | 8.00000 | 35217 ft | 446 kts | 183° |
| 2026-04-21 06:47 | -35.09699 | 8.00001 | 35222 ft | 445 kts | 183° |
| 2026-04-21 06:48 | -35.15890 | 8.00000 | 35224 ft | 445 kts | 183° |
| 2026-04-21 06:48 | -35.22088 | 8.00000 | 35222 ft | 445 kts | 183° |
| 2026-04-21 06:49 | -35.28273 | 8.00001 | 35223 ft | 444 kts | 183° |
| 2026-04-21 06:49 | -35.34442 | 8.00001 | 35219 ft | 443 kts | 183° |
| 2026-04-21 06:50 | -35.40606 | 8.00000 | 35226 ft | 443 kts | 183° |
| 2026-04-21 06:50 | -35.46771 | 8.00000 | 35225 ft | 443 kts | 183° |
| 2026-04-21 06:51 | -35.52890 | 8.00000 | 35222 ft | 442 kts | 183° |
| 2026-04-21 06:51 | -35.59033 | 8.00001 | 35227 ft | 441 kts | 183° |
| 2026-04-21 06:52 | -35.65171 | 8.00000 | 35220 ft | 441 kts | 183° |
| 2026-04-21 06:52 | -35.71308 | 8.00000 | 35226 ft | 441 kts | 183° |
| 2026-04-21 06:53 | -35.77443 | 8.00000 | 35225 ft | 441 kts | 183° |
| 2026-04-21 06:53 | -35.83574 | 8.00001 | 35225 ft | 440 kts | 183° |
| 2026-04-21 06:54 | -35.89697 | 8.00000 | 35222 ft | 440 kts | 183° |
| 2026-04-21 06:54 | -35.95827 | 8.00000 | 35225 ft | 440 kts | 183° |
| 2026-04-21 06:55 | -36.01949 | 8.00001 | 35231 ft | 440 kts | 184° |
| 2026-04-21 06:55 | -36.08069 | 8.00001 | 35227 ft | 439 kts | 184° |
| 2026-04-21 06:56 | -36.14177 | 8.00000 | 35227 ft | 439 kts | 184° |
| 2026-04-21 06:56 | -36.20291 | 8.00000 | 35227 ft | 439 kts | 184° |
| 2026-04-21 06:57 | -36.26365 | 8.00000 | 35229 ft | 439 kts | 184° |
| 2026-04-21 06:57 | -36.32474 | 8.00000 | 35230 ft | 439 kts | 184° |
| 2026-04-21 06:58 | -36.38583 | 8.00000 | 35230 ft | 439 kts | 184° |
| 2026-04-21 06:58 | -36.44693 | 8.00000 | 35230 ft | 439 kts | 184° |
| 2026-04-21 06:59 | -36.50803 | 8.00000 | 35236 ft | 439 kts | 184° |
| 2026-04-21 06:59 | -36.56902 | 8.00000 | 35234 ft | 438 kts | 184° |
| 2026-04-21 07:00 | -36.63001 | 8.00000 | 35233 ft | 438 kts | 184° |
| 2026-04-21 07:00 | -36.69098 | 8.00002 | 35237 ft | 438 kts | 184° |
| 2026-04-21 07:01 | -36.75187 | 8.00001 | 35238 ft | 437 kts | 184° |
| 2026-04-21 07:01 | -36.84309 | 8.00001 | 35233 ft | 437 kts | 184° |
| 2026-04-21 07:02 | -36.90390 | 8.00000 | 35232 ft | 437 kts | 184° |
| 2026-04-21 07:02 | -36.96470 | 8.00000 | 35233 ft | 437 kts | 184° |
| 2026-04-21 07:03 | -37.02551 | 8.00000 | 35235 ft | 437 kts | 184° |
| 2026-04-21 07:03 | -37.08634 | 8.00000 | 35235 ft | 437 kts | 184° |
| 2026-04-21 07:04 | -37.14715 | 8.00000 | 35233 ft | 437 kts | 184° |
| 2026-04-21 07:04 | -37.20803 | 8.00000 | 35261 ft | 437 kts | 184° |
| 2026-04-21 07:05 | -37.26883 | 8.00000 | 35235 ft | 437 kts | 184° |
| 2026-04-21 07:05 | -37.32960 | 8.00000 | 35228 ft | 437 kts | 184° |
| 2026-04-21 07:06 | -37.39035 | 8.00000 | 35232 ft | 437 kts | 184° |
| 2026-04-21 07:06 | -37.45107 | 8.00000 | 35252 ft | 437 kts | 185° |
| 2026-04-21 07:07 | -37.51183 | 8.00000 | 35239 ft | 436 kts | 184° |
| 2026-04-21 07:07 | -37.57257 | 8.00000 | 35243 ft | 436 kts | 184° |
| 2026-04-21 07:08 | -37.63328 | 8.00000 | 35234 ft | 436 kts | 185° |
| 2026-04-21 07:08 | -37.69404 | 8.00000 | 35254 ft | 436 kts | 185° |
| 2026-04-21 07:09 | -37.75430 | 8.00000 | 35235 ft | 436 kts | 185° |
| 2026-04-21 07:09 | -37.81493 | 8.00000 | 35236 ft | 436 kts | 185° |
| 2026-04-21 07:10 | -37.87596 | 8.00000 | 35236 ft | 436 kts | 185° |
| 2026-04-21 07:10 | -37.93659 | 8.00000 | 35247 ft | 436 kts | 185° |
| 2026-04-21 07:11 | -37.99674 | 8.00001 | 35238 ft | 435 kts | 185° |
| 2026-04-21 07:11 | -38.05718 | 8.00001 | 35237 ft | 434 kts | 185° |
| 2026-04-21 07:12 | -38.11767 | 8.00000 | 35233 ft | 434 kts | 185° |
| 2026-04-21 07:12 | -38.17812 | 8.00000 | 35232 ft | 434 kts | 185° |
| 2026-04-21 07:13 | -38.23837 | 8.00001 | 35229 ft | 433 kts | 185° |
| 2026-04-21 07:13 | -38.29865 | 8.00000 | 35228 ft | 433 kts | 185° |
| 2026-04-21 07:14 | -38.35889 | 8.00000 | 35234 ft | 433 kts | 185° |
| 2026-04-21 07:14 | -38.41908 | 8.00000 | 35238 ft | 432 kts | 185° |
| 2026-04-21 07:15 | -38.47909 | 8.00001 | 35231 ft | 430 kts | 185° |
| 2026-04-21 07:15 | -38.53856 | 8.00001 | 35231 ft | 430 kts | 185° |
| 2026-04-21 07:16 | -38.59843 | 8.00000 | 35238 ft | 430 kts | 185° |
| 2026-04-21 07:16 | -38.65834 | 8.00000 | 35235 ft | 430 kts | 185° |
| 2026-04-21 07:17 | -38.71822 | 8.00000 | 35234 ft | 430 kts | 185° |
| 2026-04-21 07:17 | -38.77813 | 8.00000 | 35235 ft | 430 kts | 185° |
| 2026-04-21 07:18 | -38.83802 | 8.00000 | 35234 ft | 430 kts | 185° |
| 2026-04-21 07:18 | -38.89787 | 8.00000 | 35233 ft | 429 kts | 185° |
| 2026-04-21 07:19 | -38.95747 | 8.00001 | 35231 ft | 428 kts | 185° |
| 2026-04-21 07:19 | -39.01707 | 8.00000 | 35229 ft | 428 kts | 185° |
| 2026-04-21 07:20 | -39.07664 | 8.00000 | 35231 ft | 428 kts | 185° |
| 2026-04-21 07:20 | -39.13610 | 8.00001 | 35230 ft | 426 kts | 185° |
| 2026-04-21 07:21 | -39.19534 | 8.00001 | 35230 ft | 425 kts | 185° |
| 2026-04-21 07:21 | -39.25453 | 8.00001 | 35230 ft | 425 kts | 185° |
| 2026-04-21 07:22 | -39.31375 | 8.00000 | 35247 ft | 425 kts | 185° |
| 2026-04-21 07:22 | -39.37276 | 8.00001 | 35227 ft | 423 kts | 185° |
| 2026-04-21 07:23 | -39.43163 | 8.00001 | 35230 ft | 423 kts | 185° |
| 2026-04-21 07:23 | -39.49046 | 8.00000 | 35229 ft | 423 kts | 185° |
| 2026-04-21 07:24 | -39.54929 | 8.00000 | 35239 ft | 423 kts | 185° |
| 2026-04-21 07:24 | -39.60760 | 8.00001 | 35227 ft | 421 kts | 185° |
| 2026-04-21 07:25 | -39.66615 | 8.00001 | 35224 ft | 421 kts | 185° |
| 2026-04-21 07:25 | -39.72467 | 8.00000 | 35230 ft | 421 kts | 185° |
| 2026-04-21 07:26 | -39.78324 | 8.00000 | 35227 ft | 420 kts | 185° |
| 2026-04-21 07:26 | -39.84153 | 8.00002 | 35230 ft | 418 kts | 185° |
| 2026-04-21 07:27 | -39.89976 | 8.00001 | 35234 ft | 418 kts | 185° |
| 2026-04-21 07:27 | -39.95797 | 8.00000 | 35233 ft | 418 kts | 185° |
| 2026-04-21 07:28 | -40.01615 | 8.00001 | 35227 ft | 417 kts | 185° |
| 2026-04-21 07:28 | -40.07415 | 8.00001 | 35227 ft | 416 kts | 185° |
| 2026-04-21 07:29 | -40.13210 | 8.00001 | 35225 ft | 416 kts | 185° |
| 2026-04-21 07:29 | -40.19001 | 8.00000 | 35225 ft | 416 kts | 185° |
| 2026-04-21 07:30 | -40.24792 | 8.00001 | 35224 ft | 415 kts | 186° |
| 2026-04-21 07:30 | -40.30555 | 8.00001 | 35225 ft | 414 kts | 186° |
| 2026-04-21 07:31 | -40.36324 | 8.00001 | 35221 ft | 414 kts | 186° |
| 2026-04-21 07:31 | -40.42084 | 8.00000 | 35245 ft | 414 kts | 186° |
| 2026-04-21 07:32 | -40.46876 | 8.00001 | 35222 ft | 413 kts | 186° |
| 2026-04-21 07:32 | -40.52657 | 8.00001 | 35222 ft | 413 kts | 186° |
| 2026-04-21 07:33 | -40.58360 | 8.00001 | 35222 ft | 413 kts | 186° |
| 2026-04-21 07:33 | -40.64105 | 8.00000 | 35232 ft | 413 kts | 186° |
| 2026-04-21 07:34 | -40.69848 | 8.00001 | 35218 ft | 412 kts | 186° |
| 2026-04-21 07:34 | -40.75577 | 8.00001 | 35219 ft | 412 kts | 186° |
| 2026-04-21 07:35 | -40.81308 | 8.00001 | 35221 ft | 412 kts | 186° |
| 2026-04-21 07:35 | -40.87035 | 8.00000 | 35223 ft | 412 kts | 186° |
| 2026-04-21 07:36 | -40.92766 | 8.00000 | 35217 ft | 412 kts | 186° |
| 2026-04-21 07:36 | -40.98499 | 8.00000 | 35217 ft | 412 kts | 186° |
| 2026-04-21 07:37 | -41.04228 | 8.00000 | 35219 ft | 412 kts | 186° |
| 2026-04-21 07:37 | -41.09955 | 8.00000 | 35209 ft | 411 kts | 186° |
| 2026-04-21 07:38 | -41.15676 | 8.00001 | 35213 ft | 411 kts | 186° |
| 2026-04-21 07:38 | -41.21387 | 8.00001 | 35219 ft | 410 kts | 186° |
| 2026-04-21 07:39 | -41.27096 | 8.00000 | 35216 ft | 411 kts | 186° |
| 2026-04-21 07:39 | -41.32811 | 8.00000 | 35219 ft | 410 kts | 186° |
| 2026-04-21 07:40 | -41.38522 | 8.00001 | 35212 ft | 410 kts | 186° |
| 2026-04-21 07:40 | -41.44225 | 8.00000 | 35214 ft | 410 kts | 186° |
| 2026-04-21 07:41 | -41.49935 | 8.00000 | 35250 ft | 410 kts | 186° |
| 2026-04-21 07:41 | -41.55634 | 8.00001 | 35214 ft | 409 kts | 186° |
| 2026-04-21 07:42 | -41.61282 | 8.00001 | 35213 ft | 409 kts | 186° |
| 2026-04-21 07:42 | -41.66971 | 8.00000 | 35215 ft | 409 kts | 186° |
| 2026-04-21 07:43 | -41.72664 | 8.00000 | 35217 ft | 409 kts | 186° |
| 2026-04-21 07:43 | -41.78351 | 8.00001 | 35211 ft | 408 kts | 186° |
| 2026-04-21 07:44 | -41.84032 | 8.00000 | 35211 ft | 408 kts | 186° |
| 2026-04-21 07:44 | -41.89721 | 8.00000 | 35211 ft | 408 kts | 186° |
| 2026-04-21 07:45 | -41.95403 | 8.00000 | 35209 ft | 408 kts | 186° |
| 2026-04-21 07:45 | -42.01083 | 8.00001 | 35205 ft | 408 kts | 186° |
| 2026-04-21 07:46 | -42.06762 | 8.00000 | 35206 ft | 408 kts | 186° |
| 2026-04-21 07:46 | -42.12445 | 8.00000 | 35206 ft | 408 kts | 186° |
| 2026-04-21 07:47 | -42.18128 | 8.00001 | 35204 ft | 408 kts | 186° |
| 2026-04-21 07:47 | -42.23804 | 8.00001 | 35203 ft | 408 kts | 186° |
| 2026-04-21 07:48 | -42.29479 | 8.00001 | 35203 ft | 408 kts | 186° |
| 2026-04-21 07:48 | -42.35159 | 8.00000 | 35206 ft | 408 kts | 186° |
| 2026-04-21 07:49 | -42.40830 | 8.00001 | 35203 ft | 408 kts | 186° |
| 2026-04-21 07:49 | -42.46509 | 8.00000 | 35202 ft | 408 kts | 186° |
| 2026-04-21 07:50 | -42.52184 | 8.00000 | 35201 ft | 408 kts | 186° |
| 2026-04-21 07:50 | -42.57864 | 8.00000 | 35198 ft | 408 kts | 186° |
| 2026-04-21 07:51 | -42.63498 | 8.00001 | 35203 ft | 408 kts | 186° |
| 2026-04-21 07:51 | -42.69174 | 8.00001 | 35201 ft | 408 kts | 186° |
| 2026-04-21 07:52 | -42.74847 | 8.00001 | 35212 ft | 408 kts | 186° |
| 2026-04-21 07:52 | -42.80522 | 8.00001 | 35198 ft | 407 kts | 186° |
| 2026-04-21 07:53 | -42.86188 | 8.00009 | 35198 ft | 407 kts | 185° |
| 2026-04-21 07:53 | -42.91853 | 8.00017 | 35197 ft | 407 kts | 185° |
| 2026-04-21 07:54 | -42.97522 | 8.00019 | 35193 ft | 407 kts | 186° |
| 2026-04-21 07:54 | -43.03189 | 8.00020 | 35194 ft | 407 kts | 186° |
| 2026-04-21 07:55 | -43.08859 | 8.00020 | 35191 ft | 407 kts | 186° |
| 2026-04-21 07:55 | -43.14527 | 8.00020 | 35192 ft | 407 kts | 186° |
| 2026-04-21 07:56 | -43.20194 | 8.00020 | 35193 ft | 407 kts | 185° |
| 2026-04-21 07:56 | -43.25811 | 8.00021 | 35192 ft | 406 kts | 185° |
| 2026-04-21 07:57 | -43.31461 | 8.00020 | 35189 ft | 406 kts | 185° |
| 2026-04-21 07:57 | -43.37125 | 8.00020 | 35197 ft | 406 kts | 185° |
| 2026-04-21 07:58 | -43.42767 | 8.00021 | 35194 ft | 405 kts | 185° |
| 2026-04-21 07:58 | -43.48401 | 8.00021 | 35185 ft | 405 kts | 185° |
| 2026-04-21 07:59 | -43.54034 | 8.00020 | 35190 ft | 405 kts | 185° |
| 2026-04-21 07:59 | -43.59672 | 8.00020 | 35189 ft | 405 kts | 185° |
| 2026-04-21 08:00 | -43.65297 | 8.00019 | 35193 ft | 404 kts | 185° |
| 2026-04-21 08:00 | -43.70926 | 8.00020 | 35183 ft | 404 kts | 185° |
| 2026-04-21 08:01 | -43.76556 | 8.00020 | 35189 ft | 404 kts | 185° |
| 2026-04-21 08:02 | -43.84992 | 8.00020 | 35190 ft | 404 kts | 185° |
| 2026-04-21 08:02 | -43.90618 | 8.00020 | 35176 ft | 404 kts | 185° |
| 2026-04-21 08:03 | -43.96246 | 8.00020 | 35188 ft | 404 kts | 185° |
| 2026-04-21 08:03 | -44.01861 | 8.00022 | 35183 ft | 403 kts | 185° |
| 2026-04-21 08:04 | -44.07470 | 8.00022 | 35181 ft | 403 kts | 185° |
| 2026-04-21 08:04 | -44.13083 | 8.00022 | 35181 ft | 403 kts | 185° |
| 2026-04-21 08:05 | -44.18692 | 8.00021 | 35178 ft | 403 kts | 185° |
| 2026-04-21 08:05 | -44.24266 | 8.00021 | 35178 ft | 403 kts | 185° |
| 2026-04-21 08:06 | -44.29881 | 8.00021 | 35175 ft | 403 kts | 185° |
| 2026-04-21 08:06 | -44.35493 | 8.00021 | 35180 ft | 403 kts | 185° |
| 2026-04-21 08:07 | -44.41101 | 8.00021 | 35176 ft | 403 kts | 185° |
| 2026-04-21 08:07 | -44.46712 | 8.00020 | 35173 ft | 403 kts | 185° |
| 2026-04-21 08:08 | -44.52319 | 8.00020 | 35170 ft | 403 kts | 185° |
| 2026-04-21 08:08 | -44.57933 | 8.00020 | 35170 ft | 403 kts | 185° |
| 2026-04-21 08:09 | -44.63541 | 8.00020 | 35170 ft | 403 kts | 185° |
| 2026-04-21 08:09 | -44.69150 | 8.00020 | 35170 ft | 403 kts | 185° |
| 2026-04-21 08:10 | -44.74765 | 8.00020 | 35173 ft | 403 kts | 185° |
| 2026-04-21 08:10 | -44.80370 | 8.00020 | 35167 ft | 403 kts | 185° |
| 2026-04-21 08:11 | -44.85981 | 8.00020 | 35162 ft | 404 kts | 185° |
| 2026-04-21 08:11 | -44.91614 | 8.00019 | 35165 ft | 405 kts | 185° |
| 2026-04-21 08:12 | -44.97257 | 8.00019 | 35161 ft | 406 kts | 185° |
| 2026-04-21 08:12 | -45.02865 | 8.00020 | 35159 ft | 406 kts | 185° |
| 2026-04-21 08:13 | -45.08506 | 8.00021 | 35158 ft | 406 kts | 185° |
| 2026-04-21 08:13 | -45.14153 | 8.00020 | 35166 ft | 405 kts | 185° |
| 2026-04-21 08:14 | -45.19786 | 8.00021 | 35163 ft | 405 kts | 185° |
| 2026-04-21 08:14 | -45.25418 | 8.00021 | 35162 ft | 405 kts | 185° |
| 2026-04-21 08:15 | -45.31051 | 8.00020 | 35163 ft | 405 kts | 184° |
| 2026-04-21 08:15 | -45.36683 | 8.00020 | 35156 ft | 405 kts | 184° |
| 2026-04-21 08:16 | -45.42313 | 8.00020 | 35157 ft | 405 kts | 184° |
| 2026-04-21 08:16 | -45.47942 | 8.00020 | 35155 ft | 405 kts | 184° |
| 2026-04-21 08:17 | -45.53574 | 8.00020 | 35158 ft | 405 kts | 184° |
| 2026-04-21 08:17 | -45.59163 | 8.00020 | 35148 ft | 405 kts | 184° |
| 2026-04-21 08:18 | -45.64797 | 8.00020 | 35148 ft | 405 kts | 184° |
| 2026-04-21 08:18 | -45.70427 | 8.00020 | 35160 ft | 405 kts | 184° |
| 2026-04-21 08:19 | -45.76058 | 8.00020 | 35151 ft | 405 kts | 184° |
| 2026-04-21 08:19 | -45.81691 | 8.00020 | 35146 ft | 405 kts | 184° |
| 2026-04-21 08:20 | -45.87324 | 8.00020 | 35145 ft | 405 kts | 184° |
| 2026-04-21 08:20 | -45.92958 | 8.00020 | 35146 ft | 405 kts | 184° |
| 2026-04-21 08:21 | -45.98589 | 8.00020 | 35143 ft | 405 kts | 184° |
| 2026-04-21 08:21 | -46.04221 | 8.00020 | 35143 ft | 405 kts | 184° |
| 2026-04-21 08:22 | -46.09861 | 8.00020 | 35152 ft | 405 kts | 184° |
| 2026-04-21 08:22 | -46.14540 | 8.00020 | 35139 ft | 405 kts | 184° |
| 2026-04-21 08:23 | -46.20170 | 8.00020 | 35136 ft | 405 kts | 184° |
| 2026-04-21 08:23 | -46.25803 | 8.00020 | 35124 ft | 405 kts | 184° |
| 2026-04-21 08:24 | -46.31447 | 8.00020 | 35139 ft | 406 kts | 183° |
| 2026-04-21 08:24 | -46.37100 | 8.00020 | 35130 ft | 406 kts | 183° |
| 2026-04-21 08:25 | -46.42761 | 8.00020 | 35135 ft | 406 kts | 183° |
| 2026-04-21 08:25 | -46.48415 | 8.00020 | 35131 ft | 406 kts | 183° |
| 2026-04-21 08:26 | -46.54068 | 8.00020 | 35134 ft | 406 kts | 183° |
| 2026-04-21 08:26 | -46.59720 | 8.00020 | 35133 ft | 406 kts | 183° |
| 2026-04-21 08:27 | -46.65366 | 8.00020 | 35126 ft | 406 kts | 183° |
| 2026-04-21 08:27 | -46.70975 | 8.00020 | 35139 ft | 406 kts | 183° |
| 2026-04-21 08:28 | -46.76623 | 8.00020 | 35127 ft | 405 kts | 183° |
| 2026-04-21 08:28 | -46.82258 | 8.00021 | 35128 ft | 405 kts | 183° |
| 2026-04-21 08:29 | -46.87902 | 8.00021 | 35122 ft | 405 kts | 183° |
| 2026-04-21 08:29 | -46.93537 | 8.00020 | 35123 ft | 405 kts | 183° |
| 2026-04-21 08:30 | -46.99178 | 8.00020 | 35121 ft | 405 kts | 183° |
| 2026-04-21 08:30 | -47.04818 | 8.00020 | 35119 ft | 405 kts | 183° |
| 2026-04-21 08:31 | -47.10457 | 8.00020 | 35119 ft | 405 kts | 183° |
| 2026-04-21 08:31 | -47.16099 | 8.00020 | 35115 ft | 405 kts | 183° |
| 2026-04-21 08:32 | -47.21735 | 8.00020 | 35113 ft | 405 kts | 183° |
| 2026-04-21 08:32 | -47.27365 | 8.00021 | 35105 ft | 405 kts | 183° |
| 2026-04-21 08:33 | -47.33009 | 8.00020 | 35116 ft | 405 kts | 182° |
| 2026-04-21 08:33 | -47.38635 | 8.00021 | 35106 ft | 404 kts | 182° |
| 2026-04-21 08:34 | -47.44226 | 8.00021 | 35105 ft | 404 kts | 182° |
| 2026-04-21 08:34 | -47.49848 | 8.00021 | 35107 ft | 404 kts | 182° |
| 2026-04-21 08:35 | -47.55477 | 8.00020 | 35109 ft | 404 kts | 182° |
| 2026-04-21 08:35 | -47.61093 | 8.00021 | 35106 ft | 404 kts | 182° |
| 2026-04-21 08:36 | -47.66716 | 8.00021 | 35105 ft | 404 kts | 182° |
| 2026-04-21 08:36 | -47.72335 | 8.00021 | 35100 ft | 404 kts | 182° |
| 2026-04-21 08:37 | -47.77949 | 8.00020 | 35101 ft | 403 kts | 182° |
| 2026-04-21 08:37 | -47.83557 | 8.00021 | 35095 ft | 403 kts | 182° |
| 2026-04-21 08:38 | -47.89166 | 8.00021 | 35092 ft | 403 kts | 182° |
| 2026-04-21 08:38 | -47.94778 | 8.00021 | 35119 ft | 403 kts | 182° |
| 2026-04-21 08:39 | -48.00388 | 8.00021 | 35096 ft | 403 kts | 182° |
| 2026-04-21 08:39 | -48.05986 | 8.00021 | 35097 ft | 402 kts | 182° |
| 2026-04-21 08:40 | -48.11584 | 8.00021 | 35091 ft | 402 kts | 182° |
| 2026-04-21 08:40 | -48.17181 | 8.00021 | 35098 ft | 402 kts | 182° |
| 2026-04-21 08:41 | -48.22773 | 8.00021 | 35089 ft | 401 kts | 182° |
| 2026-04-21 08:41 | -48.28357 | 8.00021 | 35088 ft | 401 kts | 182° |
| 2026-04-21 08:42 | -48.33941 | 8.00021 | 35084 ft | 401 kts | 182° |
| 2026-04-21 08:42 | -48.39533 | 8.00021 | 35090 ft | 401 kts | 182° |
| 2026-04-21 08:43 | -48.45071 | 8.00021 | 35078 ft | 401 kts | 182° |
| 2026-04-21 08:43 | -48.50652 | 8.00021 | 35077 ft | 401 kts | 182° |
| 2026-04-21 08:44 | -48.56265 | 8.00021 | 35077 ft | 401 kts | 182° |
| 2026-04-21 08:44 | -48.61804 | 8.00021 | 35091 ft | 401 kts | 182° |
| 2026-04-21 08:45 | -48.67377 | 8.00021 | 35079 ft | 400 kts | 182° |
| 2026-04-21 08:45 | -48.72950 | 8.00021 | 35077 ft | 400 kts | 182° |
| 2026-04-21 08:46 | -48.78519 | 8.00021 | 35079 ft | 400 kts | 182° |
| 2026-04-21 08:46 | -48.84091 | 8.00021 | 35072 ft | 400 kts | 182° |
| 2026-04-21 08:47 | -48.89656 | 8.00021 | 35075 ft | 400 kts | 182° |
| 2026-04-21 08:47 | -48.95218 | 8.00021 | 35075 ft | 400 kts | 182° |
| 2026-04-21 08:48 | -49.00785 | 8.00021 | 35069 ft | 400 kts | 182° |
| 2026-04-21 08:48 | -49.06346 | 8.00022 | 35069 ft | 400 kts | 182° |
| 2026-04-21 08:49 | -49.11911 | 8.00022 | 35069 ft | 400 kts | 182° |
| 2026-04-21 08:49 | -49.17476 | 8.00022 | 35067 ft | 400 kts | 182° |
| 2026-04-21 08:50 | -49.23039 | 8.00022 | 35064 ft | 400 kts | 182° |
| 2026-04-21 08:50 | -49.28621 | 8.00021 | 35071 ft | 402 kts | 182° |
| 2026-04-21 08:51 | -49.34226 | 8.00021 | 35067 ft | 403 kts | 182° |
| 2026-04-21 08:51 | -49.39834 | 8.00021 | 35069 ft | 403 kts | 182° |
| 2026-04-21 08:52 | -49.45443 | 8.00022 | 35064 ft | 403 kts | 182° |
| 2026-04-21 08:52 | -49.51047 | 8.00022 | 35070 ft | 403 kts | 182° |
| 2026-04-21 08:53 | -49.56651 | 8.00022 | 35060 ft | 403 kts | 182° |
| 2026-04-21 08:53 | -49.62258 | 8.00022 | 35057 ft | 403 kts | 182° |
| 2026-04-21 08:54 | -49.67860 | 8.00022 | 35052 ft | 403 kts | 182° |
| 2026-04-21 08:54 | -49.73463 | 8.00022 | 35053 ft | 402 kts | 182° |
| 2026-04-21 08:55 | -49.79059 | 8.00022 | 35054 ft | 402 kts | 182° |
| 2026-04-21 08:55 | -49.84621 | 8.00022 | 35054 ft | 402 kts | 182° |
| 2026-04-21 08:56 | -49.90214 | 8.00022 | 35058 ft | 402 kts | 182° |
| 2026-04-21 08:56 | -49.95810 | 8.00022 | 35056 ft | 402 kts | 182° |
| 2026-04-21 08:57 | -50.01409 | 8.00022 | 35053 ft | 402 kts | 182° |
| 2026-04-21 08:57 | -50.07013 | 8.00022 | 35051 ft | 402 kts | 182° |
| 2026-04-21 08:58 | -50.12614 | 8.00022 | 35049 ft | 402 kts | 182° |
| 2026-04-21 08:58 | -50.18215 | 8.00022 | 35048 ft | 402 kts | 182° |
| 2026-04-21 08:59 | -50.23809 | 8.00022 | 35041 ft | 402 kts | 182° |
| 2026-04-21 08:59 | -50.29408 | 8.00022 | 35042 ft | 402 kts | 182° |
| 2026-04-21 09:00 | -50.35013 | 8.00022 | 35041 ft | 402 kts | 182° |
| 2026-04-21 09:00 | -50.40610 | 8.00023 | 35044 ft | 402 kts | 182° |
| 2026-04-21 09:01 | -50.46199 | 8.00022 | 35034 ft | 402 kts | 182° |
| 2026-04-21 09:01 | -50.51791 | 8.00022 | 35037 ft | 402 kts | 182° |
| 2026-04-21 09:02 | -50.57384 | 8.00022 | 35036 ft | 402 kts | 182° |
| 2026-04-21 09:02 | -50.62976 | 8.00022 | 35040 ft | 402 kts | 181° |
| 2026-04-21 09:03 | -50.71373 | 8.00022 | 35033 ft | 402 kts | 181° |
| 2026-04-21 09:03 | -50.76967 | 8.00021 | 35028 ft | 402 kts | 182° |
| 2026-04-21 09:04 | -50.82566 | 8.00009 | 35024 ft | 402 kts | 182° |
| 2026-04-21 09:04 | -50.88170 | 8.00000 | 35021 ft | 404 kts | 182° |
| 2026-04-21 09:05 | -50.93808 | 7.99997 | 35023 ft | 406 kts | 182° |
| 2026-04-21 09:05 | -50.99449 | 7.99998 | 35020 ft | 406 kts | 182° |
| 2026-04-21 09:06 | -51.05097 | 7.99999 | 35021 ft | 406 kts | 182° |
| 2026-04-21 09:06 | -51.10739 | 7.99999 | 35018 ft | 406 kts | 182° |
| 2026-04-21 09:07 | -51.16388 | 7.99999 | 35018 ft | 406 kts | 182° |
| 2026-04-21 09:07 | -51.22038 | 7.99999 | 35021 ft | 406 kts | 182° |
| 2026-04-21 09:08 | -51.27686 | 7.99999 | 35021 ft | 406 kts | 182° |
| 2026-04-21 09:08 | -51.33333 | 7.99999 | 35020 ft | 406 kts | 182° |
| 2026-04-21 09:09 | -51.38987 | 7.99999 | 35015 ft | 406 kts | 182° |
| 2026-04-21 09:09 | -51.43683 | 7.99999 | 35015 ft | 406 kts | 182° |
| 2026-04-21 09:10 | -51.49340 | 7.99999 | 35010 ft | 406 kts | 182° |
| 2026-04-21 09:10 | -51.55907 | 7.99999 | 35009 ft | 406 kts | 182° |
| 2026-04-21 09:11 | -51.60644 | 7.99999 | 35004 ft | 406 kts | 182° |
| 2026-04-21 09:11 | -51.66294 | 7.99999 | 35001 ft | 406 kts | 182° |
| 2026-04-21 09:12 | -51.71946 | 7.99999 | 35002 ft | 406 kts | 182° |
| 2026-04-21 09:12 | -51.77599 | 7.99999 | 35012 ft | 406 kts | 182° |
| 2026-04-21 09:13 | -51.83212 | 7.99999 | 34992 ft | 406 kts | 182° |
| 2026-04-21 09:13 | -51.88861 | 7.99999 | 34999 ft | 406 kts | 182° |
| 2026-04-21 09:14 | -51.94507 | 7.99999 | 34996 ft | 406 kts | 182° |
| 2026-04-21 09:14 | -52.00162 | 7.99999 | 34997 ft | 406 kts | 182° |
| 2026-04-21 09:15 | -52.05817 | 7.99999 | 34993 ft | 406 kts | 182° |
| 2026-04-21 09:15 | -52.11467 | 7.99999 | 34987 ft | 406 kts | 182° |
| 2026-04-21 09:16 | -52.17126 | 7.99999 | 34988 ft | 406 kts | 182° |
| 2026-04-21 09:16 | -52.22778 | 7.99999 | 34982 ft | 406 kts | 182° |
| 2026-04-21 09:17 | -52.28432 | 7.99999 | 34981 ft | 406 kts | 182° |
| 2026-04-21 09:17 | -52.34094 | 8.00000 | 34979 ft | 406 kts | 182° |
| 2026-04-21 09:18 | -52.39748 | 8.00000 | 34980 ft | 406 kts | 182° |
| 2026-04-21 09:18 | -52.45405 | 8.00000 | 34974 ft | 406 kts | 182° |
| 2026-04-21 09:19 | -52.51059 | 8.00000 | 34974 ft | 407 kts | 182° |
| 2026-04-21 09:19 | -52.56730 | 7.99998 | 34973 ft | 409 kts | 182° |
| 2026-04-21 09:20 | -52.62434 | 7.99997 | 34968 ft | 411 kts | 182° |
| 2026-04-21 09:20 | -52.68158 | 7.99998 | 34969 ft | 411 kts | 182° |
| 2026-04-21 09:21 | -52.73880 | 7.99999 | 34977 ft | 411 kts | 182° |
| 2026-04-21 09:21 | -52.79598 | 7.99999 | 34956 ft | 411 kts | 182° |
| 2026-04-21 09:22 | -52.85318 | 7.99999 | 34960 ft | 411 kts | 182° |
| 2026-04-21 09:22 | -52.91049 | 7.99999 | 34957 ft | 411 kts | 182° |
| 2026-04-21 09:23 | -52.96735 | 7.99999 | 34953 ft | 411 kts | 182° |
| 2026-04-21 09:23 | -53.02462 | 7.99999 | 34947 ft | 411 kts | 182° |
| 2026-04-21 09:24 | -53.08185 | 8.00000 | 34949 ft | 411 kts | 182° |
| 2026-04-21 09:24 | -53.13907 | 8.00000 | 34944 ft | 411 kts | 182° |
| 2026-04-21 09:25 | -53.19631 | 8.00000 | 34936 ft | 411 kts | 182° |
| 2026-04-21 09:25 | -53.25357 | 8.00000 | 34945 ft | 411 kts | 182° |
| 2026-04-21 09:26 | -53.31073 | 8.00000 | 34936 ft | 411 kts | 182° |
| 2026-04-21 09:26 | -53.36795 | 7.99999 | 34936 ft | 411 kts | 182° |
| 2026-04-21 09:27 | -53.42521 | 8.00000 | 34931 ft | 411 kts | 182° |
| 2026-04-21 09:27 | -53.48247 | 7.99999 | 34934 ft | 411 kts | 182° |
| 2026-04-21 09:28 | -53.53972 | 7.99999 | 34924 ft | 411 kts | 182° |
| 2026-04-21 09:28 | -53.59698 | 7.99999 | 34916 ft | 411 kts | 182° |
| 2026-04-21 09:29 | -53.65419 | 7.99999 | 34924 ft | 411 kts | 182° |
| 2026-04-21 09:29 | -53.71150 | 7.99999 | 34919 ft | 411 kts | 182° |
| 2026-04-21 09:30 | -53.76878 | 7.99999 | 34918 ft | 411 kts | 182° |
| 2026-04-21 09:30 | -53.82604 | 8.00006 | 34911 ft | 411 kts | 182° |
| 2026-04-21 09:31 | -53.88327 | 8.00007 | 34906 ft | 412 kts | 182° |
| 2026-04-21 09:31 | -53.94016 | 8.00001 | 34906 ft | 412 kts | 182° |
| 2026-04-21 09:32 | -53.99748 | 7.99999 | 34901 ft | 412 kts | 182° |
| 2026-04-21 09:32 | -54.05471 | 7.99999 | 34900 ft | 411 kts | 182° |
| 2026-04-21 09:33 | -54.11191 | 7.99999 | 34896 ft | 411 kts | 182° |
| 2026-04-21 09:33 | -54.16912 | 7.99999 | 34893 ft | 411 kts | 182° |
| 2026-04-21 09:34 | -54.22633 | 7.99999 | 34892 ft | 411 kts | 182° |
| 2026-04-21 09:34 | -54.28363 | 7.99999 | 34890 ft | 412 kts | 182° |
| 2026-04-21 09:35 | -54.34095 | 7.99998 | 34882 ft | 414 kts | 182° |
| 2026-04-21 09:35 | -54.39879 | 7.99997 | 34872 ft | 416 kts | 182° |
| 2026-04-21 09:36 | -54.45669 | 7.99998 | 34873 ft | 416 kts | 182° |
| 2026-04-21 09:36 | -54.51463 | 7.99999 | 34862 ft | 416 kts | 182° |
| 2026-04-21 09:37 | -54.57255 | 8.00000 | 34853 ft | 416 kts | 182° |
| 2026-04-21 09:37 | -54.63048 | 7.99999 | 34847 ft | 416 kts | 182° |
| 2026-04-21 09:38 | -54.68841 | 7.99999 | 34852 ft | 416 kts | 182° |
| 2026-04-21 09:38 | -54.74635 | 7.99999 | 34870 ft | 416 kts | 182° |
| 2026-04-21 09:39 | -54.80426 | 8.00000 | 34844 ft | 416 kts | 182° |
| 2026-04-21 09:39 | -54.86221 | 7.99999 | 34854 ft | 416 kts | 182° |
| 2026-04-21 09:40 | -54.91975 | 7.99999 | 34836 ft | 416 kts | 182° |
| 2026-04-21 09:40 | -54.97811 | 7.99999 | 34833 ft | 416 kts | 182° |
| 2026-04-21 09:41 | -55.03565 | 8.00000 | 34831 ft | 416 kts | 182° |
| 2026-04-21 09:41 | -55.09364 | 7.99999 | 34827 ft | 417 kts | 182° |
| 2026-04-21 09:42 | -55.15164 | 7.99999 | 34819 ft | 417 kts | 182° |
| 2026-04-21 09:42 | -55.20963 | 7.99999 | 34820 ft | 417 kts | 182° |
| 2026-04-21 09:43 | -55.26766 | 7.99999 | 34827 ft | 417 kts | 183° |
| 2026-04-21 09:43 | -55.32571 | 7.99999 | 34801 ft | 417 kts | 183° |
| 2026-04-21 09:44 | -55.38382 | 7.99999 | 34802 ft | 417 kts | 183° |
| 2026-04-21 09:44 | -55.44189 | 7.99999 | 34798 ft | 417 kts | 183° |
| 2026-04-21 09:45 | -55.49998 | 7.99999 | 34799 ft | 417 kts | 183° |
| 2026-04-21 09:45 | -55.55810 | 7.99999 | 34798 ft | 418 kts | 183° |
| 2026-04-21 09:46 | -55.61623 | 7.99999 | 34792 ft | 418 kts | 183° |
| 2026-04-21 09:46 | -55.67439 | 7.99999 | 34781 ft | 418 kts | 183° |
| 2026-04-21 09:47 | -55.73253 | 7.99999 | 34782 ft | 418 kts | 183° |
| 2026-04-21 09:47 | -55.79073 | 7.99999 | 34791 ft | 418 kts | 183° |
| 2026-04-21 09:48 | -55.84890 | 7.99999 | 34754 ft | 418 kts | 183° |
| 2026-04-21 09:48 | -55.90711 | 7.99999 | 34765 ft | 418 kts | 183° |
| 2026-04-21 09:49 | -55.96528 | 7.99999 | 34742 ft | 418 kts | 183° |
| 2026-04-21 09:49 | -56.02351 | 7.99999 | 34757 ft | 418 kts | 183° |
| 2026-04-21 09:50 | -56.06203 | 7.99999 | 34757 ft | 418 kts | 183° |
| 2026-04-21 09:50 | -56.13991 | 8.00000 | 34742 ft | 418 kts | 183° |
| 2026-04-21 09:51 | -56.19776 | 7.99998 | 34742 ft | 421 kts | 183° |
| 2026-04-21 09:51 | -56.25653 | 7.99996 | 34747 ft | 423 kts | 183° |
| 2026-04-21 09:52 | -56.31535 | 7.99997 | 34729 ft | 423 kts | 183° |
| 2026-04-21 09:52 | -56.37419 | 7.99999 | 34729 ft | 423 kts | 183° |
| 2026-04-21 09:53 | -56.43303 | 7.99999 | 34723 ft | 423 kts | 183° |
| 2026-04-21 09:53 | -56.49190 | 7.99999 | 34719 ft | 423 kts | 183° |
| 2026-04-21 09:54 | -56.55071 | 7.99999 | 34716 ft | 423 kts | 183° |
| 2026-04-21 09:54 | -56.60961 | 7.99999 | 34704 ft | 423 kts | 184° |
| 2026-04-21 09:55 | -56.66841 | 8.00000 | 34702 ft | 423 kts | 184° |
| 2026-04-21 09:55 | -56.72729 | 7.99999 | 34687 ft | 423 kts | 184° |
| 2026-04-21 09:56 | -56.78613 | 7.99999 | 34687 ft | 423 kts | 184° |
| 2026-04-21 09:56 | -56.84496 | 7.99999 | 34686 ft | 423 kts | 184° |
| 2026-04-21 09:57 | -56.90380 | 8.00000 | 34689 ft | 423 kts | 184° |
| 2026-04-21 09:57 | -56.96265 | 8.00000 | 34684 ft | 423 kts | 184° |
| 2026-04-21 09:58 | -57.01150 | 7.99999 | 34685 ft | 423 kts | 184° |
| 2026-04-21 09:58 | -57.07037 | 7.99999 | 34671 ft | 423 kts | 184° |
| 2026-04-21 09:59 | -57.12924 | 7.99999 | 34687 ft | 423 kts | 184° |
| 2026-04-21 09:59 | -57.18806 | 8.00000 | 34658 ft | 423 kts | 184° |
| 2026-04-21 10:00 | -57.24610 | 8.00000 | 34652 ft | 423 kts | 184° |
| 2026-04-21 10:00 | -57.30494 | 7.99999 | 34649 ft | 423 kts | 184° |
| 2026-04-21 10:01 | -57.36373 | 7.99999 | 34641 ft | 423 kts | 184° |
| 2026-04-21 10:01 | -57.42250 | 8.00000 | 34644 ft | 423 kts | 184° |
| 2026-04-21 10:02 | -57.51082 | 7.99999 | 34627 ft | 423 kts | 184° |
| 2026-04-21 10:03 | -57.56967 | 7.99999 | 34620 ft | 423 kts | 184° |
| 2026-04-21 10:03 | -57.62854 | 7.99999 | 34619 ft | 423 kts | 184° |
| 2026-04-21 10:04 | -57.68703 | 8.00000 | 34622 ft | 423 kts | 185° |
| 2026-04-21 10:04 | -57.74550 | 8.00000 | 34605 ft | 423 kts | 185° |
| 2026-04-21 10:05 | -57.80435 | 8.00000 | 34601 ft | 423 kts | 185° |
| 2026-04-21 10:05 | -57.86319 | 7.99999 | 34600 ft | 423 kts | 185° |
| 2026-04-21 10:06 | -57.92204 | 7.99999 | 34590 ft | 423 kts | 185° |
| 2026-04-21 10:06 | -57.98089 | 8.00000 | 34593 ft | 422 kts | 185° |
| 2026-04-21 10:07 | -58.03958 | 8.00000 | 34574 ft | 422 kts | 185° |
| 2026-04-21 10:07 | -58.09831 | 8.00000 | 34553 ft | 422 kts | 185° |
| 2026-04-21 10:08 | -58.15734 | 7.99996 | 34565 ft | 426 kts | 185° |
| 2026-04-21 10:08 | -58.21668 | 7.99995 | 34565 ft | 427 kts | 185° |
| 2026-04-21 10:09 | -58.27603 | 7.99999 | 34560 ft | 426 kts | 185° |
| 2026-04-21 10:09 | -58.33532 | 8.00000 | 34559 ft | 426 kts | 185° |
| 2026-04-21 10:10 | -58.39452 | 8.00000 | 34553 ft | 426 kts | 185° |
| 2026-04-21 10:10 | -58.45385 | 7.99999 | 34539 ft | 426 kts | 185° |
| 2026-04-21 10:11 | -58.51308 | 8.00000 | 34567 ft | 426 kts | 185° |
| 2026-04-21 10:11 | -58.57229 | 8.00001 | 34526 ft | 425 kts | 185° |
| 2026-04-21 10:12 | -58.63142 | 8.00000 | 34525 ft | 425 kts | 185° |
| 2026-04-21 10:12 | -58.69024 | 8.00000 | 34514 ft | 425 kts | 185° |
| 2026-04-21 10:13 | -58.74939 | 8.00000 | 34515 ft | 425 kts | 186° |
| 2026-04-21 10:13 | -58.80849 | 7.99954 | 34528 ft | 425 kts | 186° |
| 2026-04-21 10:14 | -58.86752 | 7.99900 | 34503 ft | 424 kts | 186° |
| 2026-04-21 10:14 | -58.92651 | 7.99872 | 34503 ft | 424 kts | 186° |
| 2026-04-21 10:15 | -58.98553 | 7.99885 | 34502 ft | 424 kts | 185° |
| 2026-04-21 10:15 | -59.04453 | 7.99939 | 34493 ft | 424 kts | 186° |
| 2026-04-21 10:16 | -59.10353 | 7.99919 | 34494 ft | 424 kts | 186° |
| 2026-04-21 10:16 | -59.16255 | 7.99972 | 34481 ft | 424 kts | 185° |
| 2026-04-21 10:17 | -59.22162 | 8.00085 | 34481 ft | 424 kts | 185° |
| 2026-04-21 10:17 | -59.28064 | 8.00063 | 34470 ft | 424 kts | 186° |
| 2026-04-21 10:18 | -59.33957 | 8.00025 | 34476 ft | 424 kts | 186° |
| 2026-04-21 10:18 | -59.39854 | 8.00003 | 34464 ft | 424 kts | 186° |
| 2026-04-21 10:19 | -59.45747 | 8.00005 | 34462 ft | 423 kts | 186° |
| 2026-04-21 10:19 | -59.51644 | 8.00011 | 34452 ft | 423 kts | 186° |
| 2026-04-21 10:20 | -59.57535 | 8.00029 | 34451 ft | 424 kts | 185° |
| 2026-04-21 10:20 | -59.63431 | 8.00068 | 34439 ft | 423 kts | 186° |
| 2026-04-21 10:21 | -59.69316 | 8.00046 | 34439 ft | 422 kts | 186° |
| 2026-04-21 10:21 | -59.75193 | 8.00013 | 34433 ft | 422 kts | 186° |
| 2026-04-21 10:22 | -59.81066 | 7.99999 | 34437 ft | 422 kts | 186° |
| 2026-04-21 10:22 | -59.86946 | 7.99998 | 34424 ft | 422 kts | 186° |
| 2026-04-21 10:23 | -59.92820 | 7.99999 | 34423 ft | 422 kts | 186° |
| 2026-04-21 10:23 | -59.98699 | 8.00001 | 34406 ft | 422 kts | 186° |
| 2026-04-21 10:24 | -60.04573 | 8.00001 | 34406 ft | 422 kts | 186° |
| 2026-04-21 10:24 | -60.10404 | 8.00000 | 34395 ft | 422 kts | 186° |
| 2026-04-21 10:25 | -60.16293 | 7.99998 | 34394 ft | 425 kts | 187° |
| 2026-04-21 10:25 | -60.22219 | 7.99994 | 34447 ft | 426 kts | 187° |
| 2026-04-21 10:26 | -60.28149 | 8.00003 | 34375 ft | 425 kts | 187° |
| 2026-04-21 10:26 | -60.34069 | 8.00021 | 34377 ft | 425 kts | 187° |
| 2026-04-21 10:27 | -60.39986 | 8.00031 | 34365 ft | 425 kts | 187° |
| 2026-04-21 10:27 | -60.45903 | 8.00025 | 34364 ft | 425 kts | 187° |
| 2026-04-21 10:28 | -60.51822 | 8.00007 | 34388 ft | 425 kts | 187° |
| 2026-04-21 10:28 | -60.57743 | 8.00019 | 34354 ft | 425 kts | 187° |
| 2026-04-21 10:29 | -60.63658 | 8.00029 | 34345 ft | 425 kts | 187° |
| 2026-04-21 10:29 | -60.69566 | 8.00034 | 34053 ft | 422 kts | 187° |
| 2026-04-21 10:29 | -60.72490 | 8.00039 | 33395 ft | 420 kts | 187° |
| 2026-04-21 10:30 | -60.75416 | 8.00040 | 32529 ft | 421 kts | 187° |
| 2026-04-21 10:30 | -60.78351 | 8.00035 | 31616 ft | 423 kts | 187° |
| 2026-04-21 10:30 | -60.81308 | 8.00029 | 30720 ft | 426 kts | 188° |
| 2026-04-21 10:30 | -60.84280 | 8.00023 | 29801 ft | 429 kts | 188° |
| 2026-04-21 10:31 | -60.87274 | 8.00018 | 28762 ft | 432 kts | 187° |
| 2026-04-21 10:31 | -60.90284 | 8.00015 | 27839 ft | 432 kts | 187° |
| 2026-04-21 10:31 | -60.93242 | 8.00018 | 27070 ft | 430 kts | 187° |
| 2026-04-21 10:31 | -60.96222 | 8.00025 | 26343 ft | 427 kts | 187° |
| 2026-04-21 10:32 | -60.99177 | 8.00032 | 25620 ft | 423 kts | 187° |
| 2026-04-21 10:32 | -61.02114 | 8.00037 | 24936 ft | 420 kts | 187° |
| 2026-04-21 10:32 | -61.05026 | 8.00039 | 24251 ft | 418 kts | 187° |
| 2026-04-21 10:32 | -61.07927 | 8.00039 | 23594 ft | 415 kts | 187° |
| 2026-04-21 10:33 | -61.10806 | 8.00039 | 22985 ft | 412 kts | 187° |
| 2026-04-21 10:33 | -61.13666 | 8.00039 | 22248 ft | 410 kts | 187° |
| 2026-04-21 10:33 | -61.16510 | 8.00037 | 21493 ft | 408 kts | 187° |
| 2026-04-21 10:33 | -61.19340 | 8.00035 | 20744 ft | 406 kts | 187° |
| 2026-04-21 10:34 | -61.22158 | 8.00034 | 20041 ft | 403 kts | 187° |
| 2026-04-21 10:34 | -61.24955 | 8.00033 | 19358 ft | 401 kts | 187° |
| 2026-04-21 10:34 | -61.27744 | 8.00033 | 18676 ft | 399 kts | 187° |
| 2026-04-21 10:34 | -61.30517 | 8.00032 | 18012 ft | 397 kts | 187° |
| 2026-04-21 10:35 | -61.33266 | 8.00033 | 17513 ft | 394 kts | 187° |
| 2026-04-21 10:35 | -61.36005 | 8.00032 | 17292 ft | 394 kts | 187° |
| 2026-04-21 10:35 | -61.38749 | 8.00027 | 17275 ft | 395 kts | 187° |
| 2026-04-21 10:35 | -61.41495 | 8.00024 | 17277 ft | 395 kts | 187° |
| 2026-04-21 10:36 | -61.44241 | 8.00022 | 17274 ft | 395 kts | 187° |
| 2026-04-21 10:36 | -61.46996 | 8.00020 | 17274 ft | 396 kts | 187° |
| 2026-04-21 10:36 | -61.49750 | 8.00021 | 17263 ft | 396 kts | 187° |
| 2026-04-21 10:36 | -61.52500 | 8.00021 | 17262 ft | 396 kts | 187° |
| 2026-04-21 10:37 | -61.55252 | 8.00021 | 17264 ft | 396 kts | 187° |
| 2026-04-21 10:37 | -61.58008 | 8.00022 | 17261 ft | 396 kts | 187° |
| 2026-04-21 10:37 | -61.60760 | 8.00022 | 17252 ft | 396 kts | 187° |
| 2026-04-21 10:37 | -61.63507 | 8.00023 | 17253 ft | 395 kts | 187° |
| 2026-04-21 10:38 | -61.66260 | 8.00023 | 17255 ft | 396 kts | 187° |
| 2026-04-21 10:38 | -61.69017 | 8.00023 | 17258 ft | 396 kts | 187° |
| 2026-04-21 10:38 | -61.71769 | 8.00023 | 17265 ft | 396 kts | 187° |
| 2026-04-21 10:38 | -61.74529 | 8.00022 | 17252 ft | 397 kts | 187° |
| 2026-04-21 10:39 | -61.77294 | 8.00020 | 17246 ft | 397 kts | 187° |
| 2026-04-21 10:39 | -61.80059 | 8.00020 | 17253 ft | 397 kts | 187° |
| 2026-04-21 10:39 | -61.82782 | 8.00020 | 17252 ft | 397 kts | 187° |
| 2026-04-21 10:39 | -61.85550 | 8.00021 | 17255 ft | 397 kts | 187° |
| 2026-04-21 10:40 | -61.88317 | 8.00021 | 17250 ft | 397 kts | 187° |
| 2026-04-21 10:40 | -61.91078 | 8.00022 | 17315 ft | 398 kts | 187° |
| 2026-04-21 10:40 | -61.93846 | 8.00022 | 17903 ft | 395 kts | 187° |
| 2026-04-21 10:40 | -61.96556 | 8.00034 | 18949 ft | 386 kts | 187° |
| 2026-04-21 10:41 | -61.99219 | 8.00049 | 19720 ft | 380 kts | 188° |
| 2026-04-21 10:41 | -62.01860 | 8.00053 | 20139 ft | 380 kts | 188° |
| 2026-04-21 10:41 | -62.04516 | 8.00045 | 20234 ft | 382 kts | 188° |
| 2026-04-21 10:41 | -62.07174 | 8.00035 | 20238 ft | 383 kts | 188° |
| 2026-04-21 10:42 | -62.09841 | 8.00027 | 20232 ft | 383 kts | 188° |
| 2026-04-21 10:42 | -62.12508 | 8.00022 | 20231 ft | 384 kts | 188° |
| 2026-04-21 10:42 | -62.15176 | 8.00008 | 20228 ft | 384 kts | 188° |
| 2026-04-21 10:42 | -62.17850 | 8.00003 | 20226 ft | 384 kts | 188° |
| 2026-04-21 10:43 | -62.20520 | 7.99997 | 20219 ft | 384 kts | 188° |
| 2026-04-21 10:43 | -62.23186 | 7.99988 | 20223 ft | 384 kts | 188° |
| 2026-04-21 10:43 | -62.25857 | 7.99969 | 20227 ft | 384 kts | 189° |
| 2026-04-21 10:43 | -62.28533 | 7.99952 | 20222 ft | 384 kts | 188° |
| 2026-04-21 10:44 | -62.31203 | 7.99942 | 20226 ft | 384 kts | 188° |
| 2026-04-21 10:44 | -62.33881 | 7.99940 | 20212 ft | 384 kts | 188° |
| 2026-04-21 10:44 | -62.36554 | 7.99946 | 20210 ft | 385 kts | 189° |
| 2026-04-21 10:44 | -62.39231 | 7.99940 | 20211 ft | 384 kts | 189° |
| 2026-04-21 10:45 | -62.41901 | 7.99937 | 20202 ft | 385 kts | 188° |
| 2026-04-21 10:45 | -62.44582 | 7.99938 | 20204 ft | 384 kts | 189° |
| 2026-04-21 10:45 | -62.47255 | 7.99924 | 20203 ft | 384 kts | 189° |
| 2026-04-21 10:45 | -62.49928 | 7.99899 | 20204 ft | 384 kts | 189° |
| 2026-04-21 10:46 | -62.52597 | 7.99855 | 20204 ft | 384 kts | 190° |
| 2026-04-21 10:46 | -62.55263 | 7.99748 | 20194 ft | 382 kts | 193° |
| 2026-04-21 10:46 | -62.57885 | 7.99521 | 20193 ft | 382 kts | 194° |
| 2026-04-21 10:46 | -62.59678 | 7.99347 | 20194 ft | 382 kts | 193° |
| 2026-04-21 10:47 | -62.63207 | 7.99077 | 20206 ft | 384 kts | 193° |
| 2026-04-21 10:47 | -62.65882 | 7.98963 | 20188 ft | 385 kts | 192° |
| 2026-04-21 10:47 | -62.67687 | 7.98924 | 20181 ft | 385 kts | 192° |
| 2026-04-21 10:47 | -62.71235 | 7.98898 | 20188 ft | 385 kts | 191° |
| 2026-04-21 10:48 | -62.73913 | 7.98902 | 20184 ft | 385 kts | 191° |
| 2026-04-21 10:48 | -62.75724 | 7.98908 | 20180 ft | 385 kts | 191° |
| 2026-04-21 10:48 | -62.78402 | 7.98938 | 20177 ft | 386 kts | 188° |
| 2026-04-21 10:48 | -62.81101 | 7.99149 | 20181 ft | 388 kts | 186° |
| 2026-04-21 10:49 | -62.83792 | 7.99424 | 20179 ft | 387 kts | 186° |
| 2026-04-21 10:49 | -62.86478 | 7.99658 | 20167 ft | 387 kts | 186° |
| 2026-04-21 10:49 | -62.89164 | 7.99825 | 20173 ft | 386 kts | 187° |
| 2026-04-21 10:49 | -62.91847 | 7.99932 | 20180 ft | 385 kts | 188° |
| 2026-04-21 10:50 | -62.94530 | 7.99991 | 20168 ft | 385 kts | 188° |
| 2026-04-21 10:50 | -62.97203 | 8.00001 | 20166 ft | 385 kts | 188° |
| 2026-04-21 10:50 | -62.99876 | 7.99914 | 20164 ft | 383 kts | 189° |
| 2026-04-21 10:50 | -63.02547 | 7.99846 | 20167 ft | 385 kts | 189° |
| 2026-04-21 10:51 | -63.05225 | 7.99850 | 20158 ft | 385 kts | 189° |
| 2026-04-21 10:51 | -63.07902 | 7.99859 | 20158 ft | 385 kts | 188° |
| 2026-04-21 10:51 | -63.10586 | 7.99890 | 20158 ft | 385 kts | 188° |
| 2026-04-21 10:51 | -63.13231 | 7.99937 | 20158 ft | 385 kts | 188° |
| 2026-04-21 10:52 | -63.15911 | 7.99980 | 20151 ft | 385 kts | 188° |
| 2026-04-21 10:52 | -63.18592 | 8.00009 | 20150 ft | 385 kts | 188° |
| 2026-04-21 10:52 | -63.21268 | 8.00025 | 20199 ft | 385 kts | 188° |
| 2026-04-21 10:52 | -63.23942 | 8.00031 | 20154 ft | 385 kts | 188° |
| 2026-04-21 10:53 | -63.26620 | 8.00032 | 20149 ft | 385 kts | 188° |
| 2026-04-21 10:53 | -63.29296 | 8.00031 | 20141 ft | 385 kts | 188° |
| 2026-04-21 10:53 | -63.31972 | 8.00030 | 20141 ft | 385 kts | 188° |
| 2026-04-21 10:53 | -63.34655 | 8.00028 | 20141 ft | 385 kts | 188° |
| 2026-04-21 10:54 | -63.37328 | 8.00028 | 20138 ft | 385 kts | 188° |
| 2026-04-21 10:54 | -63.40008 | 8.00027 | 20129 ft | 385 kts | 188° |
| 2026-04-21 10:54 | -63.42683 | 8.00027 | 20129 ft | 385 kts | 188° |
| 2026-04-21 10:54 | -63.45365 | 8.00027 | 20130 ft | 385 kts | 188° |
| 2026-04-21 10:55 | -63.48040 | 8.00027 | 20130 ft | 385 kts | 188° |
| 2026-04-21 10:55 | -63.50717 | 8.00027 | 20131 ft | 385 kts | 188° |
| 2026-04-21 10:55 | -63.53394 | 8.00028 | 20146 ft | 384 kts | 188° |
| 2026-04-21 10:55 | -63.56061 | 8.00029 | 20129 ft | 384 kts | 188° |
| 2026-04-21 10:56 | -63.58735 | 8.00028 | 20124 ft | 384 kts | 189° |
| 2026-04-21 10:56 | -63.61408 | 8.00028 | 20127 ft | 384 kts | 189° |
| 2026-04-21 10:56 | -63.64084 | 8.00027 | 20127 ft | 384 kts | 189° |
| 2026-04-21 10:56 | -63.66751 | 8.00026 | 20119 ft | 384 kts | 189° |
| 2026-04-21 10:57 | -63.69422 | 8.00026 | 20121 ft | 384 kts | 188° |
| 2026-04-21 10:57 | -63.72094 | 8.00026 | 20119 ft | 384 kts | 188° |
| 2026-04-21 10:57 | -63.74763 | 8.00026 | 20119 ft | 384 kts | 188° |
| 2026-04-21 10:57 | -63.77438 | 8.00026 | 20108 ft | 384 kts | 188° |
| 2026-04-21 10:58 | -63.80108 | 8.00026 | 20106 ft | 384 kts | 188° |
| 2026-04-21 10:58 | -63.82775 | 8.00026 | 20108 ft | 384 kts | 188° |
| 2026-04-21 10:58 | -63.85441 | 8.00028 | 20108 ft | 383 kts | 189° |
| 2026-04-21 10:58 | -63.88108 | 8.00029 | 20103 ft | 383 kts | 189° |
| 2026-04-21 10:59 | -63.90773 | 8.00029 | 20103 ft | 383 kts | 189° |
| 2026-04-21 10:59 | -63.93438 | 8.00029 | 20102 ft | 383 kts | 189° |
| 2026-04-21 10:59 | -63.96099 | 8.00028 | 20102 ft | 383 kts | 189° |
| 2026-04-21 10:59 | -63.98764 | 8.00027 | 20097 ft | 383 kts | 189° |
| 2026-04-21 11:00 | -64.01429 | 8.00027 | 20105 ft | 383 kts | 189° |
| 2026-04-21 11:00 | -64.04087 | 8.00027 | 20095 ft | 383 kts | 189° |
| 2026-04-21 11:00 | -64.06753 | 8.00027 | 20089 ft | 382 kts | 189° |
| 2026-04-21 11:00 | -64.09378 | 8.00027 | 20090 ft | 382 kts | 189° |
| 2026-04-21 11:01 | -64.12074 | 8.00027 | 20097 ft | 383 kts | 189° |
| 2026-04-21 11:01 | -64.14703 | 8.00027 | 20130 ft | 383 kts | 189° |
| 2026-04-21 11:01 | -64.17360 | 8.00028 | 20084 ft | 382 kts | 189° |
| 2026-04-21 11:02 | -64.22675 | 8.00029 | 20077 ft | 382 kts | 189° |
| 2026-04-21 11:02 | -64.25335 | 8.00029 | 20072 ft | 382 kts | 189° |
| 2026-04-21 11:02 | -64.27993 | 8.00029 | 20061 ft | 382 kts | 189° |
| 2026-04-21 11:02 | -64.30648 | 8.00028 | 20061 ft | 382 kts | 189° |
| 2026-04-21 11:03 | -64.33307 | 8.00027 | 20063 ft | 382 kts | 189° |
| 2026-04-21 11:03 | -64.35961 | 8.00023 | 20066 ft | 382 kts | 189° |
| 2026-04-21 11:03 | -64.38620 | 8.00018 | 20068 ft | 382 kts | 189° |
| 2026-04-21 11:03 | -64.41273 | 8.00012 | 20052 ft | 382 kts | 189° |
| 2026-04-21 11:04 | -64.43933 | 8.00005 | 20061 ft | 382 kts | 189° |
| 2026-04-21 11:04 | -64.46591 | 8.00000 | 20082 ft | 382 kts | 189° |
| 2026-04-21 11:04 | -64.49249 | 7.99999 | 20058 ft | 382 kts | 189° |
| 2026-04-21 11:04 | -64.51903 | 8.00012 | 20033 ft | 381 kts | 189° |
| 2026-04-21 11:05 | -64.54522 | 8.00044 | 19559 ft | 374 kts | 189° |
| 2026-04-21 11:05 | -64.57127 | 8.00047 | 18810 ft | 375 kts | 189° |
| 2026-04-21 11:05 | -64.59734 | 8.00047 | 18289 ft | 373 kts | 189° |
| 2026-04-21 11:05 | -64.62329 | 8.00046 | 18081 ft | 372 kts | 189° |
| 2026-04-21 11:06 | -64.64921 | 8.00030 | 18044 ft | 373 kts | 189° |
| 2026-04-21 11:06 | -64.67516 | 8.00019 | 18042 ft | 373 kts | 189° |
| 2026-04-21 11:06 | -64.70115 | 8.00013 | 18049 ft | 373 kts | 189° |
| 2026-04-21 11:06 | -64.72710 | 8.00006 | 18044 ft | 373 kts | 189° |
| 2026-04-21 11:07 | -64.75302 | 8.00002 | 18049 ft | 373 kts | 189° |
| 2026-04-21 11:07 | -64.77895 | 8.00030 | 18079 ft | 373 kts | 189° |
| 2026-04-21 11:07 | -64.80483 | 8.00054 | 18037 ft | 371 kts | 190° |
| 2026-04-21 11:07 | -64.83028 | 8.00051 | 18031 ft | 370 kts | 190° |
| 2026-04-21 11:08 | -64.85627 | 8.00038 | 17954 ft | 367 kts | 190° |
| 2026-04-21 11:08 | -64.88132 | 8.00040 | 17455 ft | 363 kts | 190° |
| 2026-04-21 11:08 | -64.90653 | 8.00042 | 17094 ft | 363 kts | 190° |
| 2026-04-21 11:08 | -64.93191 | 8.00033 | 17028 ft | 366 kts | 190° |
| 2026-04-21 11:09 | -64.95735 | 8.00026 | 17026 ft | 366 kts | 189° |
| 2026-04-21 11:09 | -64.98278 | 8.00024 | 17030 ft | 365 kts | 189° |
| 2026-04-21 11:09 | -65.00821 | 8.00025 | 17027 ft | 365 kts | 189° |
| 2026-04-21 11:09 | -65.03362 | 8.00026 | 17023 ft | 365 kts | 189° |
| 2026-04-21 11:10 | -65.05904 | 8.00027 | 17023 ft | 365 kts | 189° |
| 2026-04-21 11:10 | -65.08445 | 8.00028 | 17024 ft | 365 kts | 189° |
| 2026-04-21 11:10 | -65.10986 | 8.00028 | 17024 ft | 365 kts | 189° |
| 2026-04-21 11:10 | -65.13529 | 8.00028 | 17019 ft | 365 kts | 189° |
| 2026-04-21 11:11 | -65.16068 | 8.00028 | 17010 ft | 365 kts | 189° |
| 2026-04-21 11:11 | -65.18610 | 8.00028 | 17012 ft | 365 kts | 189° |
| 2026-04-21 11:11 | -65.21149 | 8.00028 | 17012 ft | 365 kts | 189° |
| 2026-04-21 11:11 | -65.23692 | 8.00028 | 17012 ft | 365 kts | 189° |
| 2026-04-21 11:12 | -65.26233 | 8.00028 | 17009 ft | 365 kts | 189° |
| 2026-04-21 11:12 | -65.28771 | 8.00028 | 17003 ft | 365 kts | 189° |
| 2026-04-21 11:12 | -65.31314 | 8.00028 | 17003 ft | 365 kts | 189° |
| 2026-04-21 11:12 | -65.33851 | 8.00028 | 17003 ft | 365 kts | 189° |
| 2026-04-21 11:13 | -65.36396 | 8.00028 | 17003 ft | 365 kts | 189° |
| 2026-04-21 11:13 | -65.38935 | 8.00028 | 17003 ft | 365 kts | 189° |
| 2026-04-21 11:13 | -65.41476 | 8.00029 | 17029 ft | 365 kts | 190° |
| 2026-04-21 11:13 | -65.44014 | 8.00031 | 16986 ft | 364 kts | 190° |
| 2026-04-21 11:14 | -65.46543 | 8.00032 | 17001 ft | 363 kts | 190° |
| 2026-04-21 11:14 | -65.49069 | 8.00031 | 16988 ft | 363 kts | 190° |
| 2026-04-21 11:14 | -65.51596 | 8.00030 | 16987 ft | 363 kts | 190° |
| 2026-04-21 11:14 | -65.54122 | 8.00028 | 16986 ft | 363 kts | 190° |
| 2026-04-21 11:15 | -65.56652 | 8.00028 | 16992 ft | 363 kts | 190° |
| 2026-04-21 11:15 | -65.59182 | 8.00027 | 16976 ft | 363 kts | 190° |
| 2026-04-21 11:15 | -65.61707 | 8.00027 | 16977 ft | 363 kts | 190° |
| 2026-04-21 11:15 | -65.64236 | 8.00027 | 16991 ft | 363 kts | 190° |
| 2026-04-21 11:16 | -65.66762 | 8.00027 | 16979 ft | 363 kts | 190° |
| 2026-04-21 11:16 | -65.69288 | 8.00027 | 16965 ft | 363 kts | 190° |
| 2026-04-21 11:16 | -65.71817 | 8.00027 | 16965 ft | 363 kts | 190° |
| 2026-04-21 11:16 | -65.74347 | 8.00029 | 16980 ft | 363 kts | 190° |
| 2026-04-21 11:17 | -65.76865 | 8.00030 | 16970 ft | 362 kts | 190° |
| 2026-04-21 11:17 | -65.79387 | 8.00030 | 16961 ft | 362 kts | 190° |
| 2026-04-21 11:17 | -65.81871 | 8.00029 | 16962 ft | 362 kts | 190° |
| 2026-04-21 11:17 | -65.84391 | 8.00028 | 16961 ft | 362 kts | 190° |
| 2026-04-21 11:18 | -65.86908 | 8.00027 | 16960 ft | 362 kts | 190° |
| 2026-04-21 11:18 | -65.89428 | 8.00027 | 16962 ft | 362 kts | 190° |
| 2026-04-21 11:18 | -65.91982 | 8.00027 | 16953 ft | 362 kts | 190° |
| 2026-04-21 11:18 | -65.94468 | 8.00027 | 16953 ft | 362 kts | 190° |
| 2026-04-21 11:19 | -65.96986 | 8.00027 | 16953 ft | 362 kts | 190° |
| 2026-04-21 11:19 | -65.99507 | 8.00027 | 16953 ft | 362 kts | 190° |
| 2026-04-21 11:19 | -66.02028 | 8.00097 | 16954 ft | 364 kts | 188° |
| 2026-04-21 11:19 | -66.04566 | 8.00404 | 17026 ft | 366 kts | 187° |
| 2026-04-21 11:20 | -66.07108 | 8.00746 | 16950 ft | 365 kts | 187° |
| 2026-04-21 11:20 | -66.09641 | 8.01070 | 16944 ft | 365 kts | 187° |
| 2026-04-21 11:20 | -66.12179 | 8.01380 | 16945 ft | 365 kts | 187° |
| 2026-04-21 11:20 | -66.14717 | 8.01682 | 16945 ft | 365 kts | 187° |
| 2026-04-21 11:21 | -66.17252 | 8.01980 | 16936 ft | 365 kts | 187° |
| 2026-04-21 11:21 | -66.19787 | 8.02276 | 16936 ft | 365 kts | 187° |
| 2026-04-21 11:21 | -66.22320 | 8.02571 | 16936 ft | 365 kts | 187° |
| 2026-04-21 11:21 | -66.24858 | 8.02866 | 16936 ft | 365 kts | 187° |
| 2026-04-21 11:22 | -66.27392 | 8.03161 | 16939 ft | 365 kts | 187° |
| 2026-04-21 11:22 | -66.29924 | 8.03456 | 16939 ft | 365 kts | 187° |
| 2026-04-21 11:22 | -66.32462 | 8.03751 | 16939 ft | 365 kts | 187° |
| 2026-04-21 11:22 | -66.34998 | 8.04047 | 16939 ft | 365 kts | 187° |
| 2026-04-21 11:23 | -66.37531 | 8.04336 | 16966 ft | 365 kts | 186° |
| 2026-04-21 11:23 | -66.40072 | 8.04628 | 16936 ft | 366 kts | 186° |
| 2026-04-21 11:23 | -66.42622 | 8.04926 | 16937 ft | 367 kts | 186° |
| 2026-04-21 11:23 | -66.45176 | 8.05226 | 16933 ft | 367 kts | 186° |
| 2026-04-21 11:24 | -66.47726 | 8.05528 | 16933 ft | 367 kts | 186° |
| 2026-04-21 11:24 | -66.50277 | 8.05830 | 16934 ft | 367 kts | 186° |
| 2026-04-21 11:24 | -66.52832 | 8.06133 | 16935 ft | 367 kts | 186° |
| 2026-04-21 11:24 | -66.55380 | 8.06436 | 16934 ft | 367 kts | 186° |
| 2026-04-21 11:25 | -66.57931 | 8.06740 | 16939 ft | 367 kts | 186° |
| 2026-04-21 11:25 | -66.60450 | 8.07040 | 16940 ft | 367 kts | 186° |
| 2026-04-21 11:25 | -66.62985 | 8.07346 | 16643 ft | 361 kts | 186° |
| 2026-04-21 11:25 | -66.65495 | 8.07647 | 15865 ft | 362 kts | 186° |
| 2026-04-21 11:26 | -66.68007 | 8.07944 | 15158 ft | 361 kts | 185° |
| 2026-04-21 11:26 | -66.70517 | 8.08241 | 14493 ft | 361 kts | 182° |
| 2026-04-21 11:26 | -66.73026 | 8.08542 | 13788 ft | 361 kts | 181° |
| 2026-04-21 11:26 | -66.75521 | 8.08848 | 13235 ft | 356 kts | 181° |
| 2026-04-21 11:27 | -66.77984 | 8.09148 | 12643 ft | 353 kts | 180° |
| 2026-04-21 11:27 | -66.80422 | 8.09449 | 12024 ft | 349 kts | 180° |
| 2026-04-21 11:27 | -66.82841 | 8.09749 | 11392 ft | 346 kts | 182° |
| 2026-04-21 11:27 | -66.85224 | 8.10040 | 10800 ft | 342 kts | 181° |
| 2026-04-21 11:28 | -66.87594 | 8.10328 | 10214 ft | 340 kts | 181° |
| 2026-04-21 11:28 | -66.89949 | 8.10609 | 9987 ft | 340 kts | 180° |
| 2026-04-21 11:28 | -66.92317 | 8.10901 | 9930 ft | 339 kts | 182° |
| 2026-04-21 11:28 | -66.94646 | 8.11191 | 9559 ft | 331 kts | 181° |
| 2026-04-21 11:29 | -66.96898 | 8.11475 | 9640 ft | 320 kts | 182° |
| 2026-04-21 11:29 | -66.99143 | 8.11742 | 9833 ft | 330 kts | 181° |
| 2026-04-21 11:29 | -67.01484 | 8.12013 | 9960 ft | 340 kts | 179° |
| 2026-04-21 11:29 | -67.03858 | 8.12298 | 9977 ft | 343 kts | 178° |
| 2026-04-21 11:30 | -67.06245 | 8.12603 | 9976 ft | 344 kts | 179° |
| 2026-04-21 11:30 | -67.08634 | 8.12902 | 9995 ft | 344 kts | 179° |
| 2026-04-21 11:30 | -67.11021 | 8.13202 | 9995 ft | 343 kts | 179° |
| 2026-04-21 11:30 | -67.13404 | 8.13497 | 9996 ft | 343 kts | 179° |
| 2026-04-21 11:31 | -67.15789 | 8.13796 | 9994 ft | 343 kts | 179° |
| 2026-04-21 11:31 | -67.18175 | 8.14093 | 9993 ft | 344 kts | 178° |
| 2026-04-21 11:31 | -67.20566 | 8.14396 | 9992 ft | 344 kts | 179° |
| 2026-04-21 11:31 | -67.22955 | 8.14697 | 10010 ft | 343 kts | 179° |
| 2026-04-21 11:32 | -67.25336 | 8.14997 | 10009 ft | 343 kts | 179° |
| 2026-04-21 11:32 | -67.27721 | 8.15297 | 10010 ft | 343 kts | 179° |
| 2026-04-21 11:32 | -67.30106 | 8.15596 | 10009 ft | 344 kts | 178° |
| 2026-04-21 11:32 | -67.32465 | 8.15899 | 10010 ft | 344 kts | 179° |
| 2026-04-21 11:33 | -67.34850 | 8.16203 | 10030 ft | 344 kts | 178° |
| 2026-04-21 11:33 | -67.37254 | 8.16510 | 10030 ft | 347 kts | 178° |
| 2026-04-21 11:33 | -67.39670 | 8.16818 | 10028 ft | 348 kts | 178° |
| 2026-04-21 11:33 | -67.42091 | 8.17127 | 10027 ft | 348 kts | 178° |
| 2026-04-21 11:34 | -67.44513 | 8.17438 | 10029 ft | 348 kts | 178° |
| 2026-04-21 11:34 | -67.46927 | 8.17753 | 10042 ft | 348 kts | 178° |
| 2026-04-21 11:34 | -67.49344 | 8.18064 | 10043 ft | 348 kts | 178° |
| 2026-04-21 11:34 | -67.51766 | 8.18375 | 10043 ft | 348 kts | 178° |
| 2026-04-21 11:35 | -67.54183 | 8.18685 | 10045 ft | 348 kts | 178° |
| 2026-04-21 11:35 | -67.56598 | 8.18998 | 10044 ft | 348 kts | 178° |
| 2026-04-21 11:35 | -67.59016 | 8.19314 | 10042 ft | 348 kts | 178° |
| 2026-04-21 11:35 | -67.61434 | 8.19625 | 10060 ft | 348 kts | 178° |
| 2026-04-21 11:36 | -67.63850 | 8.19934 | 10055 ft | 348 kts | 178° |
| 2026-04-21 11:36 | -67.66270 | 8.20243 | 10060 ft | 348 kts | 178° |
| 2026-04-21 11:36 | -67.67872 | 8.20448 | 10060 ft | 348 kts | 177° |
| 2026-04-21 11:36 | -67.71105 | 8.20871 | 10060 ft | 347 kts | 177° |
| 2026-04-21 11:37 | -67.72700 | 8.21081 | 10058 ft | 347 kts | 177° |
| 2026-04-21 11:37 | -67.75118 | 8.21399 | 10074 ft | 348 kts | 177° |
| 2026-04-21 11:37 | -67.77536 | 8.21718 | 10074 ft | 348 kts | 177° |
| 2026-04-21 11:37 | -67.79952 | 8.22037 | 10074 ft | 348 kts | 177° |
| 2026-04-21 11:38 | -67.82365 | 8.22355 | 10078 ft | 348 kts | 177° |
| 2026-04-21 11:38 | -67.84783 | 8.22675 | 10077 ft | 347 kts | 177° |
| 2026-04-21 11:38 | -67.87196 | 8.22995 | 10090 ft | 347 kts | 177° |
| 2026-04-21 11:38 | -67.89610 | 8.23316 | 10090 ft | 348 kts | 177° |
| 2026-04-21 11:39 | -67.92025 | 8.23637 | 10089 ft | 348 kts | 177° |
| 2026-04-21 11:39 | -67.94442 | 8.23960 | 10088 ft | 348 kts | 177° |
| 2026-04-21 11:39 | -67.96857 | 8.24282 | 10088 ft | 347 kts | 177° |
| 2026-04-21 11:39 | -67.99269 | 8.24606 | 10090 ft | 347 kts | 177° |
| 2026-04-21 11:40 | -68.01678 | 8.24931 | 10103 ft | 346 kts | 177° |
| 2026-04-21 11:40 | -68.04085 | 8.25257 | 10105 ft | 345 kts | 178° |
| 2026-04-21 11:40 | -68.06482 | 8.25578 | 10106 ft | 345 kts | 178° |
| 2026-04-21 11:40 | -68.08878 | 8.25902 | 10105 ft | 345 kts | 177° |
| 2026-04-21 11:41 | -68.11277 | 8.26226 | 10100 ft | 345 kts | 178° |
| 2026-04-21 11:41 | -68.13643 | 8.26547 | 10102 ft | 345 kts | 177° |
| 2026-04-21 11:41 | -68.16037 | 8.26873 | 10102 ft | 345 kts | 178° |
| 2026-04-21 11:41 | -68.18437 | 8.27200 | 10102 ft | 345 kts | 178° |
| 2026-04-21 11:42 | -68.20835 | 8.27526 | 10105 ft | 345 kts | 178° |
| 2026-04-21 11:42 | -68.23230 | 8.27853 | 10105 ft | 345 kts | 177° |
| 2026-04-21 11:42 | -68.25628 | 8.28182 | 10104 ft | 345 kts | 177° |
| 2026-04-21 11:42 | -68.28025 | 8.28511 | 10116 ft | 345 kts | 177° |
| 2026-04-21 11:43 | -68.30423 | 8.28842 | 10119 ft | 345 kts | 178° |
| 2026-04-21 11:43 | -68.32819 | 8.29172 | 10119 ft | 345 kts | 178° |
| 2026-04-21 11:43 | -68.35218 | 8.29503 | 10119 ft | 345 kts | 177° |
| 2026-04-21 11:43 | -68.37614 | 8.29835 | 10119 ft | 345 kts | 177° |
| 2026-04-21 11:44 | -68.40013 | 8.30169 | 10129 ft | 345 kts | 177° |
| 2026-04-21 11:44 | -68.42407 | 8.30502 | 10128 ft | 345 kts | 178° |
| 2026-04-21 11:44 | -68.44807 | 8.30837 | 10127 ft | 345 kts | 178° |
| 2026-04-21 11:44 | -68.47199 | 8.31170 | 10127 ft | 345 kts | 178° |
| 2026-04-21 11:45 | -68.49597 | 8.31505 | 10127 ft | 345 kts | 177° |
| 2026-04-21 11:45 | -68.51991 | 8.31841 | 10127 ft | 345 kts | 177° |
| 2026-04-21 11:45 | -68.54386 | 8.32178 | 10141 ft | 345 kts | 177° |
| 2026-04-21 11:45 | -68.56784 | 8.32516 | 10141 ft | 345 kts | 178° |
| 2026-04-21 11:46 | -68.59177 | 8.32854 | 10142 ft | 344 kts | 178° |
| 2026-04-21 11:46 | -68.61567 | 8.33192 | 10141 ft | 344 kts | 178° |
| 2026-04-21 11:46 | -68.63964 | 8.33531 | 10141 ft | 345 kts | 177° |
| 2026-04-21 11:46 | -68.66357 | 8.33873 | 10151 ft | 344 kts | 178° |
| 2026-04-21 11:47 | -68.68746 | 8.34214 | 10153 ft | 343 kts | 178° |
| 2026-04-21 11:47 | -68.71126 | 8.34553 | 10153 ft | 342 kts | 178° |
| 2026-04-21 11:47 | -68.73507 | 8.34892 | 10153 ft | 342 kts | 178° |
| 2026-04-21 11:47 | -68.75885 | 8.35232 | 10152 ft | 342 kts | 178° |
| 2026-04-21 11:48 | -68.78224 | 8.35568 | 9970 ft | 329 kts | 178° |
| 2026-04-21 11:48 | -68.80468 | 8.35895 | 9741 ft | 317 kts | 178° |
| 2026-04-21 11:48 | -68.82666 | 8.36213 | 8995 ft | 320 kts | 178° |
| 2026-04-21 11:48 | -68.84888 | 8.36532 | 8466 ft | 316 kts | 178° |
| 2026-04-21 11:49 | -68.87038 | 8.36841 | 8206 ft | 303 kts | 178° |
| 2026-04-21 11:49 | -68.89099 | 8.37142 | 8000 ft | 290 kts | 178° |
| 2026-04-21 11:49 | -68.91078 | 8.37428 | 7794 ft | 280 kts | 178° |
| 2026-04-21 11:49 | -68.92996 | 8.37707 | 7512 ft | 273 kts | 178° |
| 2026-04-21 11:50 | -68.94882 | 8.37982 | 7167 ft | 270 kts | 177° |
| 2026-04-21 11:50 | -68.96751 | 8.38254 | 6756 ft | 269 kts | 178° |
| 2026-04-21 11:50 | -68.98611 | 8.38526 | 6375 ft | 267 kts | 177° |
| 2026-04-21 11:50 | -69.00451 | 8.38780 | 6195 ft | 264 kts | 174° |
| 2026-04-21 11:51 | -69.02291 | 8.39056 | 6178 ft | 265 kts | 173° |
| 2026-04-21 11:51 | -69.04134 | 8.39327 | 6176 ft | 265 kts | 172° |
| 2026-04-21 11:51 | -69.05974 | 8.39609 | 6183 ft | 265 kts | 174° |
| 2026-04-21 11:51 | -69.07818 | 8.39885 | 6174 ft | 265 kts | 173° |
| 2026-04-21 11:52 | -69.09660 | 8.40153 | 6172 ft | 265 kts | 173° |
| 2026-04-21 11:52 | -69.11473 | 8.40424 | 6180 ft | 265 kts | 174° |
| 2026-04-21 11:52 | -69.13337 | 8.40693 | 6182 ft | 264 kts | 172° |
| 2026-04-21 11:52 | -69.15152 | 8.40968 | 6171 ft | 265 kts | 172° |
| 2026-04-21 11:53 | -69.16987 | 8.41245 | 6186 ft | 264 kts | 173° |
| 2026-04-21 11:53 | -69.18824 | 8.41516 | 6188 ft | 264 kts | 172° |
| 2026-04-21 11:53 | -69.20662 | 8.41797 | 6197 ft | 265 kts | 174° |
| 2026-04-21 11:53 | -69.22502 | 8.42077 | 6192 ft | 265 kts | 174° |
| 2026-04-21 11:54 | -69.24345 | 8.42347 | 6181 ft | 265 kts | 173° |
| 2026-04-21 11:54 | -69.26186 | 8.42623 | 6195 ft | 265 kts | 174° |
| 2026-04-21 11:54 | -69.28026 | 8.42899 | 6197 ft | 265 kts | 172° |
| 2026-04-21 11:54 | -69.29864 | 8.43167 | 6182 ft | 264 kts | 172° |
| 2026-04-21 11:55 | -69.31699 | 8.43446 | 6197 ft | 264 kts | 173° |
| 2026-04-21 11:55 | -69.33540 | 8.43721 | 6195 ft | 265 kts | 172° |
| 2026-04-21 11:55 | -69.35383 | 8.44001 | 6197 ft | 265 kts | 172° |
| 2026-04-21 11:55 | -69.37227 | 8.44283 | 6203 ft | 266 kts | 172° |
| 2026-04-21 11:56 | -69.39070 | 8.44565 | 6204 ft | 266 kts | 172° |
| 2026-04-21 11:56 | -69.40915 | 8.44846 | 6204 ft | 265 kts | 172° |
| 2026-04-21 11:56 | -69.42759 | 8.45128 | 6199 ft | 265 kts | 172° |
| 2026-04-21 11:56 | -69.44602 | 8.45409 | 6207 ft | 265 kts | 172° |
| 2026-04-21 11:57 | -69.46446 | 8.45687 | 6210 ft | 265 kts | 172° |
| 2026-04-21 11:57 | -69.48289 | 8.45968 | 6215 ft | 265 kts | 172° |
| 2026-04-21 11:57 | -69.50134 | 8.46252 | 6215 ft | 265 kts | 172° |
| 2026-04-21 11:57 | -69.51980 | 8.46538 | 6215 ft | 266 kts | 172° |
| 2026-04-21 11:58 | -69.53822 | 8.46822 | 6217 ft | 265 kts | 172° |
| 2026-04-21 11:58 | -69.55665 | 8.47107 | 6211 ft | 265 kts | 172° |
| 2026-04-21 11:58 | -69.57510 | 8.47391 | 6212 ft | 265 kts | 172° |
| 2026-04-21 11:58 | -69.59355 | 8.47674 | 6227 ft | 265 kts | 171° |
| 2026-04-21 11:59 | -69.61196 | 8.47984 | 6224 ft | 265 kts | 171° |
| 2026-04-21 11:59 | -69.63038 | 8.48287 | 6225 ft | 265 kts | 172° |
| 2026-04-21 11:59 | -69.64886 | 8.48562 | 6222 ft | 265 kts | 172° |
| 2026-04-21 11:59 | -69.66728 | 8.48834 | 6206 ft | 265 kts | 171° |
| 2026-04-21 12:00 | -69.68575 | 8.49113 | 6225 ft | 266 kts | 171° |
| 2026-04-21 12:00 | -69.70420 | 8.49396 | 6230 ft | 266 kts | 171° |
| 2026-04-21 12:00 | -69.72270 | 8.49685 | 6229 ft | 266 kts | 171° |
| 2026-04-21 12:00 | -69.74091 | 8.49971 | 6242 ft | 266 kts | 171° |
| 2026-04-21 12:01 | -69.75964 | 8.50265 | 6239 ft | 266 kts | 171° |
| 2026-04-21 12:01 | -69.77786 | 8.50552 | 6238 ft | 266 kts | 171° |
| 2026-04-21 12:01 | -69.79636 | 8.50843 | 6236 ft | 266 kts | 171° |
| 2026-04-21 12:01 | -69.81482 | 8.51134 | 6236 ft | 266 kts | 171° |
| 2026-04-21 12:02 | -69.83329 | 8.51426 | 6235 ft | 266 kts | 171° |
| 2026-04-21 12:02 | -69.87023 | 8.52013 | 6248 ft | 266 kts | 171° |
| 2026-04-21 12:02 | -69.88871 | 8.52307 | 6248 ft | 266 kts | 171° |
| 2026-04-21 12:03 | -69.90719 | 8.52601 | 6245 ft | 266 kts | 171° |
| 2026-04-21 12:03 | -69.92565 | 8.52895 | 6244 ft | 266 kts | 171° |
| 2026-04-21 12:03 | -69.94414 | 8.53190 | 6244 ft | 266 kts | 171° |
| 2026-04-21 12:03 | -69.96263 | 8.53487 | 6245 ft | 266 kts | 171° |
| 2026-04-21 12:04 | -69.98109 | 8.53784 | 6245 ft | 266 kts | 171° |
| 2026-04-21 12:04 | -69.99952 | 8.54080 | 6241 ft | 266 kts | 170° |
| 2026-04-21 12:04 | -70.01795 | 8.54374 | 6253 ft | 264 kts | 170° |
| 2026-04-21 12:04 | -70.03630 | 8.54670 | 6253 ft | 264 kts | 170° |
| 2026-04-21 12:05 | -70.05461 | 8.54967 | 6254 ft | 264 kts | 170° |
| 2026-04-21 12:05 | -70.07293 | 8.55264 | 6257 ft | 264 kts | 170° |
| 2026-04-21 12:05 | -70.09125 | 8.55563 | 6255 ft | 264 kts | 170° |
| 2026-04-21 12:05 | -70.10955 | 8.55862 | 6255 ft | 264 kts | 170° |
| 2026-04-21 12:06 | -70.12790 | 8.56161 | 6250 ft | 264 kts | 170° |
| 2026-04-21 12:06 | -70.14623 | 8.56460 | 6255 ft | 264 kts | 170° |
| 2026-04-21 12:06 | -70.16458 | 8.56760 | 6255 ft | 264 kts | 170° |
| 2026-04-21 12:06 | -70.18294 | 8.57060 | 6256 ft | 264 kts | 170° |
| 2026-04-21 12:07 | -70.20124 | 8.57360 | 6256 ft | 264 kts | 170° |
| 2026-04-21 12:07 | -70.21955 | 8.57661 | 6256 ft | 264 kts | 170° |
| 2026-04-21 12:07 | -70.23791 | 8.57964 | 6256 ft | 264 kts | 170° |
| 2026-04-21 12:07 | -70.25625 | 8.58267 | 6256 ft | 264 kts | 170° |
| 2026-04-21 12:08 | -70.27461 | 8.58570 | 6264 ft | 264 kts | 170° |
| 2026-04-21 12:08 | -70.29295 | 8.58873 | 6264 ft | 264 kts | 170° |
| 2026-04-21 12:08 | -70.31127 | 8.59177 | 6263 ft | 264 kts | 170° |
| 2026-04-21 12:08 | -70.32958 | 8.59482 | 6265 ft | 264 kts | 170° |
| 2026-04-21 12:09 | -70.34794 | 8.59788 | 6251 ft | 264 kts | 169° |
| 2026-04-21 12:09 | -70.36628 | 8.60094 | 6266 ft | 264 kts | 169° |
| 2026-04-21 12:09 | -70.38465 | 8.60399 | 6257 ft | 265 kts | 168° |
| 2026-04-21 12:09 | -70.40319 | 8.60720 | 6269 ft | 268 kts | 170° |
| 2026-04-21 12:10 | -70.42181 | 8.61032 | 6277 ft | 269 kts | 169° |
| 2026-04-21 12:10 | -70.44050 | 8.61340 | 6280 ft | 269 kts | 171° |
| 2026-04-21 12:10 | -70.45919 | 8.61655 | 6278 ft | 269 kts | 171° |
| 2026-04-21 12:10 | -70.47789 | 8.61965 | 6277 ft | 269 kts | 170° |
| 2026-04-21 12:11 | -70.49659 | 8.62276 | 6272 ft | 269 kts | 170° |
| 2026-04-21 12:11 | -70.51525 | 8.62592 | 6277 ft | 269 kts | 169° |
| 2026-04-21 12:11 | -70.53394 | 8.62911 | 6273 ft | 269 kts | 170° |
| 2026-04-21 12:11 | -70.55265 | 8.63225 | 6298 ft | 269 kts | 169° |
| 2026-04-21 12:12 | -70.57134 | 8.63549 | 6297 ft | 269 kts | 169° |
| 2026-04-21 12:12 | -70.59004 | 8.63867 | 6296 ft | 269 kts | 170° |
| 2026-04-21 12:12 | -70.60850 | 8.64186 | 6297 ft | 269 kts | 171° |
| 2026-04-21 12:12 | -70.62716 | 8.64502 | 6305 ft | 269 kts | 169° |
| 2026-04-21 12:13 | -70.64584 | 8.64814 | 6292 ft | 269 kts | 170° |
| 2026-04-21 12:13 | -70.66450 | 8.65139 | 6309 ft | 269 kts | 170° |
| 2026-04-21 12:13 | -70.68317 | 8.65459 | 6307 ft | 268 kts | 170° |
| 2026-04-21 12:13 | -70.70184 | 8.65786 | 6316 ft | 269 kts | 170° |
| 2026-04-21 12:14 | -70.72053 | 8.66108 | 6318 ft | 269 kts | 170° |
| 2026-04-21 12:14 | -70.73923 | 8.66441 | 6316 ft | 269 kts | 169° |
| 2026-04-21 12:14 | -70.75794 | 8.66791 | 6321 ft | 270 kts | 170° |
| 2026-04-21 12:14 | -70.77666 | 8.67117 | 6319 ft | 270 kts | 171° |
| 2026-04-21 12:15 | -70.79540 | 8.67429 | 6321 ft | 270 kts | 171° |
| 2026-04-21 12:15 | -70.81415 | 8.67745 | 6343 ft | 270 kts | 171° |
| 2026-04-21 12:15 | -70.83287 | 8.68065 | 6342 ft | 269 kts | 169° |
| 2026-04-21 12:15 | -70.85159 | 8.68388 | 6341 ft | 269 kts | 176° |
| 2026-04-21 12:16 | -70.87034 | 8.68522 | 6340 ft | 270 kts | 171° |
| 2026-04-21 12:16 | -70.88903 | 8.68876 | 6344 ft | 269 kts | 169° |
| 2026-04-21 12:16 | -70.90770 | 8.69274 | 6341 ft | 269 kts | 169° |
| 2026-04-21 12:16 | -70.92638 | 8.69648 | 6344 ft | 269 kts | 170° |
| 2026-04-21 12:17 | -70.94503 | 8.70002 | 6343 ft | 269 kts | 171° |
| 2026-04-21 12:17 | -70.96370 | 8.70279 | 6361 ft | 269 kts | 170° |
| 2026-04-21 12:17 | -70.98236 | 8.70625 | 6361 ft | 269 kts | 170° |
| 2026-04-21 12:17 | -71.00105 | 8.70938 | 6364 ft | 269 kts | 178° |
| 2026-04-21 12:18 | -71.01979 | 8.71061 | 6339 ft | 269 kts | 170° |
| 2026-04-21 12:18 | -71.03834 | 8.71439 | 6353 ft | 266 kts | 167° |
| 2026-04-21 12:18 | -71.05675 | 8.71891 | 6348 ft | 265 kts | 167° |
| 2026-04-21 12:18 | -71.07518 | 8.72307 | 6015 ft | 264 kts | 168° |
| 2026-04-21 12:19 | -71.09333 | 8.72676 | 5892 ft | 260 kts | 167° |
| 2026-04-21 12:19 | -71.11148 | 8.73021 | 5871 ft | 262 kts | 168° |
| 2026-04-21 12:19 | -71.12967 | 8.73342 | 5872 ft | 262 kts | 168° |
| 2026-04-21 12:19 | -71.14786 | 8.73661 | 5872 ft | 262 kts | 168° |
| 2026-04-21 12:20 | -71.16606 | 8.73999 | 5874 ft | 262 kts | 168° |
| 2026-04-21 12:20 | -71.18419 | 8.74369 | 5881 ft | 259 kts | 170° |
| 2026-04-21 12:20 | -71.20227 | 8.74720 | 5871 ft | 261 kts | 167° |
| 2026-04-21 12:20 | -71.22045 | 8.75050 | 5872 ft | 262 kts | 168° |
| 2026-04-21 12:21 | -71.23838 | 8.75367 | 5881 ft | 261 kts | 167° |
| 2026-04-21 12:21 | -71.25653 | 8.75719 | 5881 ft | 261 kts | 167° |
| 2026-04-21 12:21 | -71.27472 | 8.76073 | 5882 ft | 262 kts | 167° |
| 2026-04-21 12:21 | -71.29288 | 8.76422 | 5882 ft | 262 kts | 167° |
| 2026-04-21 12:22 | -71.31108 | 8.76763 | 5909 ft | 262 kts | 167° |
| 2026-04-21 12:22 | -71.32932 | 8.77099 | 6147 ft | 263 kts | 167° |
| 2026-04-21 12:22 | -71.34763 | 8.77465 | 6414 ft | 264 kts | 167° |
| 2026-04-21 12:22 | -71.36608 | 8.77796 | 6515 ft | 266 kts | 171° |
| 2026-04-21 12:23 | -71.38440 | 8.78090 | 6489 ft | 261 kts | 175° |
| 2026-04-21 12:23 | -71.40241 | 8.78373 | 6410 ft | 258 kts | 175° |
| 2026-04-21 12:23 | -71.42028 | 8.78673 | 6408 ft | 257 kts | 174° |
| 2026-04-21 12:23 | -71.43812 | 8.78992 | 6432 ft | 257 kts | 174° |
| 2026-04-21 12:24 | -71.45592 | 8.79311 | 6426 ft | 256 kts | 174° |
| 2026-04-21 12:24 | -71.47373 | 8.79636 | 6423 ft | 256 kts | 174° |
| 2026-04-21 12:24 | -71.49148 | 8.79960 | 6408 ft | 256 kts | 174° |
| 2026-04-21 12:24 | -71.50906 | 8.80286 | 6419 ft | 244 kts | 174° |
| 2026-04-21 12:25 | -71.52505 | 8.80569 | 6431 ft | 216 kts | 174° |
| 2026-04-21 12:25 | -71.53943 | 8.80831 | 6436 ft | 202 kts | 174° |
| 2026-04-21 12:25 | -71.54865 | 8.81006 | 6416 ft | 196 kts | 174° |
| 2026-04-21 12:25 | -71.56534 | 8.81316 | 6415 ft | 164 kts | 173° |
| 2026-04-21 12:26 | -71.57261 | 8.81447 | 6316 ft | 153 kts | 172° |
| 2026-04-21 12:26 | -71.58285 | 8.81642 | 6020 ft | 144 kts | 172° |
| 2026-04-21 12:26 | -71.59255 | 8.81832 | 5905 ft | 136 kts | 172° |
| 2026-04-21 12:26 | -71.60210 | 8.81931 | 5907 ft | 139 kts | 177° |
| 2026-04-21 12:27 | -71.61172 | 8.81384 | 5934 ft | 143 kts | 193° |
| 2026-04-21 12:27 | -71.62066 | 8.79936 | 5938 ft | 146 kts | 210° |
| 2026-04-21 12:27 | -71.62798 | 8.77663 | 5904 ft | 149 kts | 227° |
| 2026-04-21 12:27 | -71.63287 | 8.74745 | 5906 ft | 151 kts | 245° |
| 2026-04-21 12:28 | -71.63476 | 8.71438 | 5940 ft | 154 kts | 264° |
| 2026-04-21 12:28 | -71.63334 | 8.68071 | 5942 ft | 156 kts | 283° |
| 2026-04-21 12:28 | -71.62864 | 8.64970 | 5895 ft | 156 kts | 302° |
| 2026-04-21 12:28 | -71.62124 | 8.62500 | 5388 ft | 155 kts | 322° |
| 2026-04-21 12:29 | -71.61178 | 8.60907 | 4998 ft | 153 kts | 341° |
| 2026-04-21 12:29 | -71.60141 | 8.60316 | 4781 ft | 151 kts | 1° |
| 2026-04-21 12:29 | -71.59113 | 8.60735 | 4690 ft | 150 kts | 20° |
| 2026-04-21 12:29 | -71.58177 | 8.62095 | 4610 ft | 147 kts | 37° |
| 2026-04-21 12:30 | -71.57425 | 8.64218 | 4591 ft | 143 kts | 56° |
| 2026-04-21 12:30 | -71.56895 | 8.66972 | 4664 ft | 153 kts | 71° |
| 2026-04-21 12:30 | -71.56597 | 8.70228 | 4698 ft | 151 kts | 85° |
| 2026-04-21 12:30 | -71.56579 | 8.73363 | 4709 ft | 135 kts | 101° |
| 2026-04-21 12:31 | -71.56830 | 8.76135 | 4720 ft | 129 kts | 116° |
| 2026-04-21 12:31 | -71.56972 | 8.78814 | 4703 ft | 128 kts | 63° |
| 2026-04-21 12:31 | -71.56117 | 8.79736 | 4583 ft | 157 kts | 342° |
| 2026-04-21 12:31 | -71.55182 | 8.78014 | 4538 ft | 152 kts | 322° |
| 2026-04-21 12:32 | -71.54363 | 8.75977 | 4474 ft | 152 kts | 333° |
| 2026-04-21 12:32 | -71.53417 | 8.74712 | 4339 ft | 148 kts | 346° |
| 2026-04-21 12:32 | -71.52461 | 8.73861 | 4161 ft | 139 kts | 345° |
| 2026-04-21 12:32 | -71.51549 | 8.73022 | 4064 ft | 128 kts | 344° |
| 2026-04-21 12:33 | -71.50983 | 8.72542 | 4061 ft | 26 kts | 343° |
| 2026-04-21 12:33 | -71.50904 | 8.72309 | 4066 ft | 10 kts | 277° |
| 2026-04-21 12:33 | -71.50904 | 8.72298 | 4066 ft | 1 kts | 274° |
| 2026-04-21 12:34 | -71.50904 | 8.72297 | 4066 ft | 0 kts | 274° |
| 2026-04-21 12:34 | -71.50804 | 8.71474 | 4080 ft | 85 kts | 314° |
| 2026-04-21 12:35 | -71.50384 | 8.71302 | 4092 ft | 39 kts | 65° |
| 2026-04-21 12:35 | -71.50331 | 8.72292 | 4080 ft | 56 kts | 81° |